<?xml version="1.0" encoding="UTF-8"?>
<gpx xmlns="http://www.topografix.com/GPX/1/1" xmlns:xsi="http://www.w3.org/2001/XMLSchema-instance" version="1.1" xsi:schemaLocation="http://www.topografix.com/GPX/1/1 http://www.topografix.com/GPX/1/1/gpx.xsd">
  <metadata>
    <name>Half Triathlon Pamplona - Iruña</name>
  </metadata>
  <trk>
    <name>Half Triathlon Pamplona - Iruña</name>
    <trkseg>
      <trkpt lat="42.719039" lon="-1.939429">
        <ele>476.455457</ele>
        <time>2022-05-14T13:38:00.000Z</time>
      </trkpt>
      <trkpt lat="42.718786" lon="-1.93882">
        <ele>476.455467</ele>
        <time>2022-05-14T13:38:06.000Z</time>
      </trkpt>
      <trkpt lat="42.718612" lon="-1.93815">
        <ele>476.491538</ele>
        <time>2022-05-14T13:38:12.000Z</time>
      </trkpt>
      <trkpt lat="42.718522" lon="-1.937984">
        <ele>476.530508</ele>
        <time>2022-05-14T13:38:14.000Z</time>
      </trkpt>
      <trkpt lat="42.718401" lon="-1.937793">
        <ele>476.57788</ele>
        <time>2022-05-14T13:38:16.000Z</time>
      </trkpt>
      <trkpt lat="42.718283" lon="-1.937431">
        <ele>476.653723</ele>
        <time>2022-05-14T13:38:19.000Z</time>
      </trkpt>
      <trkpt lat="42.718291" lon="-1.937267">
        <ele>476.685455</ele>
        <time>2022-05-14T13:38:20.000Z</time>
      </trkpt>
      <trkpt lat="42.718321" lon="-1.937105">
        <ele>476.718436</ele>
        <time>2022-05-14T13:38:21.000Z</time>
      </trkpt>
      <trkpt lat="42.718371" lon="-1.936922">
        <ele>476.754852</ele>
        <time>2022-05-14T13:38:23.000Z</time>
      </trkpt>
      <trkpt lat="42.718377" lon="-1.936742">
        <ele>476.789188</ele>
        <time>2022-05-14T13:38:24.000Z</time>
      </trkpt>
      <trkpt lat="42.718302" lon="-1.936581">
        <ele>476.824766</ele>
        <time>2022-05-14T13:38:26.000Z</time>
      </trkpt>
      <trkpt lat="42.718135" lon="-1.936303">
        <ele>476.895335</ele>
        <time>2022-05-14T13:38:29.000Z</time>
      </trkpt>
      <trkpt lat="42.718118" lon="-1.936028">
        <ele>477.143423</ele>
        <time>2022-05-14T13:38:31.000Z</time>
      </trkpt>
      <trkpt lat="42.718145" lon="-1.935846">
        <ele>477.438736</ele>
        <time>2022-05-14T13:38:33.000Z</time>
      </trkpt>
      <trkpt lat="42.718072" lon="-1.93571">
        <ele>477.720889</ele>
        <time>2022-05-14T13:38:34.000Z</time>
      </trkpt>
      <trkpt lat="42.718126" lon="-1.935303">
        <ele>478.436327</ele>
        <time>2022-05-14T13:38:37.000Z</time>
      </trkpt>
      <trkpt lat="42.71833" lon="-1.934791">
        <ele>479.412301</ele>
        <time>2022-05-14T13:38:42.000Z</time>
      </trkpt>
      <trkpt lat="42.71821" lon="-1.934644">
        <ele>479.783666</ele>
        <time>2022-05-14T13:38:44.000Z</time>
      </trkpt>
      <trkpt lat="42.71706" lon="-1.932892">
        <ele>485.002178</ele>
        <time>2022-05-14T13:39:03.000Z</time>
      </trkpt>
      <trkpt lat="42.716922" lon="-1.932815">
        <ele>485.458927</ele>
        <time>2022-05-14T13:39:05.000Z</time>
      </trkpt>
      <trkpt lat="42.716651" lon="-1.932932">
        <ele>486.448946</ele>
        <time>2022-05-14T13:39:08.000Z</time>
      </trkpt>
      <trkpt lat="42.716587" lon="-1.933004">
        <ele>486.695752</ele>
        <time>2022-05-14T13:39:09.000Z</time>
      </trkpt>
      <trkpt lat="42.71653" lon="-1.933138">
        <ele>487.093641</ele>
        <time>2022-05-14T13:39:10.000Z</time>
      </trkpt>
      <trkpt lat="42.716598" lon="-1.934904">
        <ele>489.323889</ele>
        <time>2022-05-14T13:39:24.000Z</time>
      </trkpt>
      <trkpt lat="42.716551" lon="-1.935154">
        <ele>489.664576</ele>
        <time>2022-05-14T13:39:26.000Z</time>
      </trkpt>
      <trkpt lat="42.71613" lon="-1.936298">
        <ele>490.214958</ele>
        <time>2022-05-14T13:39:36.000Z</time>
      </trkpt>
      <trkpt lat="42.715997" lon="-1.936845">
        <ele>490.204471</ele>
        <time>2022-05-14T13:39:41.000Z</time>
      </trkpt>
      <trkpt lat="42.716117" lon="-1.937865">
        <ele>490.185317</ele>
        <time>2022-05-14T13:39:49.000Z</time>
      </trkpt>
      <trkpt lat="42.71607" lon="-1.938495">
        <ele>490.174138</ele>
        <time>2022-05-14T13:39:54.000Z</time>
      </trkpt>
      <trkpt lat="42.715993" lon="-1.938834">
        <ele>490.168078</ele>
        <time>2022-05-14T13:39:57.000Z</time>
      </trkpt>
      <trkpt lat="42.715918" lon="-1.939113">
        <ele>490.162915</ele>
        <time>2022-05-14T13:39:59.000Z</time>
      </trkpt>
      <trkpt lat="42.715799" lon="-1.939347">
        <ele>490.158178</ele>
        <time>2022-05-14T13:40:01.000Z</time>
      </trkpt>
      <trkpt lat="42.71562" lon="-1.939616">
        <ele>490.151841</ele>
        <time>2022-05-14T13:40:04.000Z</time>
      </trkpt>
      <trkpt lat="42.714829" lon="-1.940581">
        <ele>490.073455</ele>
        <time>2022-05-14T13:40:16.000Z</time>
      </trkpt>
      <trkpt lat="42.714633" lon="-1.940659">
        <ele>490.051353</ele>
        <time>2022-05-14T13:40:18.000Z</time>
      </trkpt>
      <trkpt lat="42.714026" lon="-1.940769">
        <ele>489.986087</ele>
        <time>2022-05-14T13:40:25.000Z</time>
      </trkpt>
      <trkpt lat="42.713728" lon="-1.941056">
        <ele>489.938084</ele>
        <time>2022-05-14T13:40:29.000Z</time>
      </trkpt>
      <trkpt lat="42.71338" lon="-1.941714">
        <ele>489.704999</ele>
        <time>2022-05-14T13:40:36.000Z</time>
      </trkpt>
      <trkpt lat="42.713282" lon="-1.941826">
        <ele>489.651842</ele>
        <time>2022-05-14T13:40:37.000Z</time>
      </trkpt>
      <trkpt lat="42.712644" lon="-1.94212">
        <ele>489.389184</ele>
        <time>2022-05-14T13:40:44.000Z</time>
      </trkpt>
      <trkpt lat="42.712084" lon="-1.942697">
        <ele>488.903757</ele>
        <time>2022-05-14T13:40:52.000Z</time>
      </trkpt>
      <trkpt lat="42.711967" lon="-1.942739">
        <ele>488.779713</ele>
        <time>2022-05-14T13:40:53.000Z</time>
      </trkpt>
      <trkpt lat="42.711804" lon="-1.942766">
        <ele>488.615679</ele>
        <time>2022-05-14T13:40:55.000Z</time>
      </trkpt>
      <trkpt lat="42.711316" lon="-1.942544">
        <ele>488.078552</ele>
        <time>2022-05-14T13:41:01.000Z</time>
      </trkpt>
      <trkpt lat="42.711008" lon="-1.942563">
        <ele>487.769677</ele>
        <time>2022-05-14T13:41:04.000Z</time>
      </trkpt>
      <trkpt lat="42.710858" lon="-1.942633">
        <ele>487.614249</ele>
        <time>2022-05-14T13:41:06.000Z</time>
      </trkpt>
      <trkpt lat="42.710193" lon="-1.943305">
        <ele>486.273534</ele>
        <time>2022-05-14T13:41:15.000Z</time>
      </trkpt>
      <trkpt lat="42.709918" lon="-1.943377">
        <ele>485.765198</ele>
        <time>2022-05-14T13:41:18.000Z</time>
      </trkpt>
      <trkpt lat="42.709783" lon="-1.943329">
        <ele>485.52903</ele>
        <time>2022-05-14T13:41:20.000Z</time>
      </trkpt>
      <trkpt lat="42.709209" lon="-1.942916">
        <ele>484.334753</ele>
        <time>2022-05-14T13:41:27.000Z</time>
      </trkpt>
      <trkpt lat="42.708403" lon="-1.94262">
        <ele>483.925061</ele>
        <time>2022-05-14T13:41:36.000Z</time>
      </trkpt>
      <trkpt lat="42.708207" lon="-1.942374">
        <ele>483.827638</ele>
        <time>2022-05-14T13:41:39.000Z</time>
      </trkpt>
      <trkpt lat="42.707819" lon="-1.941541">
        <ele>483.554118</ele>
        <time>2022-05-14T13:41:47.000Z</time>
      </trkpt>
      <trkpt lat="42.707388" lon="-1.94097">
        <ele>483.289988</ele>
        <time>2022-05-14T13:41:54.000Z</time>
      </trkpt>
      <trkpt lat="42.707274" lon="-1.940877">
        <ele>483.226934</ele>
        <time>2022-05-14T13:41:55.000Z</time>
      </trkpt>
      <trkpt lat="42.707148" lon="-1.940785">
        <ele>483.165376</ele>
        <time>2022-05-14T13:41:57.000Z</time>
      </trkpt>
      <trkpt lat="42.707045" lon="-1.940688">
        <ele>483.110069</ele>
        <time>2022-05-14T13:41:58.000Z</time>
      </trkpt>
      <trkpt lat="42.706856" lon="-1.940511">
        <ele>483.010418</ele>
        <time>2022-05-14T13:42:01.000Z</time>
      </trkpt>
      <trkpt lat="42.706386" lon="-1.939409">
        <ele>480.897497</ele>
        <time>2022-05-14T13:42:11.000Z</time>
      </trkpt>
      <trkpt lat="42.706185" lon="-1.939157">
        <ele>479.472076</ele>
        <time>2022-05-14T13:42:14.000Z</time>
      </trkpt>
      <trkpt lat="42.705123" lon="-1.938484">
        <ele>472.865382</ele>
        <time>2022-05-14T13:42:27.000Z</time>
      </trkpt>
      <trkpt lat="42.704314" lon="-1.938198">
        <ele>464.757248</ele>
        <time>2022-05-14T13:42:36.000Z</time>
      </trkpt>
      <trkpt lat="42.704094" lon="-1.937997">
        <ele>462.17743</ele>
        <time>2022-05-14T13:42:39.000Z</time>
      </trkpt>
      <trkpt lat="42.703925" lon="-1.937484">
        <ele>457.98239</ele>
        <time>2022-05-14T13:42:44.000Z</time>
      </trkpt>
      <trkpt lat="42.703697" lon="-1.937359">
        <ele>455.573741</ele>
        <time>2022-05-14T13:42:47.000Z</time>
      </trkpt>
      <trkpt lat="42.703525" lon="-1.937507">
        <ele>453.815324</ele>
        <time>2022-05-14T13:42:49.000Z</time>
      </trkpt>
      <trkpt lat="42.703483" lon="-1.937659">
        <ele>452.826098</ele>
        <time>2022-05-14T13:42:50.000Z</time>
      </trkpt>
      <trkpt lat="42.70361" lon="-1.938255">
        <ele>449.436858</ele>
        <time>2022-05-14T13:42:55.000Z</time>
      </trkpt>
      <trkpt lat="42.703352" lon="-1.939758">
        <ele>441.127601</ele>
        <time>2022-05-14T13:43:08.000Z</time>
      </trkpt>
      <trkpt lat="42.70337" lon="-1.939887">
        <ele>440.671901</ele>
        <time>2022-05-14T13:43:09.000Z</time>
      </trkpt>
      <trkpt lat="42.703425" lon="-1.939969">
        <ele>440.258536</ele>
        <time>2022-05-14T13:43:10.000Z</time>
      </trkpt>
      <trkpt lat="42.703623" lon="-1.940015">
        <ele>439.286038</ele>
        <time>2022-05-14T13:43:12.000Z</time>
      </trkpt>
      <trkpt lat="42.704153" lon="-1.939731">
        <ele>436.517508</ele>
        <time>2022-05-14T13:43:18.000Z</time>
      </trkpt>
      <trkpt lat="42.704216" lon="-1.939758">
        <ele>436.137561</ele>
        <time>2022-05-14T13:43:19.000Z</time>
      </trkpt>
      <trkpt lat="42.704294" lon="-1.939888">
        <ele>435.524973</ele>
        <time>2022-05-14T13:43:20.000Z</time>
      </trkpt>
      <trkpt lat="42.704318" lon="-1.940037">
        <ele>434.993312</ele>
        <time>2022-05-14T13:43:21.000Z</time>
      </trkpt>
      <trkpt lat="42.704264" lon="-1.940155">
        <ele>434.471814</ele>
        <time>2022-05-14T13:43:22.000Z</time>
      </trkpt>
      <trkpt lat="42.70411" lon="-1.940255">
        <ele>433.677209</ele>
        <time>2022-05-14T13:43:24.000Z</time>
      </trkpt>
      <trkpt lat="42.703304" lon="-1.940577">
        <ele>428.972912</ele>
        <time>2022-05-14T13:43:33.000Z</time>
      </trkpt>
      <trkpt lat="42.703239" lon="-1.940715">
        <ele>428.275688</ele>
        <time>2022-05-14T13:43:34.000Z</time>
      </trkpt>
      <trkpt lat="42.703242" lon="-1.940852">
        <ele>427.660447</ele>
        <time>2022-05-14T13:43:35.000Z</time>
      </trkpt>
      <trkpt lat="42.703318" lon="-1.940984">
        <ele>426.989935</ele>
        <time>2022-05-14T13:43:36.000Z</time>
      </trkpt>
      <trkpt lat="42.703429" lon="-1.941004">
        <ele>426.345169</ele>
        <time>2022-05-14T13:43:37.000Z</time>
      </trkpt>
      <trkpt lat="42.70382" lon="-1.940889">
        <ele>424.040941</ele>
        <time>2022-05-14T13:43:41.000Z</time>
      </trkpt>
      <trkpt lat="42.704185" lon="-1.940856">
        <ele>421.901741</ele>
        <time>2022-05-14T13:43:45.000Z</time>
      </trkpt>
      <trkpt lat="42.704641" lon="-1.940889">
        <ele>419.641874</ele>
        <time>2022-05-14T13:43:50.000Z</time>
      </trkpt>
      <trkpt lat="42.704745" lon="-1.940982">
        <ele>418.97066</ele>
        <time>2022-05-14T13:43:51.000Z</time>
      </trkpt>
      <trkpt lat="42.70483" lon="-1.941126">
        <ele>418.328993</ele>
        <time>2022-05-14T13:43:53.000Z</time>
      </trkpt>
      <trkpt lat="42.704838" lon="-1.941438">
        <ele>417.139518</ele>
        <time>2022-05-14T13:43:56.000Z</time>
      </trkpt>
      <trkpt lat="42.704824" lon="-1.941574">
        <ele>416.600009</ele>
        <time>2022-05-14T13:43:57.000Z</time>
      </trkpt>
      <trkpt lat="42.704807" lon="-1.941742">
        <ele>415.964789</ele>
        <time>2022-05-14T13:43:58.000Z</time>
      </trkpt>
      <trkpt lat="42.704737" lon="-1.941911">
        <ele>415.251834</ele>
        <time>2022-05-14T13:44:00.000Z</time>
      </trkpt>
      <trkpt lat="42.704485" lon="-1.942321">
        <ele>413.233472</ele>
        <time>2022-05-14T13:44:04.000Z</time>
      </trkpt>
      <trkpt lat="42.704237" lon="-1.942959">
        <ele>412.375113</ele>
        <time>2022-05-14T13:44:10.000Z</time>
      </trkpt>
      <trkpt lat="42.704186" lon="-1.943168">
        <ele>412.163621</ele>
        <time>2022-05-14T13:44:12.000Z</time>
      </trkpt>
      <trkpt lat="42.704159" lon="-1.943457">
        <ele>411.869655</ele>
        <time>2022-05-14T13:44:14.000Z</time>
      </trkpt>
      <trkpt lat="42.704149" lon="-1.943563">
        <ele>411.759308</ele>
        <time>2022-05-14T13:44:15.000Z</time>
      </trkpt>
      <trkpt lat="42.70371" lon="-1.944739">
        <ele>410.600924</ele>
        <time>2022-05-14T13:44:26.000Z</time>
      </trkpt>
      <trkpt lat="42.703488" lon="-1.945477">
        <ele>410.479904</ele>
        <time>2022-05-14T13:44:33.000Z</time>
      </trkpt>
      <trkpt lat="42.703096" lon="-1.946019">
        <ele>410.364019</ele>
        <time>2022-05-14T13:44:39.000Z</time>
      </trkpt>
      <trkpt lat="42.70258" lon="-1.946855">
        <ele>409.956822</ele>
        <time>2022-05-14T13:44:48.000Z</time>
      </trkpt>
      <trkpt lat="42.701572" lon="-1.94797">
        <ele>408.479765</ele>
        <time>2022-05-14T13:45:02.000Z</time>
      </trkpt>
      <trkpt lat="42.700529" lon="-1.948585">
        <ele>406.386194</ele>
        <time>2022-05-14T13:45:15.000Z</time>
      </trkpt>
      <trkpt lat="42.699815" lon="-1.949007">
        <ele>404.844949</ele>
        <time>2022-05-14T13:45:24.000Z</time>
      </trkpt>
      <trkpt lat="42.699278" lon="-1.949336">
        <ele>404.128587</ele>
        <time>2022-05-14T13:45:31.000Z</time>
      </trkpt>
      <trkpt lat="42.698997" lon="-1.949448">
        <ele>403.849005</ele>
        <time>2022-05-14T13:45:34.000Z</time>
      </trkpt>
      <trkpt lat="42.698458" lon="-1.949569">
        <ele>403.305642</ele>
        <time>2022-05-14T13:45:40.000Z</time>
      </trkpt>
      <trkpt lat="42.698041" lon="-1.949671">
        <ele>402.900931</ele>
        <time>2022-05-14T13:45:45.000Z</time>
      </trkpt>
      <trkpt lat="42.69773" lon="-1.94963">
        <ele>402.828541</ele>
        <time>2022-05-14T13:45:48.000Z</time>
      </trkpt>
      <trkpt lat="42.697291" lon="-1.94937">
        <ele>402.836797</ele>
        <time>2022-05-14T13:45:53.000Z</time>
      </trkpt>
      <trkpt lat="42.695926" lon="-1.949596">
        <ele>402.396555</ele>
        <time>2022-05-14T13:46:08.000Z</time>
      </trkpt>
      <trkpt lat="42.695577" lon="-1.949525">
        <ele>401.866263</ele>
        <time>2022-05-14T13:46:12.000Z</time>
      </trkpt>
      <trkpt lat="42.695433" lon="-1.94938">
        <ele>401.59615</ele>
        <time>2022-05-14T13:46:14.000Z</time>
      </trkpt>
      <trkpt lat="42.695126" lon="-1.948597">
        <ele>400.610058</ele>
        <time>2022-05-14T13:46:21.000Z</time>
      </trkpt>
      <trkpt lat="42.694731" lon="-1.948258">
        <ele>399.997758</ele>
        <time>2022-05-14T13:46:26.000Z</time>
      </trkpt>
      <trkpt lat="42.694565" lon="-1.948041">
        <ele>399.799752</ele>
        <time>2022-05-14T13:46:29.000Z</time>
      </trkpt>
      <trkpt lat="42.694543" lon="-1.948013">
        <ele>399.771288</ele>
        <time>2022-05-14T13:46:29.000Z</time>
      </trkpt>
      <trkpt lat="42.694453" lon="-1.947901">
        <ele>399.664789</ele>
        <time>2022-05-14T13:46:30.000Z</time>
      </trkpt>
      <trkpt lat="42.694234" lon="-1.947746">
        <ele>399.468561</ele>
        <time>2022-05-14T13:46:33.000Z</time>
      </trkpt>
      <trkpt lat="42.693614" lon="-1.947714">
        <ele>398.922303</ele>
        <time>2022-05-14T13:46:40.000Z</time>
      </trkpt>
      <trkpt lat="42.693439" lon="-1.947706">
        <ele>398.772527</ele>
        <time>2022-05-14T13:46:42.000Z</time>
      </trkpt>
      <trkpt lat="42.692776" lon="-1.947942">
        <ele>400.399466</ele>
        <time>2022-05-14T13:46:50.000Z</time>
      </trkpt>
      <trkpt lat="42.692535" lon="-1.947938">
        <ele>401.26182</ele>
        <time>2022-05-14T13:46:53.000Z</time>
      </trkpt>
      <trkpt lat="42.691851" lon="-1.950328">
        <ele>409.272031</ele>
        <time>2022-05-14T13:47:14.000Z</time>
      </trkpt>
      <trkpt lat="42.691525" lon="-1.951335">
        <ele>413.157425</ele>
        <time>2022-05-14T13:47:23.000Z</time>
      </trkpt>
      <trkpt lat="42.691439" lon="-1.951473">
        <ele>413.805363</ele>
        <time>2022-05-14T13:47:24.000Z</time>
      </trkpt>
      <trkpt lat="42.691379" lon="-1.951593">
        <ele>414.281598</ele>
        <time>2022-05-14T13:47:25.000Z</time>
      </trkpt>
      <trkpt lat="42.691183" lon="-1.951917">
        <ele>415.357977</ele>
        <time>2022-05-14T13:47:28.000Z</time>
      </trkpt>
      <trkpt lat="42.691002" lon="-1.952354">
        <ele>416.655596</ele>
        <time>2022-05-14T13:47:32.000Z</time>
      </trkpt>
      <trkpt lat="42.690291" lon="-1.955313">
        <ele>424.882508</ele>
        <time>2022-05-14T13:47:57.000Z</time>
      </trkpt>
      <trkpt lat="42.690326" lon="-1.956112">
        <ele>427.035282</ele>
        <time>2022-05-14T13:48:04.000Z</time>
      </trkpt>
      <trkpt lat="42.690668" lon="-1.957613">
        <ele>431.804472</ele>
        <time>2022-05-14T13:48:17.000Z</time>
      </trkpt>
      <trkpt lat="42.690691" lon="-1.957823">
        <ele>432.473297</ele>
        <time>2022-05-14T13:48:19.000Z</time>
      </trkpt>
      <trkpt lat="42.69072" lon="-1.95812">
        <ele>433.396459</ele>
        <time>2022-05-14T13:48:21.000Z</time>
      </trkpt>
      <trkpt lat="42.691026" lon="-1.960606">
        <ele>439.851761</ele>
        <time>2022-05-14T13:48:42.000Z</time>
      </trkpt>
      <trkpt lat="42.691046" lon="-1.960799">
        <ele>440.343559</ele>
        <time>2022-05-14T13:48:44.000Z</time>
      </trkpt>
      <trkpt lat="42.691085" lon="-1.961072">
        <ele>440.93931</ele>
        <time>2022-05-14T13:48:46.000Z</time>
      </trkpt>
      <trkpt lat="42.692344" lon="-1.960821">
        <ele>444.486978</ele>
        <time>2022-05-14T13:49:00.000Z</time>
      </trkpt>
      <trkpt lat="42.69319" lon="-1.960616">
        <ele>447.483654</ele>
        <time>2022-05-14T13:49:10.000Z</time>
      </trkpt>
      <trkpt lat="42.694018" lon="-1.96043">
        <ele>450.760307</ele>
        <time>2022-05-14T13:49:19.000Z</time>
      </trkpt>
      <trkpt lat="42.694553" lon="-1.960327">
        <ele>453.065737</ele>
        <time>2022-05-14T13:49:25.000Z</time>
      </trkpt>
      <trkpt lat="42.694824" lon="-1.960311">
        <ele>454.760733</ele>
        <time>2022-05-14T13:49:28.000Z</time>
      </trkpt>
      <trkpt lat="42.694959" lon="-1.960343">
        <ele>455.575207</ele>
        <time>2022-05-14T13:49:30.000Z</time>
      </trkpt>
      <trkpt lat="42.69504" lon="-1.960395">
        <ele>456.216401</ele>
        <time>2022-05-14T13:49:31.000Z</time>
      </trkpt>
      <trkpt lat="42.695164" lon="-1.960507">
        <ele>457.085437</ele>
        <time>2022-05-14T13:49:33.000Z</time>
      </trkpt>
      <trkpt lat="42.695823" lon="-1.961698">
        <ele>464.042912</ele>
        <time>2022-05-14T13:49:45.000Z</time>
      </trkpt>
      <trkpt lat="42.696558" lon="-1.962722">
        <ele>472.091576</ele>
        <time>2022-05-14T13:49:57.000Z</time>
      </trkpt>
      <trkpt lat="42.696996" lon="-1.963554">
        <ele>477.773214</ele>
        <time>2022-05-14T13:50:05.000Z</time>
      </trkpt>
      <trkpt lat="42.69713" lon="-1.963681">
        <ele>479.127193</ele>
        <time>2022-05-14T13:50:07.000Z</time>
      </trkpt>
      <trkpt lat="42.69776" lon="-1.96405">
        <ele>484.486107</ele>
        <time>2022-05-14T13:50:15.000Z</time>
      </trkpt>
      <trkpt lat="42.698344" lon="-1.964939">
        <ele>491.347777</ele>
        <time>2022-05-14T13:50:25.000Z</time>
      </trkpt>
      <trkpt lat="42.699062" lon="-1.965639">
        <ele>498.432499</ele>
        <time>2022-05-14T13:50:35.000Z</time>
      </trkpt>
      <trkpt lat="42.699628" lon="-1.966043">
        <ele>503.414932</ele>
        <time>2022-05-14T13:50:42.000Z</time>
      </trkpt>
      <trkpt lat="42.700034" lon="-1.96621">
        <ele>506.514024</ele>
        <time>2022-05-14T13:50:47.000Z</time>
      </trkpt>
      <trkpt lat="42.700152" lon="-1.966276">
        <ele>507.227354</ele>
        <time>2022-05-14T13:50:48.000Z</time>
      </trkpt>
      <trkpt lat="42.700393" lon="-1.966427">
        <ele>508.514242</ele>
        <time>2022-05-14T13:50:51.000Z</time>
      </trkpt>
      <trkpt lat="42.700515" lon="-1.966524">
        <ele>509.270321</ele>
        <time>2022-05-14T13:50:53.000Z</time>
      </trkpt>
      <trkpt lat="42.700669" lon="-1.966636">
        <ele>510.102479</ele>
        <time>2022-05-14T13:50:55.000Z</time>
      </trkpt>
      <trkpt lat="42.700963" lon="-1.966914">
        <ele>511.946847</ele>
        <time>2022-05-14T13:50:59.000Z</time>
      </trkpt>
      <trkpt lat="42.70152" lon="-1.967584">
        <ele>515.115918</ele>
        <time>2022-05-14T13:51:07.000Z</time>
      </trkpt>
      <trkpt lat="42.701974" lon="-1.968477">
        <ele>514.056001</ele>
        <time>2022-05-14T13:51:16.000Z</time>
      </trkpt>
      <trkpt lat="42.702255" lon="-1.969336">
        <ele>513.108897</ele>
        <time>2022-05-14T13:51:24.000Z</time>
      </trkpt>
      <trkpt lat="42.702467" lon="-1.970356">
        <ele>510.359645</ele>
        <time>2022-05-14T13:51:33.000Z</time>
      </trkpt>
      <trkpt lat="42.702497" lon="-1.970426">
        <ele>510.094087</ele>
        <time>2022-05-14T13:51:34.000Z</time>
      </trkpt>
      <trkpt lat="42.702573" lon="-1.970708">
        <ele>509.166596</ele>
        <time>2022-05-14T13:51:36.000Z</time>
      </trkpt>
      <trkpt lat="42.702732" lon="-1.971034">
        <ele>507.944597</ele>
        <time>2022-05-14T13:51:39.000Z</time>
      </trkpt>
      <trkpt lat="42.702884" lon="-1.971294">
        <ele>506.824772</ele>
        <time>2022-05-14T13:51:42.000Z</time>
      </trkpt>
      <trkpt lat="42.703005" lon="-1.971503">
        <ele>505.989094</ele>
        <time>2022-05-14T13:51:44.000Z</time>
      </trkpt>
      <trkpt lat="42.705512" lon="-1.974945">
        <ele>494.900028</ele>
        <time>2022-05-14T13:52:24.000Z</time>
      </trkpt>
      <trkpt lat="42.706905" lon="-1.976839">
        <ele>490.35678</ele>
        <time>2022-05-14T13:52:46.000Z</time>
      </trkpt>
      <trkpt lat="42.707685" lon="-1.978139">
        <ele>489.680243</ele>
        <time>2022-05-14T13:53:00.000Z</time>
      </trkpt>
      <trkpt lat="42.707885" lon="-1.978377">
        <ele>489.573575</ele>
        <time>2022-05-14T13:53:03.000Z</time>
      </trkpt>
      <trkpt lat="42.708188" lon="-1.978638">
        <ele>489.425019</ele>
        <time>2022-05-14T13:53:07.000Z</time>
      </trkpt>
      <trkpt lat="42.710521" lon="-1.979772">
        <ele>494.601063</ele>
        <time>2022-05-14T13:53:35.000Z</time>
      </trkpt>
      <trkpt lat="42.711965" lon="-1.980098">
        <ele>498.350636</ele>
        <time>2022-05-14T13:53:51.000Z</time>
      </trkpt>
      <trkpt lat="42.712601" lon="-1.980302">
        <ele>499.923932</ele>
        <time>2022-05-14T13:53:58.000Z</time>
      </trkpt>
      <trkpt lat="42.713227" lon="-1.980564">
        <ele>501.525708</ele>
        <time>2022-05-14T13:54:05.000Z</time>
      </trkpt>
      <trkpt lat="42.714009" lon="-1.980966">
        <ele>502.478138</ele>
        <time>2022-05-14T13:54:14.000Z</time>
      </trkpt>
      <trkpt lat="42.714689" lon="-1.981447">
        <ele>503.080643</ele>
        <time>2022-05-14T13:54:23.000Z</time>
      </trkpt>
      <trkpt lat="42.715133" lon="-1.98181">
        <ele>503.204485</ele>
        <time>2022-05-14T13:54:29.000Z</time>
      </trkpt>
      <trkpt lat="42.715511" lon="-1.982228">
        <ele>502.614414</ele>
        <time>2022-05-14T13:54:34.000Z</time>
      </trkpt>
      <trkpt lat="42.715907" lon="-1.982814">
        <ele>501.901774</ele>
        <time>2022-05-14T13:54:41.000Z</time>
      </trkpt>
      <trkpt lat="42.716148" lon="-1.983345">
        <ele>501.346971</ele>
        <time>2022-05-14T13:54:46.000Z</time>
      </trkpt>
      <trkpt lat="42.716362" lon="-1.983931">
        <ele>500.450141</ele>
        <time>2022-05-14T13:54:51.000Z</time>
      </trkpt>
      <trkpt lat="42.717377" lon="-1.986641">
        <ele>496.746188</ele>
        <time>2022-05-14T13:55:16.000Z</time>
      </trkpt>
      <trkpt lat="42.717778" lon="-1.987616">
        <ele>496.061612</ele>
        <time>2022-05-14T13:55:25.000Z</time>
      </trkpt>
      <trkpt lat="42.717936" lon="-1.987975">
        <ele>496.059307</ele>
        <time>2022-05-14T13:55:28.000Z</time>
      </trkpt>
      <trkpt lat="42.719216" lon="-1.990692">
        <ele>499.195566</ele>
        <time>2022-05-14T13:55:54.000Z</time>
      </trkpt>
      <trkpt lat="42.720366" lon="-1.992787">
        <ele>502.405626</ele>
        <time>2022-05-14T13:56:15.000Z</time>
      </trkpt>
      <trkpt lat="42.720517" lon="-1.993057">
        <ele>502.839349</ele>
        <time>2022-05-14T13:56:18.000Z</time>
      </trkpt>
      <trkpt lat="42.722269" lon="-1.996088">
        <ele>508.074794</ele>
        <time>2022-05-14T13:56:50.000Z</time>
      </trkpt>
      <trkpt lat="42.723174" lon="-1.997395">
        <ele>510.736483</ele>
        <time>2022-05-14T13:57:05.000Z</time>
      </trkpt>
      <trkpt lat="42.723551" lon="-1.997871">
        <ele>511.679042</ele>
        <time>2022-05-14T13:57:11.000Z</time>
      </trkpt>
      <trkpt lat="42.724041" lon="-1.998188">
        <ele>512.606134</ele>
        <time>2022-05-14T13:57:17.000Z</time>
      </trkpt>
      <trkpt lat="42.724411" lon="-1.998275">
        <ele>513.220958</ele>
        <time>2022-05-14T13:57:21.000Z</time>
      </trkpt>
      <trkpt lat="42.724866" lon="-1.998288">
        <ele>514.004399</ele>
        <time>2022-05-14T13:57:26.000Z</time>
      </trkpt>
      <trkpt lat="42.724969" lon="-1.99835">
        <ele>514.18218</ele>
        <time>2022-05-14T13:57:27.000Z</time>
      </trkpt>
      <trkpt lat="42.724978" lon="-1.998293">
        <ele>514.200419</ele>
        <time>2022-05-14T13:57:27.000Z</time>
      </trkpt>
      <trkpt lat="42.724987" lon="-1.998256">
        <ele>514.219094</ele>
        <time>2022-05-14T13:57:27.000Z</time>
      </trkpt>
      <trkpt lat="42.725012" lon="-1.998206">
        <ele>514.237439</ele>
        <time>2022-05-14T13:57:27.000Z</time>
      </trkpt>
      <trkpt lat="42.725054" lon="-1.998188">
        <ele>514.256192</ele>
        <time>2022-05-14T13:57:27.000Z</time>
      </trkpt>
      <trkpt lat="42.725134" lon="-1.998198">
        <ele>514.292402</ele>
        <time>2022-05-14T13:57:28.000Z</time>
      </trkpt>
      <trkpt lat="42.725153" lon="-1.998215">
        <ele>514.310929</ele>
        <time>2022-05-14T13:57:28.000Z</time>
      </trkpt>
      <trkpt lat="42.725183" lon="-1.998262">
        <ele>514.327643</ele>
        <time>2022-05-14T13:57:29.000Z</time>
      </trkpt>
      <trkpt lat="42.725202" lon="-1.998383">
        <ele>514.376395</ele>
        <time>2022-05-14T13:57:30.000Z</time>
      </trkpt>
      <trkpt lat="42.72518" lon="-1.99842">
        <ele>514.392968</ele>
        <time>2022-05-14T13:57:30.000Z</time>
      </trkpt>
      <trkpt lat="42.725164" lon="-1.998455">
        <ele>514.409999</ele>
        <time>2022-05-14T13:57:30.000Z</time>
      </trkpt>
      <trkpt lat="42.725025" lon="-1.998471">
        <ele>514.473453</ele>
        <time>2022-05-14T13:57:32.000Z</time>
      </trkpt>
      <trkpt lat="42.725001" lon="-1.998453">
        <ele>514.490105</ele>
        <time>2022-05-14T13:57:32.000Z</time>
      </trkpt>
      <trkpt lat="42.724891" lon="-1.998479">
        <ele>514.543994</ele>
        <time>2022-05-14T13:57:33.000Z</time>
      </trkpt>
      <trkpt lat="42.7233" lon="-1.999592">
        <ele>515.000645</ele>
        <time>2022-05-14T13:57:53.000Z</time>
      </trkpt>
      <trkpt lat="42.723033" lon="-1.99972">
        <ele>514.97288</ele>
        <time>2022-05-14T13:57:56.000Z</time>
      </trkpt>
      <trkpt lat="42.721486" lon="-1.999693">
        <ele>514.708508</ele>
        <time>2022-05-14T13:58:13.000Z</time>
      </trkpt>
      <trkpt lat="42.72087" lon="-1.999941">
        <ele>514.550968</ele>
        <time>2022-05-14T13:58:20.000Z</time>
      </trkpt>
      <trkpt lat="42.720504" lon="-2.000185">
        <ele>514.480552</ele>
        <time>2022-05-14T13:58:25.000Z</time>
      </trkpt>
      <trkpt lat="42.716924" lon="-2.002443">
        <ele>518.723489</ele>
        <time>2022-05-14T13:59:09.000Z</time>
      </trkpt>
      <trkpt lat="42.716484" lon="-2.002463">
        <ele>519.337249</ele>
        <time>2022-05-14T13:59:14.000Z</time>
      </trkpt>
      <trkpt lat="42.715817" lon="-2.001963">
        <ele>520.354421</ele>
        <time>2022-05-14T13:59:22.000Z</time>
      </trkpt>
      <trkpt lat="42.715344" lon="-2.001869">
        <ele>520.687617</ele>
        <time>2022-05-14T13:59:27.000Z</time>
      </trkpt>
      <trkpt lat="42.711917" lon="-2.001332">
        <ele>519.601108</ele>
        <time>2022-05-14T14:00:05.000Z</time>
      </trkpt>
      <trkpt lat="42.710141" lon="-2.001037">
        <ele>514.882017</ele>
        <time>2022-05-14T14:00:25.000Z</time>
      </trkpt>
      <trkpt lat="42.709952" lon="-2.001007">
        <ele>514.174001</ele>
        <time>2022-05-14T14:00:27.000Z</time>
      </trkpt>
      <trkpt lat="42.709808" lon="-2.000989">
        <ele>513.537932</ele>
        <time>2022-05-14T14:00:29.000Z</time>
      </trkpt>
      <trkpt lat="42.709321" lon="-2.00091">
        <ele>511.618954</ele>
        <time>2022-05-14T14:00:34.000Z</time>
      </trkpt>
      <trkpt lat="42.709197" lon="-2.000898">
        <ele>511.178108</ele>
        <time>2022-05-14T14:00:35.000Z</time>
      </trkpt>
      <trkpt lat="42.70916" lon="-2.000899">
        <ele>511.008076</ele>
        <time>2022-05-14T14:00:35.000Z</time>
      </trkpt>
      <trkpt lat="42.709107" lon="-2.000948">
        <ele>510.728677</ele>
        <time>2022-05-14T14:00:36.000Z</time>
      </trkpt>
      <trkpt lat="42.709095" lon="-2.000966">
        <ele>510.67252</ele>
        <time>2022-05-14T14:00:36.000Z</time>
      </trkpt>
      <trkpt lat="42.709042" lon="-2.001077">
        <ele>510.280218</ele>
        <time>2022-05-14T14:00:37.000Z</time>
      </trkpt>
      <trkpt lat="42.709049" lon="-2.001213">
        <ele>509.886447</ele>
        <time>2022-05-14T14:00:38.000Z</time>
      </trkpt>
      <trkpt lat="42.709504" lon="-2.003123">
        <ele>504.461133</ele>
        <time>2022-05-14T14:00:54.000Z</time>
      </trkpt>
      <trkpt lat="42.709634" lon="-2.003409">
        <ele>503.576833</ele>
        <time>2022-05-14T14:00:57.000Z</time>
      </trkpt>
      <trkpt lat="42.709822" lon="-2.003635">
        <ele>502.683071</ele>
        <time>2022-05-14T14:01:00.000Z</time>
      </trkpt>
      <trkpt lat="42.709894" lon="-2.003784">
        <ele>502.245749</ele>
        <time>2022-05-14T14:01:01.000Z</time>
      </trkpt>
      <trkpt lat="42.709954" lon="-2.004017">
        <ele>501.697331</ele>
        <time>2022-05-14T14:01:03.000Z</time>
      </trkpt>
      <trkpt lat="42.709962" lon="-2.004353">
        <ele>501.490085</ele>
        <time>2022-05-14T14:01:06.000Z</time>
      </trkpt>
      <trkpt lat="42.709901" lon="-2.004477">
        <ele>501.408031</ele>
        <time>2022-05-14T14:01:07.000Z</time>
      </trkpt>
      <trkpt lat="42.709605" lon="-2.004887">
        <ele>501.042801</ele>
        <time>2022-05-14T14:01:12.000Z</time>
      </trkpt>
      <trkpt lat="42.709431" lon="-2.004959">
        <ele>500.880549</ele>
        <time>2022-05-14T14:01:14.000Z</time>
      </trkpt>
      <trkpt lat="42.709328" lon="-2.004929">
        <ele>500.79312</ele>
        <time>2022-05-14T14:01:15.000Z</time>
      </trkpt>
      <trkpt lat="42.708899" lon="-2.004617">
        <ele>500.384766</ele>
        <time>2022-05-14T14:01:20.000Z</time>
      </trkpt>
      <trkpt lat="42.708646" lon="-2.004509">
        <ele>500.388871</ele>
        <time>2022-05-14T14:01:23.000Z</time>
      </trkpt>
      <trkpt lat="42.708423" lon="-2.004573">
        <ele>501.056519</ele>
        <time>2022-05-14T14:01:26.000Z</time>
      </trkpt>
      <trkpt lat="42.707469" lon="-2.005823">
        <ele>504.884157</ele>
        <time>2022-05-14T14:01:41.000Z</time>
      </trkpt>
      <trkpt lat="42.707185" lon="-2.006101">
        <ele>506.24702</ele>
        <time>2022-05-14T14:01:45.000Z</time>
      </trkpt>
      <trkpt lat="42.706927" lon="-2.00609">
        <ele>507.58967</ele>
        <time>2022-05-14T14:01:48.000Z</time>
      </trkpt>
      <trkpt lat="42.706393" lon="-2.005862">
        <ele>510.535256</ele>
        <time>2022-05-14T14:01:54.000Z</time>
      </trkpt>
      <trkpt lat="42.706241" lon="-2.005896">
        <ele>511.397161</ele>
        <time>2022-05-14T14:01:56.000Z</time>
      </trkpt>
      <trkpt lat="42.705547" lon="-2.006647">
        <ele>516.534533</ele>
        <time>2022-05-14T14:02:06.000Z</time>
      </trkpt>
      <trkpt lat="42.705258" lon="-2.00698">
        <ele>519.315306</ele>
        <time>2022-05-14T14:02:10.000Z</time>
      </trkpt>
      <trkpt lat="42.703893" lon="-2.008616">
        <ele>532.517995</ele>
        <time>2022-05-14T14:02:30.000Z</time>
      </trkpt>
      <trkpt lat="42.703652" lon="-2.008901">
        <ele>534.699494</ele>
        <time>2022-05-14T14:02:34.000Z</time>
      </trkpt>
      <trkpt lat="42.703594" lon="-2.009062">
        <ele>535.536232</ele>
        <time>2022-05-14T14:02:35.000Z</time>
      </trkpt>
      <trkpt lat="42.703553" lon="-2.009341">
        <ele>537.055393</ele>
        <time>2022-05-14T14:02:37.000Z</time>
      </trkpt>
      <trkpt lat="42.703475" lon="-2.009972">
        <ele>540.273017</ele>
        <time>2022-05-14T14:02:42.000Z</time>
      </trkpt>
      <trkpt lat="42.703465" lon="-2.01012">
        <ele>540.892011</ele>
        <time>2022-05-14T14:02:43.000Z</time>
      </trkpt>
      <trkpt lat="42.703458" lon="-2.010169">
        <ele>541.132243</ele>
        <time>2022-05-14T14:02:43.000Z</time>
      </trkpt>
      <trkpt lat="42.703428" lon="-2.010521">
        <ele>542.53487</ele>
        <time>2022-05-14T14:02:46.000Z</time>
      </trkpt>
      <trkpt lat="42.703329" lon="-2.01097">
        <ele>544.370367</ele>
        <time>2022-05-14T14:02:50.000Z</time>
      </trkpt>
      <trkpt lat="42.703284" lon="-2.011136">
        <ele>545.055724</ele>
        <time>2022-05-14T14:02:51.000Z</time>
      </trkpt>
      <trkpt lat="42.70321" lon="-2.011345">
        <ele>546.007257</ele>
        <time>2022-05-14T14:02:53.000Z</time>
      </trkpt>
      <trkpt lat="42.702846" lon="-2.011983">
        <ele>549.172534</ele>
        <time>2022-05-14T14:03:00.000Z</time>
      </trkpt>
      <trkpt lat="42.701894" lon="-2.013283">
        <ele>557.678277</ele>
        <time>2022-05-14T14:03:15.000Z</time>
      </trkpt>
      <trkpt lat="42.701353" lon="-2.013741">
        <ele>561.697529</ele>
        <time>2022-05-14T14:03:22.000Z</time>
      </trkpt>
      <trkpt lat="42.700329" lon="-2.01445">
        <ele>570.425956</ele>
        <time>2022-05-14T14:03:35.000Z</time>
      </trkpt>
      <trkpt lat="42.699921" lon="-2.0147">
        <ele>573.770346</ele>
        <time>2022-05-14T14:03:40.000Z</time>
      </trkpt>
      <trkpt lat="42.699526" lon="-2.014935">
        <ele>576.760008</ele>
        <time>2022-05-14T14:03:45.000Z</time>
      </trkpt>
      <trkpt lat="42.699126" lon="-2.015062">
        <ele>579.308211</ele>
        <time>2022-05-14T14:03:50.000Z</time>
      </trkpt>
      <trkpt lat="42.698318" lon="-2.015079">
        <ele>584.179323</ele>
        <time>2022-05-14T14:03:59.000Z</time>
      </trkpt>
      <trkpt lat="42.698197" lon="-2.015055">
        <ele>584.934249</ele>
        <time>2022-05-14T14:04:00.000Z</time>
      </trkpt>
      <trkpt lat="42.698119" lon="-2.015055">
        <ele>585.441869</ele>
        <time>2022-05-14T14:04:01.000Z</time>
      </trkpt>
      <trkpt lat="42.697822" lon="-2.01497">
        <ele>586.47154</ele>
        <time>2022-05-14T14:04:04.000Z</time>
      </trkpt>
      <trkpt lat="42.697558" lon="-2.014839">
        <ele>586.382871</ele>
        <time>2022-05-14T14:04:07.000Z</time>
      </trkpt>
      <trkpt lat="42.697163" lon="-2.014394">
        <ele>586.220016</ele>
        <time>2022-05-14T14:04:13.000Z</time>
      </trkpt>
      <trkpt lat="42.697092" lon="-2.014352">
        <ele>586.194991</ele>
        <time>2022-05-14T14:04:14.000Z</time>
      </trkpt>
      <trkpt lat="42.697066" lon="-2.014256">
        <ele>586.172898</ele>
        <time>2022-05-14T14:04:15.000Z</time>
      </trkpt>
      <trkpt lat="42.696985" lon="-2.013605">
        <ele>586.019691</ele>
        <time>2022-05-14T14:04:20.000Z</time>
      </trkpt>
      <trkpt lat="42.696767" lon="-2.012838">
        <ele>583.668221</ele>
        <time>2022-05-14T14:04:27.000Z</time>
      </trkpt>
      <trkpt lat="42.69657" lon="-2.012524">
        <ele>581.81674</ele>
        <time>2022-05-14T14:04:30.000Z</time>
      </trkpt>
      <trkpt lat="42.696304" lon="-2.012184">
        <ele>579.600093</ele>
        <time>2022-05-14T14:04:34.000Z</time>
      </trkpt>
      <trkpt lat="42.695868" lon="-2.011747">
        <ele>576.228732</ele>
        <time>2022-05-14T14:04:40.000Z</time>
      </trkpt>
      <trkpt lat="42.695677" lon="-2.01162">
        <ele>574.939657</ele>
        <time>2022-05-14T14:04:42.000Z</time>
      </trkpt>
      <trkpt lat="42.695288" lon="-2.011459">
        <ele>573.352805</ele>
        <time>2022-05-14T14:04:47.000Z</time>
      </trkpt>
      <trkpt lat="42.694956" lon="-2.011417">
        <ele>572.029785</ele>
        <time>2022-05-14T14:04:51.000Z</time>
      </trkpt>
      <trkpt lat="42.694789" lon="-2.011551">
        <ele>571.302271</ele>
        <time>2022-05-14T14:04:53.000Z</time>
      </trkpt>
      <trkpt lat="42.694562" lon="-2.011907">
        <ele>569.9317</ele>
        <time>2022-05-14T14:04:57.000Z</time>
      </trkpt>
      <trkpt lat="42.694388" lon="-2.011927">
        <ele>569.270207</ele>
        <time>2022-05-14T14:04:59.000Z</time>
      </trkpt>
      <trkpt lat="42.693895" lon="-2.011725">
        <ele>567.870553</ele>
        <time>2022-05-14T14:05:05.000Z</time>
      </trkpt>
      <trkpt lat="42.692966" lon="-2.010338">
        <ele>567.501213</ele>
        <time>2022-05-14T14:05:20.000Z</time>
      </trkpt>
      <trkpt lat="42.692257" lon="-2.009786">
        <ele>566.783163</ele>
        <time>2022-05-14T14:05:29.000Z</time>
      </trkpt>
      <trkpt lat="42.69166" lon="-2.008946">
        <ele>565.763826</ele>
        <time>2022-05-14T14:05:39.000Z</time>
      </trkpt>
      <trkpt lat="42.691565" lon="-2.008617">
        <ele>565.458907</ele>
        <time>2022-05-14T14:05:42.000Z</time>
      </trkpt>
      <trkpt lat="42.691596" lon="-2.008293">
        <ele>564.646573</ele>
        <time>2022-05-14T14:05:45.000Z</time>
      </trkpt>
      <trkpt lat="42.69195" lon="-2.006716">
        <ele>557.963476</ele>
        <time>2022-05-14T14:05:58.000Z</time>
      </trkpt>
      <trkpt lat="42.691908" lon="-2.006462">
        <ele>556.887899</ele>
        <time>2022-05-14T14:06:00.000Z</time>
      </trkpt>
      <trkpt lat="42.691507" lon="-2.00512">
        <ele>549.002223</ele>
        <time>2022-05-14T14:06:12.000Z</time>
      </trkpt>
      <trkpt lat="42.691041" lon="-2.004479">
        <ele>543.701627</ele>
        <time>2022-05-14T14:06:19.000Z</time>
      </trkpt>
      <trkpt lat="42.690967" lon="-2.0042">
        <ele>541.894849</ele>
        <time>2022-05-14T14:06:21.000Z</time>
      </trkpt>
      <trkpt lat="42.690953" lon="-2.003892">
        <ele>540.090891</ele>
        <time>2022-05-14T14:06:24.000Z</time>
      </trkpt>
      <trkpt lat="42.691139" lon="-2.00298">
        <ele>534.757944</ele>
        <time>2022-05-14T14:06:32.000Z</time>
      </trkpt>
      <trkpt lat="42.691159" lon="-2.002857">
        <ele>534.126336</ele>
        <time>2022-05-14T14:06:33.000Z</time>
      </trkpt>
      <trkpt lat="42.691139" lon="-2.002755">
        <ele>533.557651</ele>
        <time>2022-05-14T14:06:34.000Z</time>
      </trkpt>
      <trkpt lat="42.691104" lon="-2.002635">
        <ele>532.782963</ele>
        <time>2022-05-14T14:06:35.000Z</time>
      </trkpt>
      <trkpt lat="42.689854" lon="-2.00048">
        <ele>521.565908</ele>
        <time>2022-05-14T14:06:57.000Z</time>
      </trkpt>
      <trkpt lat="42.689779" lon="-2.000425">
        <ele>521.176603</ele>
        <time>2022-05-14T14:06:58.000Z</time>
      </trkpt>
      <trkpt lat="42.689717" lon="-2.000374">
        <ele>520.863667</ele>
        <time>2022-05-14T14:06:59.000Z</time>
      </trkpt>
      <trkpt lat="42.689548" lon="-2.000293">
        <ele>520.058705</ele>
        <time>2022-05-14T14:07:01.000Z</time>
      </trkpt>
      <trkpt lat="42.689404" lon="-2.000224">
        <ele>519.385899</ele>
        <time>2022-05-14T14:07:03.000Z</time>
      </trkpt>
      <trkpt lat="42.689038" lon="-2.000043">
        <ele>519.255312</ele>
        <time>2022-05-14T14:07:07.000Z</time>
      </trkpt>
      <trkpt lat="42.68836" lon="-1.999705">
        <ele>519.309391</ele>
        <time>2022-05-14T14:07:15.000Z</time>
      </trkpt>
      <trkpt lat="42.688218" lon="-1.999649">
        <ele>519.32022</ele>
        <time>2022-05-14T14:07:17.000Z</time>
      </trkpt>
      <trkpt lat="42.68809" lon="-1.999623">
        <ele>519.329996</ele>
        <time>2022-05-14T14:07:18.000Z</time>
      </trkpt>
      <trkpt lat="42.685921" lon="-1.999653">
        <ele>516.676406</ele>
        <time>2022-05-14T14:07:42.000Z</time>
      </trkpt>
      <trkpt lat="42.685792" lon="-1.999625">
        <ele>516.277485</ele>
        <time>2022-05-14T14:07:43.000Z</time>
      </trkpt>
      <trkpt lat="42.685662" lon="-1.999515">
        <ele>515.520736</ele>
        <time>2022-05-14T14:07:45.000Z</time>
      </trkpt>
      <trkpt lat="42.685175" lon="-1.99877">
        <ele>511.711538</ele>
        <time>2022-05-14T14:07:53.000Z</time>
      </trkpt>
      <trkpt lat="42.684858" lon="-1.998465">
        <ele>509.781306</ele>
        <time>2022-05-14T14:07:57.000Z</time>
      </trkpt>
      <trkpt lat="42.684478" lon="-1.998349">
        <ele>507.74886</ele>
        <time>2022-05-14T14:08:01.000Z</time>
      </trkpt>
      <trkpt lat="42.682991" lon="-1.997979">
        <ele>500.156628</ele>
        <time>2022-05-14T14:08:18.000Z</time>
      </trkpt>
      <trkpt lat="42.682745" lon="-1.997849">
        <ele>498.847852</ele>
        <time>2022-05-14T14:08:21.000Z</time>
      </trkpt>
      <trkpt lat="42.682544" lon="-1.997694">
        <ele>497.444022</ele>
        <time>2022-05-14T14:08:24.000Z</time>
      </trkpt>
      <trkpt lat="42.682479" lon="-1.997799">
        <ele>496.767873</ele>
        <time>2022-05-14T14:08:25.000Z</time>
      </trkpt>
      <trkpt lat="42.68235" lon="-1.997969">
        <ele>495.445952</ele>
        <time>2022-05-14T14:08:27.000Z</time>
      </trkpt>
      <trkpt lat="42.682181" lon="-1.997666">
        <ele>493.50598</ele>
        <time>2022-05-14T14:08:30.000Z</time>
      </trkpt>
      <trkpt lat="42.682004" lon="-1.997415">
        <ele>491.702708</ele>
        <time>2022-05-14T14:08:33.000Z</time>
      </trkpt>
      <trkpt lat="42.681938" lon="-1.997365">
        <ele>491.21072</ele>
        <time>2022-05-14T14:08:34.000Z</time>
      </trkpt>
      <trkpt lat="42.681583" lon="-1.997226">
        <ele>488.617363</ele>
        <time>2022-05-14T14:08:38.000Z</time>
      </trkpt>
      <trkpt lat="42.681448" lon="-1.997557">
        <ele>486.655356</ele>
        <time>2022-05-14T14:08:41.000Z</time>
      </trkpt>
      <trkpt lat="42.681415" lon="-1.997664">
        <ele>486.050141</ele>
        <time>2022-05-14T14:08:42.000Z</time>
      </trkpt>
      <trkpt lat="42.681338" lon="-1.997789">
        <ele>485.31729</ele>
        <time>2022-05-14T14:08:43.000Z</time>
      </trkpt>
      <trkpt lat="42.681186" lon="-1.997841">
        <ele>484.329422</ele>
        <time>2022-05-14T14:08:45.000Z</time>
      </trkpt>
      <trkpt lat="42.680747" lon="-1.997628">
        <ele>481.378793</ele>
        <time>2022-05-14T14:08:50.000Z</time>
      </trkpt>
      <trkpt lat="42.680563" lon="-1.99759">
        <ele>480.14255</ele>
        <time>2022-05-14T14:08:52.000Z</time>
      </trkpt>
      <trkpt lat="42.680429" lon="-1.997643">
        <ele>479.252365</ele>
        <time>2022-05-14T14:08:54.000Z</time>
      </trkpt>
      <trkpt lat="42.680208" lon="-1.997841">
        <ele>477.615501</ele>
        <time>2022-05-14T14:08:57.000Z</time>
      </trkpt>
      <trkpt lat="42.680144" lon="-1.998009">
        <ele>476.730527</ele>
        <time>2022-05-14T14:08:59.000Z</time>
      </trkpt>
      <trkpt lat="42.680086" lon="-1.998338">
        <ele>475.145102</ele>
        <time>2022-05-14T14:09:02.000Z</time>
      </trkpt>
      <trkpt lat="42.680216" lon="-1.998974">
        <ele>472.644909</ele>
        <time>2022-05-14T14:09:07.000Z</time>
      </trkpt>
      <trkpt lat="42.680218" lon="-1.999103">
        <ele>472.143058</ele>
        <time>2022-05-14T14:09:08.000Z</time>
      </trkpt>
      <trkpt lat="42.680114" lon="-1.999364">
        <ele>471.127576</ele>
        <time>2022-05-14T14:09:10.000Z</time>
      </trkpt>
      <trkpt lat="42.679934" lon="-1.999461">
        <ele>470.243229</ele>
        <time>2022-05-14T14:09:12.000Z</time>
      </trkpt>
      <trkpt lat="42.679889" lon="-1.999459">
        <ele>469.958906</ele>
        <time>2022-05-14T14:09:13.000Z</time>
      </trkpt>
      <trkpt lat="42.679789" lon="-1.999379">
        <ele>469.453494</ele>
        <time>2022-05-14T14:09:14.000Z</time>
      </trkpt>
      <trkpt lat="42.678778" lon="-1.997366">
        <ele>461.259541</ele>
        <time>2022-05-14T14:09:34.000Z</time>
      </trkpt>
      <trkpt lat="42.678059" lon="-1.996339">
        <ele>456.815942</ele>
        <time>2022-05-14T14:09:46.000Z</time>
      </trkpt>
      <trkpt lat="42.677995" lon="-1.996161">
        <ele>456.292759</ele>
        <time>2022-05-14T14:09:48.000Z</time>
      </trkpt>
      <trkpt lat="42.677997" lon="-1.995851">
        <ele>455.370163</ele>
        <time>2022-05-14T14:09:51.000Z</time>
      </trkpt>
      <trkpt lat="42.678158" lon="-1.994678">
        <ele>451.97942</ele>
        <time>2022-05-14T14:10:01.000Z</time>
      </trkpt>
      <trkpt lat="42.678147" lon="-1.994542">
        <ele>451.610842</ele>
        <time>2022-05-14T14:10:02.000Z</time>
      </trkpt>
      <trkpt lat="42.67815" lon="-1.994432">
        <ele>451.266034</ele>
        <time>2022-05-14T14:10:03.000Z</time>
      </trkpt>
      <trkpt lat="42.678095" lon="-1.994295">
        <ele>450.85832</ele>
        <time>2022-05-14T14:10:04.000Z</time>
      </trkpt>
      <trkpt lat="42.6778" lon="-1.993854">
        <ele>449.836111</ele>
        <time>2022-05-14T14:10:09.000Z</time>
      </trkpt>
      <trkpt lat="42.677656" lon="-1.993719">
        <ele>449.421839</ele>
        <time>2022-05-14T14:10:11.000Z</time>
      </trkpt>
      <trkpt lat="42.677504" lon="-1.99363">
        <ele>449.041481</ele>
        <time>2022-05-14T14:10:13.000Z</time>
      </trkpt>
      <trkpt lat="42.676775" lon="-1.993284">
        <ele>447.241895</ele>
        <time>2022-05-14T14:10:22.000Z</time>
      </trkpt>
      <trkpt lat="42.676552" lon="-1.993249">
        <ele>446.711483</ele>
        <time>2022-05-14T14:10:24.000Z</time>
      </trkpt>
      <trkpt lat="42.676361" lon="-1.993366">
        <ele>446.426713</ele>
        <time>2022-05-14T14:10:26.000Z</time>
      </trkpt>
      <trkpt lat="42.675868" lon="-1.993873">
        <ele>445.581198</ele>
        <time>2022-05-14T14:10:33.000Z</time>
      </trkpt>
      <trkpt lat="42.675645" lon="-1.993996">
        <ele>445.258621</ele>
        <time>2022-05-14T14:10:36.000Z</time>
      </trkpt>
      <trkpt lat="42.67445" lon="-1.994193">
        <ele>443.236514</ele>
        <time>2022-05-14T14:10:49.000Z</time>
      </trkpt>
      <trkpt lat="42.673091" lon="-1.994654">
        <ele>440.05397</ele>
        <time>2022-05-14T14:11:05.000Z</time>
      </trkpt>
      <trkpt lat="42.67274" lon="-1.994701">
        <ele>439.360918</ele>
        <time>2022-05-14T14:11:09.000Z</time>
      </trkpt>
      <trkpt lat="42.672417" lon="-1.994563">
        <ele>438.697979</ele>
        <time>2022-05-14T14:11:13.000Z</time>
      </trkpt>
      <trkpt lat="42.670401" lon="-1.993102">
        <ele>435.00763</ele>
        <time>2022-05-14T14:11:38.000Z</time>
      </trkpt>
      <trkpt lat="42.670054" lon="-1.993027">
        <ele>434.559077</ele>
        <time>2022-05-14T14:11:42.000Z</time>
      </trkpt>
      <trkpt lat="42.669636" lon="-1.993119">
        <ele>434.153704</ele>
        <time>2022-05-14T14:11:47.000Z</time>
      </trkpt>
      <trkpt lat="42.66951" lon="-1.993127">
        <ele>434.080583</ele>
        <time>2022-05-14T14:11:48.000Z</time>
      </trkpt>
      <trkpt lat="42.669406" lon="-1.993106">
        <ele>434.026953</ele>
        <time>2022-05-14T14:11:49.000Z</time>
      </trkpt>
      <trkpt lat="42.669263" lon="-1.993035">
        <ele>433.939619</ele>
        <time>2022-05-14T14:11:51.000Z</time>
      </trkpt>
      <trkpt lat="42.667837" lon="-1.991967">
        <ele>433.038491</ele>
        <time>2022-05-14T14:12:09.000Z</time>
      </trkpt>
      <trkpt lat="42.666363" lon="-1.991409">
        <ele>432.101844</ele>
        <time>2022-05-14T14:12:26.000Z</time>
      </trkpt>
      <trkpt lat="42.664701" lon="-1.990811">
        <ele>430.315045</ele>
        <time>2022-05-14T14:12:45.000Z</time>
      </trkpt>
      <trkpt lat="42.664117" lon="-1.990609">
        <ele>430.047792</ele>
        <time>2022-05-14T14:12:52.000Z</time>
      </trkpt>
      <trkpt lat="42.663982" lon="-1.990547">
        <ele>429.987366</ele>
        <time>2022-05-14T14:12:54.000Z</time>
      </trkpt>
      <trkpt lat="42.663979" lon="-1.990546">
        <ele>429.987355</ele>
        <time>2022-05-14T14:12:54.000Z</time>
      </trkpt>
      <trkpt lat="42.663978" lon="-1.990552">
        <ele>429.987365</ele>
        <time>2022-05-14T14:12:54.000Z</time>
      </trkpt>
      <trkpt lat="42.663856" lon="-1.990511">
        <ele>429.923839</ele>
        <time>2022-05-14T14:12:55.000Z</time>
      </trkpt>
      <trkpt lat="42.664038" lon="-1.989123">
        <ele>429.656826</ele>
        <time>2022-05-14T14:13:07.000Z</time>
      </trkpt>
      <trkpt lat="42.66408" lon="-1.988918">
        <ele>429.745304</ele>
        <time>2022-05-14T14:13:09.000Z</time>
      </trkpt>
      <trkpt lat="42.664112" lon="-1.988652">
        <ele>429.854159</ele>
        <time>2022-05-14T14:13:11.000Z</time>
      </trkpt>
      <trkpt lat="42.664153" lon="-1.988493">
        <ele>429.928257</ele>
        <time>2022-05-14T14:13:12.000Z</time>
      </trkpt>
      <trkpt lat="42.6642" lon="-1.988154">
        <ele>430.074362</ele>
        <time>2022-05-14T14:13:15.000Z</time>
      </trkpt>
      <trkpt lat="42.66424" lon="-1.987903">
        <ele>430.181906</ele>
        <time>2022-05-14T14:13:17.000Z</time>
      </trkpt>
      <trkpt lat="42.664331" lon="-1.987362">
        <ele>430.41228</ele>
        <time>2022-05-14T14:13:22.000Z</time>
      </trkpt>
      <trkpt lat="42.664538" lon="-1.986012">
        <ele>432.558551</ele>
        <time>2022-05-14T14:13:33.000Z</time>
      </trkpt>
      <trkpt lat="42.664885" lon="-1.983733">
        <ele>437.788009</ele>
        <time>2022-05-14T14:13:52.000Z</time>
      </trkpt>
      <trkpt lat="42.665002" lon="-1.983061">
        <ele>439.619669</ele>
        <time>2022-05-14T14:13:58.000Z</time>
      </trkpt>
      <trkpt lat="42.665191" lon="-1.981814">
        <ele>442.776804</ele>
        <time>2022-05-14T14:14:08.000Z</time>
      </trkpt>
      <trkpt lat="42.665332" lon="-1.980937">
        <ele>444.49214</ele>
        <time>2022-05-14T14:14:15.000Z</time>
      </trkpt>
      <trkpt lat="42.665488" lon="-1.979925">
        <ele>446.505346</ele>
        <time>2022-05-14T14:14:23.000Z</time>
      </trkpt>
      <trkpt lat="42.66555" lon="-1.979497">
        <ele>447.150686</ele>
        <time>2022-05-14T14:14:27.000Z</time>
      </trkpt>
      <trkpt lat="42.665625" lon="-1.979069">
        <ele>447.743004</ele>
        <time>2022-05-14T14:14:31.000Z</time>
      </trkpt>
      <trkpt lat="42.665647" lon="-1.978593">
        <ele>448.371346</ele>
        <time>2022-05-14T14:14:35.000Z</time>
      </trkpt>
      <trkpt lat="42.66563" lon="-1.978282">
        <ele>448.806074</ele>
        <time>2022-05-14T14:14:38.000Z</time>
      </trkpt>
      <trkpt lat="42.665543" lon="-1.977851">
        <ele>449.391092</ele>
        <time>2022-05-14T14:14:42.000Z</time>
      </trkpt>
      <trkpt lat="42.665404" lon="-1.977382">
        <ele>450.093614</ele>
        <time>2022-05-14T14:14:46.000Z</time>
      </trkpt>
      <trkpt lat="42.665241" lon="-1.976917">
        <ele>450.810361</ele>
        <time>2022-05-14T14:14:50.000Z</time>
      </trkpt>
      <trkpt lat="42.665063" lon="-1.976423">
        <ele>451.580675</ele>
        <time>2022-05-14T14:14:54.000Z</time>
      </trkpt>
      <trkpt lat="42.665001" lon="-1.976258">
        <ele>451.835376</ele>
        <time>2022-05-14T14:14:56.000Z</time>
      </trkpt>
      <trkpt lat="42.664933" lon="-1.976299">
        <ele>451.956783</ele>
        <time>2022-05-14T14:14:57.000Z</time>
      </trkpt>
      <trkpt lat="42.664806" lon="-1.976292">
        <ele>452.19341</ele>
        <time>2022-05-14T14:14:58.000Z</time>
      </trkpt>
      <trkpt lat="42.664767" lon="-1.976242">
        <ele>452.31347</ele>
        <time>2022-05-14T14:14:59.000Z</time>
      </trkpt>
      <trkpt lat="42.664713" lon="-1.976183">
        <ele>452.448341</ele>
        <time>2022-05-14T14:15:00.000Z</time>
      </trkpt>
      <trkpt lat="42.664718" lon="-1.9759">
        <ele>452.835706</ele>
        <time>2022-05-14T14:15:02.000Z</time>
      </trkpt>
      <trkpt lat="42.664774" lon="-1.975824">
        <ele>452.969915</ele>
        <time>2022-05-14T14:15:03.000Z</time>
      </trkpt>
      <trkpt lat="42.664729" lon="-1.97574">
        <ele>453.113435</ele>
        <time>2022-05-14T14:15:04.000Z</time>
      </trkpt>
      <trkpt lat="42.664758" lon="-1.975513">
        <ele>453.464534</ele>
        <time>2022-05-14T14:15:06.000Z</time>
      </trkpt>
      <trkpt lat="42.664849" lon="-1.975364">
        <ele>453.907467</ele>
        <time>2022-05-14T14:15:08.000Z</time>
      </trkpt>
      <trkpt lat="42.665531" lon="-1.975039">
        <ele>456.1817</ele>
        <time>2022-05-14T14:15:16.000Z</time>
      </trkpt>
      <trkpt lat="42.665893" lon="-1.974627">
        <ele>457.698079</ele>
        <time>2022-05-14T14:15:21.000Z</time>
      </trkpt>
      <trkpt lat="42.666338" lon="-1.97379">
        <ele>460.411892</ele>
        <time>2022-05-14T14:15:29.000Z</time>
      </trkpt>
      <trkpt lat="42.666683" lon="-1.972752">
        <ele>463.795117</ele>
        <time>2022-05-14T14:15:38.000Z</time>
      </trkpt>
      <trkpt lat="42.666777" lon="-1.972187">
        <ele>465.53471</ele>
        <time>2022-05-14T14:15:43.000Z</time>
      </trkpt>
      <trkpt lat="42.666749" lon="-1.971229">
        <ele>468.240652</ele>
        <time>2022-05-14T14:15:51.000Z</time>
      </trkpt>
      <trkpt lat="42.666559" lon="-1.969735">
        <ele>472.358219</ele>
        <time>2022-05-14T14:16:03.000Z</time>
      </trkpt>
      <trkpt lat="42.666401" lon="-1.968186">
        <ele>476.421402</ele>
        <time>2022-05-14T14:16:16.000Z</time>
      </trkpt>
      <trkpt lat="42.666329" lon="-1.964948">
        <ele>484.528181</ele>
        <time>2022-05-14T14:16:42.000Z</time>
      </trkpt>
      <trkpt lat="42.666358" lon="-1.963868">
        <ele>486.056352</ele>
        <time>2022-05-14T14:16:51.000Z</time>
      </trkpt>
      <trkpt lat="42.666641" lon="-1.961664">
        <ele>487.068146</ele>
        <time>2022-05-14T14:17:09.000Z</time>
      </trkpt>
      <trkpt lat="42.666701" lon="-1.961352">
        <ele>486.741705</ele>
        <time>2022-05-14T14:17:12.000Z</time>
      </trkpt>
      <trkpt lat="42.666721" lon="-1.961173">
        <ele>486.561628</ele>
        <time>2022-05-14T14:17:13.000Z</time>
      </trkpt>
      <trkpt lat="42.666814" lon="-1.960783">
        <ele>486.157047</ele>
        <time>2022-05-14T14:17:16.000Z</time>
      </trkpt>
      <trkpt lat="42.667112" lon="-1.959439">
        <ele>484.526426</ele>
        <time>2022-05-14T14:17:27.000Z</time>
      </trkpt>
      <trkpt lat="42.667528" lon="-1.957806">
        <ele>481.881392</ele>
        <time>2022-05-14T14:17:41.000Z</time>
      </trkpt>
      <trkpt lat="42.667594" lon="-1.957532">
        <ele>481.444427</ele>
        <time>2022-05-14T14:17:43.000Z</time>
      </trkpt>
      <trkpt lat="42.667669" lon="-1.957208">
        <ele>481.233398</ele>
        <time>2022-05-14T14:17:46.000Z</time>
      </trkpt>
      <trkpt lat="42.668176" lon="-1.955389">
        <ele>480.387674</ele>
        <time>2022-05-14T14:18:02.000Z</time>
      </trkpt>
      <trkpt lat="42.668212" lon="-1.955345">
        <ele>480.354655</ele>
        <time>2022-05-14T14:18:03.000Z</time>
      </trkpt>
      <trkpt lat="42.668182" lon="-1.955245">
        <ele>480.309144</ele>
        <time>2022-05-14T14:18:04.000Z</time>
      </trkpt>
      <trkpt lat="42.668198" lon="-1.955184">
        <ele>480.281138</ele>
        <time>2022-05-14T14:18:05.000Z</time>
      </trkpt>
      <trkpt lat="42.668185" lon="-1.955147">
        <ele>480.261177</ele>
        <time>2022-05-14T14:18:05.000Z</time>
      </trkpt>
      <trkpt lat="42.66821" lon="-1.95505">
        <ele>480.211892</ele>
        <time>2022-05-14T14:18:06.000Z</time>
      </trkpt>
      <trkpt lat="42.668256" lon="-1.954959">
        <ele>480.162465</ele>
        <time>2022-05-14T14:18:07.000Z</time>
      </trkpt>
      <trkpt lat="42.668318" lon="-1.954908">
        <ele>480.112994</ele>
        <time>2022-05-14T14:18:08.000Z</time>
      </trkpt>
      <trkpt lat="42.668322" lon="-1.954859">
        <ele>480.090608</ele>
        <time>2022-05-14T14:18:08.000Z</time>
      </trkpt>
      <trkpt lat="42.668348" lon="-1.954709">
        <ele>480.016308</ele>
        <time>2022-05-14T14:18:09.000Z</time>
      </trkpt>
      <trkpt lat="42.668588" lon="-1.953834">
        <ele>479.574349</ele>
        <time>2022-05-14T14:18:17.000Z</time>
      </trkpt>
      <trkpt lat="42.669236" lon="-1.951977">
        <ele>476.486338</ele>
        <time>2022-05-14T14:18:34.000Z</time>
      </trkpt>
      <trkpt lat="42.669437" lon="-1.951466">
        <ele>475.081007</ele>
        <time>2022-05-14T14:18:39.000Z</time>
      </trkpt>
      <trkpt lat="42.669608" lon="-1.951059">
        <ele>473.981853</ele>
        <time>2022-05-14T14:18:43.000Z</time>
      </trkpt>
      <trkpt lat="42.669834" lon="-1.950417">
        <ele>471.512493</ele>
        <time>2022-05-14T14:18:49.000Z</time>
      </trkpt>
      <trkpt lat="42.669852" lon="-1.950378">
        <ele>471.322519</ele>
        <time>2022-05-14T14:18:49.000Z</time>
      </trkpt>
      <trkpt lat="42.669958" lon="-1.95012">
        <ele>470.076016</ele>
        <time>2022-05-14T14:18:51.000Z</time>
      </trkpt>
      <trkpt lat="42.670033" lon="-1.949974">
        <ele>469.344626</ele>
        <time>2022-05-14T14:18:52.000Z</time>
      </trkpt>
      <trkpt lat="42.670159" lon="-1.949738">
        <ele>468.164535</ele>
        <time>2022-05-14T14:18:54.000Z</time>
      </trkpt>
      <trkpt lat="42.670319" lon="-1.949424">
        <ele>466.579076</ele>
        <time>2022-05-14T14:18:57.000Z</time>
      </trkpt>
      <trkpt lat="42.670561" lon="-1.949045">
        <ele>464.49574</ele>
        <time>2022-05-14T14:19:01.000Z</time>
      </trkpt>
      <trkpt lat="42.670762" lon="-1.948806">
        <ele>463.158528</ele>
        <time>2022-05-14T14:19:04.000Z</time>
      </trkpt>
      <trkpt lat="42.670815" lon="-1.948723">
        <ele>462.931372</ele>
        <time>2022-05-14T14:19:05.000Z</time>
      </trkpt>
      <trkpt lat="42.671161" lon="-1.948297">
        <ele>461.787004</ele>
        <time>2022-05-14T14:19:10.000Z</time>
      </trkpt>
      <trkpt lat="42.67202" lon="-1.947245">
        <ele>458.934323</ele>
        <time>2022-05-14T14:19:23.000Z</time>
      </trkpt>
      <trkpt lat="42.672279" lon="-1.946926">
        <ele>458.562553</ele>
        <time>2022-05-14T14:19:27.000Z</time>
      </trkpt>
      <trkpt lat="42.67233" lon="-1.946821">
        <ele>458.47978</ele>
        <time>2022-05-14T14:19:28.000Z</time>
      </trkpt>
      <trkpt lat="42.672817" lon="-1.946084">
        <ele>457.883269</ele>
        <time>2022-05-14T14:19:36.000Z</time>
      </trkpt>
      <trkpt lat="42.673151" lon="-1.945715">
        <ele>457.54283</ele>
        <time>2022-05-14T14:19:41.000Z</time>
      </trkpt>
      <trkpt lat="42.673669" lon="-1.945452">
        <ele>455.837694</ele>
        <time>2022-05-14T14:19:47.000Z</time>
      </trkpt>
      <trkpt lat="42.674715" lon="-1.944883">
        <ele>450.185828</ele>
        <time>2022-05-14T14:20:00.000Z</time>
      </trkpt>
      <trkpt lat="42.674764" lon="-1.944832">
        <ele>449.811549</ele>
        <time>2022-05-14T14:20:01.000Z</time>
      </trkpt>
      <trkpt lat="42.674837" lon="-1.944721">
        <ele>449.267267</ele>
        <time>2022-05-14T14:20:02.000Z</time>
      </trkpt>
      <trkpt lat="42.674986" lon="-1.944387">
        <ele>447.49142</ele>
        <time>2022-05-14T14:20:05.000Z</time>
      </trkpt>
      <trkpt lat="42.675151" lon="-1.943626">
        <ele>442.426387</ele>
        <time>2022-05-14T14:20:12.000Z</time>
      </trkpt>
      <trkpt lat="42.67519" lon="-1.943356">
        <ele>440.706678</ele>
        <time>2022-05-14T14:20:14.000Z</time>
      </trkpt>
      <trkpt lat="42.675221" lon="-1.94323">
        <ele>439.806686</ele>
        <time>2022-05-14T14:20:15.000Z</time>
      </trkpt>
      <trkpt lat="42.675291" lon="-1.943051">
        <ele>438.538396</ele>
        <time>2022-05-14T14:20:17.000Z</time>
      </trkpt>
      <trkpt lat="42.67536" lon="-1.942797">
        <ele>436.8103</ele>
        <time>2022-05-14T14:20:19.000Z</time>
      </trkpt>
      <trkpt lat="42.675435" lon="-1.942586">
        <ele>435.358462</ele>
        <time>2022-05-14T14:20:21.000Z</time>
      </trkpt>
      <trkpt lat="42.675783" lon="-1.941777">
        <ele>430.16863</ele>
        <time>2022-05-14T14:20:29.000Z</time>
      </trkpt>
      <trkpt lat="42.676229" lon="-1.94113">
        <ele>425.931495</ele>
        <time>2022-05-14T14:20:36.000Z</time>
      </trkpt>
      <trkpt lat="42.676692" lon="-1.940651">
        <ele>422.070116</ele>
        <time>2022-05-14T14:20:42.000Z</time>
      </trkpt>
      <trkpt lat="42.67775" lon="-1.939749">
        <ele>416.411383</ele>
        <time>2022-05-14T14:20:56.000Z</time>
      </trkpt>
      <trkpt lat="42.678087" lon="-1.939313">
        <ele>414.408908</ele>
        <time>2022-05-14T14:21:01.000Z</time>
      </trkpt>
      <trkpt lat="42.678321" lon="-1.938683">
        <ele>412.249015</ele>
        <time>2022-05-14T14:21:07.000Z</time>
      </trkpt>
      <trkpt lat="42.678595" lon="-1.937429">
        <ele>408.245601</ele>
        <time>2022-05-14T14:21:18.000Z</time>
      </trkpt>
      <trkpt lat="42.678716" lon="-1.936679">
        <ele>405.936155</ele>
        <time>2022-05-14T14:21:24.000Z</time>
      </trkpt>
      <trkpt lat="42.678762" lon="-1.935919">
        <ele>402.498719</ele>
        <time>2022-05-14T14:21:30.000Z</time>
      </trkpt>
      <trkpt lat="42.678784" lon="-1.935412">
        <ele>400.157039</ele>
        <time>2022-05-14T14:21:34.000Z</time>
      </trkpt>
      <trkpt lat="42.678832" lon="-1.934614">
        <ele>396.510848</ele>
        <time>2022-05-14T14:21:41.000Z</time>
      </trkpt>
      <trkpt lat="42.678882" lon="-1.933266">
        <ele>390.731891</ele>
        <time>2022-05-14T14:21:52.000Z</time>
      </trkpt>
      <trkpt lat="42.67883" lon="-1.932439">
        <ele>387.365033</ele>
        <time>2022-05-14T14:21:59.000Z</time>
      </trkpt>
      <trkpt lat="42.678782" lon="-1.931956">
        <ele>385.381709</ele>
        <time>2022-05-14T14:22:03.000Z</time>
      </trkpt>
      <trkpt lat="42.67878" lon="-1.931915">
        <ele>385.181691</ele>
        <time>2022-05-14T14:22:03.000Z</time>
      </trkpt>
      <trkpt lat="42.678759" lon="-1.931609">
        <ele>384.320269</ele>
        <time>2022-05-14T14:22:06.000Z</time>
      </trkpt>
      <trkpt lat="42.67875" lon="-1.931495">
        <ele>384.170849</ele>
        <time>2022-05-14T14:22:07.000Z</time>
      </trkpt>
      <trkpt lat="42.678761" lon="-1.931176">
        <ele>383.706089</ele>
        <time>2022-05-14T14:22:10.000Z</time>
      </trkpt>
      <trkpt lat="42.678773" lon="-1.930856">
        <ele>383.220452</ele>
        <time>2022-05-14T14:22:13.000Z</time>
      </trkpt>
      <trkpt lat="42.678789" lon="-1.930633">
        <ele>382.897348</ele>
        <time>2022-05-14T14:22:15.000Z</time>
      </trkpt>
      <trkpt lat="42.67889" lon="-1.930048">
        <ele>382.025149</ele>
        <time>2022-05-14T14:22:20.000Z</time>
      </trkpt>
      <trkpt lat="42.678952" lon="-1.929794">
        <ele>381.639258</ele>
        <time>2022-05-14T14:22:22.000Z</time>
      </trkpt>
      <trkpt lat="42.679055" lon="-1.929302">
        <ele>380.977121</ele>
        <time>2022-05-14T14:22:26.000Z</time>
      </trkpt>
      <trkpt lat="42.679129" lon="-1.929">
        <ele>380.963866</ele>
        <time>2022-05-14T14:22:29.000Z</time>
      </trkpt>
      <trkpt lat="42.679224" lon="-1.928438">
        <ele>380.938896</ele>
        <time>2022-05-14T14:22:34.000Z</time>
      </trkpt>
      <trkpt lat="42.679254" lon="-1.927748">
        <ele>380.909429</ele>
        <time>2022-05-14T14:22:40.000Z</time>
      </trkpt>
      <trkpt lat="42.67916" lon="-1.926754">
        <ele>381.023312</ele>
        <time>2022-05-14T14:22:48.000Z</time>
      </trkpt>
      <trkpt lat="42.678875" lon="-1.925889">
        <ele>381.688255</ele>
        <time>2022-05-14T14:22:56.000Z</time>
      </trkpt>
      <trkpt lat="42.678329" lon="-1.924821">
        <ele>382.607586</ele>
        <time>2022-05-14T14:23:07.000Z</time>
      </trkpt>
      <trkpt lat="42.677653" lon="-1.923945">
        <ele>382.771441</ele>
        <time>2022-05-14T14:23:17.000Z</time>
      </trkpt>
      <trkpt lat="42.67759" lon="-1.923908">
        <ele>382.785036</ele>
        <time>2022-05-14T14:23:18.000Z</time>
      </trkpt>
      <trkpt lat="42.677487" lon="-1.923834">
        <ele>382.805596</ele>
        <time>2022-05-14T14:23:19.000Z</time>
      </trkpt>
      <trkpt lat="42.677343" lon="-1.923751">
        <ele>382.833464</ele>
        <time>2022-05-14T14:23:21.000Z</time>
      </trkpt>
      <trkpt lat="42.677253" lon="-1.923774">
        <ele>382.848414</ele>
        <time>2022-05-14T14:23:22.000Z</time>
      </trkpt>
      <trkpt lat="42.67717" lon="-1.923757">
        <ele>382.863468</ele>
        <time>2022-05-14T14:23:23.000Z</time>
      </trkpt>
      <trkpt lat="42.677085" lon="-1.923573">
        <ele>382.892679</ele>
        <time>2022-05-14T14:23:25.000Z</time>
      </trkpt>
      <trkpt lat="42.677087" lon="-1.923451">
        <ele>382.907669</ele>
        <time>2022-05-14T14:23:26.000Z</time>
      </trkpt>
      <trkpt lat="42.677095" lon="-1.923263">
        <ele>382.843691</ele>
        <time>2022-05-14T14:23:28.000Z</time>
      </trkpt>
      <trkpt lat="42.677085" lon="-1.923155">
        <ele>382.730661</ele>
        <time>2022-05-14T14:23:29.000Z</time>
      </trkpt>
      <trkpt lat="42.676983" lon="-1.922772">
        <ele>382.234839</ele>
        <time>2022-05-14T14:23:32.000Z</time>
      </trkpt>
      <trkpt lat="42.676771" lon="-1.922225">
        <ele>381.522961</ele>
        <time>2022-05-14T14:23:37.000Z</time>
      </trkpt>
      <trkpt lat="42.674595" lon="-1.915679">
        <ele>373.992644</ele>
        <time>2022-05-14T14:24:36.000Z</time>
      </trkpt>
      <trkpt lat="42.674398" lon="-1.915046">
        <ele>373.902956</ele>
        <time>2022-05-14T14:24:42.000Z</time>
      </trkpt>
      <trkpt lat="42.673634" lon="-1.912693">
        <ele>378.208078</ele>
        <time>2022-05-14T14:25:03.000Z</time>
      </trkpt>
      <trkpt lat="42.673249" lon="-1.911143">
        <ele>385.422409</ele>
        <time>2022-05-14T14:25:16.000Z</time>
      </trkpt>
      <trkpt lat="42.673209" lon="-1.910905">
        <ele>386.721971</ele>
        <time>2022-05-14T14:25:18.000Z</time>
      </trkpt>
      <trkpt lat="42.673153" lon="-1.910571">
        <ele>388.66238</ele>
        <time>2022-05-14T14:25:21.000Z</time>
      </trkpt>
      <trkpt lat="42.673035" lon="-1.909622">
        <ele>393.840565</ele>
        <time>2022-05-14T14:25:29.000Z</time>
      </trkpt>
      <trkpt lat="42.673081" lon="-1.908708">
        <ele>397.92274</ele>
        <time>2022-05-14T14:25:37.000Z</time>
      </trkpt>
      <trkpt lat="42.673141" lon="-1.908474">
        <ele>399.07658</ele>
        <time>2022-05-14T14:25:39.000Z</time>
      </trkpt>
      <trkpt lat="42.673222" lon="-1.907987">
        <ele>401.342027</ele>
        <time>2022-05-14T14:25:43.000Z</time>
      </trkpt>
      <trkpt lat="42.673395" lon="-1.907235">
        <ele>404.539201</ele>
        <time>2022-05-14T14:25:49.000Z</time>
      </trkpt>
      <trkpt lat="42.673918" lon="-1.906025">
        <ele>407.90624</ele>
        <time>2022-05-14T14:26:00.000Z</time>
      </trkpt>
      <trkpt lat="42.674844" lon="-1.904657">
        <ele>413.837765</ele>
        <time>2022-05-14T14:26:15.000Z</time>
      </trkpt>
      <trkpt lat="42.67532" lon="-1.903813">
        <ele>418.046008</ele>
        <time>2022-05-14T14:26:24.000Z</time>
      </trkpt>
      <trkpt lat="42.675514" lon="-1.903363">
        <ele>420.331902</ele>
        <time>2022-05-14T14:26:28.000Z</time>
      </trkpt>
      <trkpt lat="42.676833" lon="-1.899478">
        <ele>442.179229</ele>
        <time>2022-05-14T14:27:03.000Z</time>
      </trkpt>
      <trkpt lat="42.677111" lon="-1.898459">
        <ele>445.301736</ele>
        <time>2022-05-14T14:27:12.000Z</time>
      </trkpt>
      <trkpt lat="42.677544" lon="-1.896832">
        <ele>447.303536</ele>
        <time>2022-05-14T14:27:26.000Z</time>
      </trkpt>
      <trkpt lat="42.677594" lon="-1.896569">
        <ele>447.684528</ele>
        <time>2022-05-14T14:27:28.000Z</time>
      </trkpt>
      <trkpt lat="42.677697" lon="-1.89573">
        <ele>449.052447</ele>
        <time>2022-05-14T14:27:35.000Z</time>
      </trkpt>
      <trkpt lat="42.678155" lon="-1.892319">
        <ele>457.201993</ele>
        <time>2022-05-14T14:28:03.000Z</time>
      </trkpt>
      <trkpt lat="42.678196" lon="-1.891591">
        <ele>459.213658</ele>
        <time>2022-05-14T14:28:09.000Z</time>
      </trkpt>
      <trkpt lat="42.678143" lon="-1.891163">
        <ele>460.301571</ele>
        <time>2022-05-14T14:28:13.000Z</time>
      </trkpt>
      <trkpt lat="42.677939" lon="-1.89045">
        <ele>462.325695</ele>
        <time>2022-05-14T14:28:19.000Z</time>
      </trkpt>
      <trkpt lat="42.677736" lon="-1.889902">
        <ele>463.903941</ele>
        <time>2022-05-14T14:28:24.000Z</time>
      </trkpt>
      <trkpt lat="42.677704" lon="-1.889916">
        <ele>464.015862</ele>
        <time>2022-05-14T14:28:24.000Z</time>
      </trkpt>
      <trkpt lat="42.677621" lon="-1.889876">
        <ele>464.336571</ele>
        <time>2022-05-14T14:28:25.000Z</time>
      </trkpt>
      <trkpt lat="42.67758" lon="-1.889802">
        <ele>464.5571</ele>
        <time>2022-05-14T14:28:26.000Z</time>
      </trkpt>
      <trkpt lat="42.677586" lon="-1.889766">
        <ele>464.66871</ele>
        <time>2022-05-14T14:28:26.000Z</time>
      </trkpt>
      <trkpt lat="42.677594" lon="-1.889715">
        <ele>464.801409</ele>
        <time>2022-05-14T14:28:26.000Z</time>
      </trkpt>
      <trkpt lat="42.677631" lon="-1.889673">
        <ele>464.875413</ele>
        <time>2022-05-14T14:28:27.000Z</time>
      </trkpt>
      <trkpt lat="42.677085" lon="-1.888298">
        <ele>466.841282</ele>
        <time>2022-05-14T14:28:40.000Z</time>
      </trkpt>
      <trkpt lat="42.676974" lon="-1.888029">
        <ele>467.22503</ele>
        <time>2022-05-14T14:28:43.000Z</time>
      </trkpt>
      <trkpt lat="42.676825" lon="-1.887544">
        <ele>467.87676</ele>
        <time>2022-05-14T14:28:47.000Z</time>
      </trkpt>
      <trkpt lat="42.676715" lon="-1.887123">
        <ele>467.575809</ele>
        <time>2022-05-14T14:28:51.000Z</time>
      </trkpt>
      <trkpt lat="42.676636" lon="-1.886833">
        <ele>467.368528</ele>
        <time>2022-05-14T14:28:54.000Z</time>
      </trkpt>
      <trkpt lat="42.676164" lon="-1.884953">
        <ele>465.70913</ele>
        <time>2022-05-14T14:29:10.000Z</time>
      </trkpt>
      <trkpt lat="42.676061" lon="-1.884766">
        <ele>465.308352</ele>
        <time>2022-05-14T14:29:12.000Z</time>
      </trkpt>
      <trkpt lat="42.675569" lon="-1.884187">
        <ele>463.7584</ele>
        <time>2022-05-14T14:29:19.000Z</time>
      </trkpt>
      <trkpt lat="42.675575" lon="-1.883975">
        <ele>463.388972</ele>
        <time>2022-05-14T14:29:21.000Z</time>
      </trkpt>
      <trkpt lat="42.675507" lon="-1.883938">
        <ele>463.222599</ele>
        <time>2022-05-14T14:29:22.000Z</time>
      </trkpt>
      <trkpt lat="42.675427" lon="-1.883803">
        <ele>462.898602</ele>
        <time>2022-05-14T14:29:23.000Z</time>
      </trkpt>
      <trkpt lat="42.675436" lon="-1.883618">
        <ele>462.57095</ele>
        <time>2022-05-14T14:29:25.000Z</time>
      </trkpt>
      <trkpt lat="42.675478" lon="-1.883527">
        <ele>462.404518</ele>
        <time>2022-05-14T14:29:26.000Z</time>
      </trkpt>
      <trkpt lat="42.675319" lon="-1.88338">
        <ele>461.967278</ele>
        <time>2022-05-14T14:29:28.000Z</time>
      </trkpt>
      <trkpt lat="42.675316" lon="-1.882676">
        <ele>461.615166</ele>
        <time>2022-05-14T14:29:34.000Z</time>
      </trkpt>
      <trkpt lat="42.674999" lon="-1.880455">
        <ele>461.109368</ele>
        <time>2022-05-14T14:29:52.000Z</time>
      </trkpt>
      <trkpt lat="42.674982" lon="-1.880336">
        <ele>461.179114</ele>
        <time>2022-05-14T14:29:53.000Z</time>
      </trkpt>
      <trkpt lat="42.674779" lon="-1.8794">
        <ele>461.818451</ele>
        <time>2022-05-14T14:30:01.000Z</time>
      </trkpt>
      <trkpt lat="42.672568" lon="-1.870716">
        <ele>468.759619</ele>
        <time>2022-05-14T14:31:16.000Z</time>
      </trkpt>
      <trkpt lat="42.672162" lon="-1.869114">
        <ele>469.258047</ele>
        <time>2022-05-14T14:31:30.000Z</time>
      </trkpt>
      <trkpt lat="42.671903" lon="-1.867979">
        <ele>467.908424</ele>
        <time>2022-05-14T14:31:40.000Z</time>
      </trkpt>
      <trkpt lat="42.671504" lon="-1.866163">
        <ele>465.389429</ele>
        <time>2022-05-14T14:31:55.000Z</time>
      </trkpt>
      <trkpt lat="42.671381" lon="-1.865619">
        <ele>464.473722</ele>
        <time>2022-05-14T14:32:00.000Z</time>
      </trkpt>
      <trkpt lat="42.671341" lon="-1.865334">
        <ele>464.017552</ele>
        <time>2022-05-14T14:32:02.000Z</time>
      </trkpt>
      <trkpt lat="42.671357" lon="-1.864998">
        <ele>463.498636</ele>
        <time>2022-05-14T14:32:05.000Z</time>
      </trkpt>
      <trkpt lat="42.671376" lon="-1.864729">
        <ele>463.06944</ele>
        <time>2022-05-14T14:32:07.000Z</time>
      </trkpt>
      <trkpt lat="42.671555" lon="-1.863608">
        <ele>463.359871</ele>
        <time>2022-05-14T14:32:16.000Z</time>
      </trkpt>
      <trkpt lat="42.671617" lon="-1.863209">
        <ele>463.514149</ele>
        <time>2022-05-14T14:32:19.000Z</time>
      </trkpt>
      <trkpt lat="42.671622" lon="-1.863033">
        <ele>463.583648</ele>
        <time>2022-05-14T14:32:20.000Z</time>
      </trkpt>
      <trkpt lat="42.67159" lon="-1.862756">
        <ele>463.687034</ele>
        <time>2022-05-14T14:32:22.000Z</time>
      </trkpt>
      <trkpt lat="42.671556" lon="-1.862646">
        <ele>463.734096</ele>
        <time>2022-05-14T14:32:23.000Z</time>
      </trkpt>
      <trkpt lat="42.671467" lon="-1.862408">
        <ele>463.840032</ele>
        <time>2022-05-14T14:32:25.000Z</time>
      </trkpt>
      <trkpt lat="42.671172" lon="-1.861952">
        <ele>464.662948</ele>
        <time>2022-05-14T14:32:30.000Z</time>
      </trkpt>
      <trkpt lat="42.670344" lon="-1.860618">
        <ele>467.582539</ele>
        <time>2022-05-14T14:32:44.000Z</time>
      </trkpt>
      <trkpt lat="42.669909" lon="-1.859906">
        <ele>469.308947</ele>
        <time>2022-05-14T14:32:52.000Z</time>
      </trkpt>
      <trkpt lat="42.669574" lon="-1.859349">
        <ele>470.70312</ele>
        <time>2022-05-14T14:32:58.000Z</time>
      </trkpt>
      <trkpt lat="42.669468" lon="-1.859224">
        <ele>471.060753</ele>
        <time>2022-05-14T14:33:00.000Z</time>
      </trkpt>
      <trkpt lat="42.669367" lon="-1.859162">
        <ele>471.357764</ele>
        <time>2022-05-14T14:33:01.000Z</time>
      </trkpt>
      <trkpt lat="42.669292" lon="-1.859141">
        <ele>471.567467</ele>
        <time>2022-05-14T14:33:02.000Z</time>
      </trkpt>
      <trkpt lat="42.669254" lon="-1.859166">
        <ele>471.661865</ele>
        <time>2022-05-14T14:33:02.000Z</time>
      </trkpt>
      <trkpt lat="42.669226" lon="-1.859193">
        <ele>471.75504</ele>
        <time>2022-05-14T14:33:02.000Z</time>
      </trkpt>
      <trkpt lat="42.669153" lon="-1.859216">
        <ele>471.934925</ele>
        <time>2022-05-14T14:33:03.000Z</time>
      </trkpt>
      <trkpt lat="42.668985" lon="-1.859088">
        <ele>472.453242</ele>
        <time>2022-05-14T14:33:05.000Z</time>
      </trkpt>
      <trkpt lat="42.668951" lon="-1.859014">
        <ele>472.631017</ele>
        <time>2022-05-14T14:33:06.000Z</time>
      </trkpt>
      <trkpt lat="42.668946" lon="-1.858867">
        <ele>473.022197</ele>
        <time>2022-05-14T14:33:07.000Z</time>
      </trkpt>
      <trkpt lat="42.668958" lon="-1.858794">
        <ele>473.241557</ele>
        <time>2022-05-14T14:33:08.000Z</time>
      </trkpt>
      <trkpt lat="42.668993" lon="-1.858728">
        <ele>473.461242</ele>
        <time>2022-05-14T14:33:09.000Z</time>
      </trkpt>
      <trkpt lat="42.669041" lon="-1.858681">
        <ele>473.677663</ele>
        <time>2022-05-14T14:33:10.000Z</time>
      </trkpt>
      <trkpt lat="42.668839" lon="-1.85839">
        <ele>474.805017</ele>
        <time>2022-05-14T14:33:13.000Z</time>
      </trkpt>
      <trkpt lat="42.668763" lon="-1.858248">
        <ele>475.309928</ele>
        <time>2022-05-14T14:33:14.000Z</time>
      </trkpt>
      <trkpt lat="42.66866" lon="-1.858103">
        <ele>475.84218</ele>
        <time>2022-05-14T14:33:16.000Z</time>
      </trkpt>
      <trkpt lat="42.668529" lon="-1.8577">
        <ele>477.043393</ele>
        <time>2022-05-14T14:33:20.000Z</time>
      </trkpt>
      <trkpt lat="42.668539" lon="-1.857369">
        <ele>477.950512</ele>
        <time>2022-05-14T14:33:23.000Z</time>
      </trkpt>
      <trkpt lat="42.668587" lon="-1.856962">
        <ele>479.13476</ele>
        <time>2022-05-14T14:33:26.000Z</time>
      </trkpt>
      <trkpt lat="42.668602" lon="-1.856735">
        <ele>479.612192</ele>
        <time>2022-05-14T14:33:28.000Z</time>
      </trkpt>
      <trkpt lat="42.668707" lon="-1.85589">
        <ele>480.610044</ele>
        <time>2022-05-14T14:33:35.000Z</time>
      </trkpt>
      <trkpt lat="42.668733" lon="-1.855653">
        <ele>480.889232</ele>
        <time>2022-05-14T14:33:37.000Z</time>
      </trkpt>
      <trkpt lat="42.668716" lon="-1.855515">
        <ele>481.064182</ele>
        <time>2022-05-14T14:33:38.000Z</time>
      </trkpt>
      <trkpt lat="42.668669" lon="-1.85534">
        <ele>481.277414</ele>
        <time>2022-05-14T14:33:40.000Z</time>
      </trkpt>
      <trkpt lat="42.668471" lon="-1.85494">
        <ele>481.837482</ele>
        <time>2022-05-14T14:33:44.000Z</time>
      </trkpt>
      <trkpt lat="42.668108" lon="-1.854253">
        <ele>481.384477</ele>
        <time>2022-05-14T14:33:51.000Z</time>
      </trkpt>
      <trkpt lat="42.668001" lon="-1.853637">
        <ele>479.764738</ele>
        <time>2022-05-14T14:33:56.000Z</time>
      </trkpt>
      <trkpt lat="42.667991" lon="-1.852893">
        <ele>477.856159</ele>
        <time>2022-05-14T14:34:02.000Z</time>
      </trkpt>
      <trkpt lat="42.668078" lon="-1.852257">
        <ele>476.206851</ele>
        <time>2022-05-14T14:34:07.000Z</time>
      </trkpt>
      <trkpt lat="42.668251" lon="-1.851467">
        <ele>472.864942</ele>
        <time>2022-05-14T14:34:14.000Z</time>
      </trkpt>
      <trkpt lat="42.668272" lon="-1.851326">
        <ele>472.186668</ele>
        <time>2022-05-14T14:34:15.000Z</time>
      </trkpt>
      <trkpt lat="42.66829" lon="-1.850718">
        <ele>469.72769</ele>
        <time>2022-05-14T14:34:20.000Z</time>
      </trkpt>
      <trkpt lat="42.668261" lon="-1.850502">
        <ele>468.779109</ele>
        <time>2022-05-14T14:34:22.000Z</time>
      </trkpt>
      <trkpt lat="42.667996" lon="-1.849487">
        <ele>464.18932</ele>
        <time>2022-05-14T14:34:31.000Z</time>
      </trkpt>
      <trkpt lat="42.66769" lon="-1.84855">
        <ele>459.619654</ele>
        <time>2022-05-14T14:34:39.000Z</time>
      </trkpt>
      <trkpt lat="42.66765" lon="-1.848093">
        <ele>457.544495</ele>
        <time>2022-05-14T14:34:43.000Z</time>
      </trkpt>
      <trkpt lat="42.667876" lon="-1.847504">
        <ele>454.730392</ele>
        <time>2022-05-14T14:34:48.000Z</time>
      </trkpt>
      <trkpt lat="42.668819" lon="-1.846716">
        <ele>449.668346</ele>
        <time>2022-05-14T14:35:00.000Z</time>
      </trkpt>
      <trkpt lat="42.669043" lon="-1.846325">
        <ele>447.982891</ele>
        <time>2022-05-14T14:35:04.000Z</time>
      </trkpt>
      <trkpt lat="42.669065" lon="-1.846111">
        <ele>447.253483</ele>
        <time>2022-05-14T14:35:06.000Z</time>
      </trkpt>
      <trkpt lat="42.669033" lon="-1.845895">
        <ele>446.388186</ele>
        <time>2022-05-14T14:35:08.000Z</time>
      </trkpt>
      <trkpt lat="42.668932" lon="-1.845702">
        <ele>445.323319</ele>
        <time>2022-05-14T14:35:10.000Z</time>
      </trkpt>
      <trkpt lat="42.668155" lon="-1.844857">
        <ele>439.333732</ele>
        <time>2022-05-14T14:35:21.000Z</time>
      </trkpt>
      <trkpt lat="42.667958" lon="-1.844529">
        <ele>437.459281</ele>
        <time>2022-05-14T14:35:24.000Z</time>
      </trkpt>
      <trkpt lat="42.667619" lon="-1.843447">
        <ele>432.284445</ele>
        <time>2022-05-14T14:35:34.000Z</time>
      </trkpt>
      <trkpt lat="42.667536" lon="-1.842956">
        <ele>430.062411</ele>
        <time>2022-05-14T14:35:38.000Z</time>
      </trkpt>
      <trkpt lat="42.667554" lon="-1.842264">
        <ele>427.072698</ele>
        <time>2022-05-14T14:35:44.000Z</time>
      </trkpt>
      <trkpt lat="42.6676" lon="-1.841546">
        <ele>424.142558</ele>
        <time>2022-05-14T14:35:50.000Z</time>
      </trkpt>
      <trkpt lat="42.667665" lon="-1.841296">
        <ele>423.229317</ele>
        <time>2022-05-14T14:35:52.000Z</time>
      </trkpt>
      <trkpt lat="42.668418" lon="-1.840683">
        <ele>418.971502</ele>
        <time>2022-05-14T14:36:02.000Z</time>
      </trkpt>
      <trkpt lat="42.668549" lon="-1.840514">
        <ele>418.156035</ele>
        <time>2022-05-14T14:36:04.000Z</time>
      </trkpt>
      <trkpt lat="42.668706" lon="-1.840133">
        <ele>416.638156</ele>
        <time>2022-05-14T14:36:08.000Z</time>
      </trkpt>
      <trkpt lat="42.668712" lon="-1.839985">
        <ele>415.879201</ele>
        <time>2022-05-14T14:36:09.000Z</time>
      </trkpt>
      <trkpt lat="42.668663" lon="-1.839826">
        <ele>415.136925</ele>
        <time>2022-05-14T14:36:10.000Z</time>
      </trkpt>
      <trkpt lat="42.668303" lon="-1.83915">
        <ele>411.030254</ele>
        <time>2022-05-14T14:36:17.000Z</time>
      </trkpt>
      <trkpt lat="42.666931" lon="-1.837031">
        <ele>396.810559</ele>
        <time>2022-05-14T14:36:40.000Z</time>
      </trkpt>
      <trkpt lat="42.66681" lon="-1.836585">
        <ele>394.294284</ele>
        <time>2022-05-14T14:36:44.000Z</time>
      </trkpt>
      <trkpt lat="42.666794" lon="-1.836159">
        <ele>392.051709</ele>
        <time>2022-05-14T14:36:47.000Z</time>
      </trkpt>
      <trkpt lat="42.667028" lon="-1.834688">
        <ele>386.405688</ele>
        <time>2022-05-14T14:36:59.000Z</time>
      </trkpt>
      <trkpt lat="42.66726" lon="-1.833957">
        <ele>383.380466</ele>
        <time>2022-05-14T14:37:06.000Z</time>
      </trkpt>
      <trkpt lat="42.667687" lon="-1.832894">
        <ele>380.299335</ele>
        <time>2022-05-14T14:37:16.000Z</time>
      </trkpt>
      <trkpt lat="42.667853" lon="-1.832553">
        <ele>379.30833</ele>
        <time>2022-05-14T14:37:19.000Z</time>
      </trkpt>
      <trkpt lat="42.668068" lon="-1.832122">
        <ele>378.064684</ele>
        <time>2022-05-14T14:37:23.000Z</time>
      </trkpt>
      <trkpt lat="42.668731" lon="-1.831062">
        <ele>374.179896</ele>
        <time>2022-05-14T14:37:34.000Z</time>
      </trkpt>
      <trkpt lat="42.6692" lon="-1.830564">
        <ele>371.703865</ele>
        <time>2022-05-14T14:37:41.000Z</time>
      </trkpt>
      <trkpt lat="42.669569" lon="-1.830318">
        <ele>370.058467</ele>
        <time>2022-05-14T14:37:46.000Z</time>
      </trkpt>
      <trkpt lat="42.670322" lon="-1.830014">
        <ele>365.682518</ele>
        <time>2022-05-14T14:37:55.000Z</time>
      </trkpt>
      <trkpt lat="42.670435" lon="-1.829819">
        <ele>364.653036</ele>
        <time>2022-05-14T14:37:57.000Z</time>
      </trkpt>
      <trkpt lat="42.670406" lon="-1.829532">
        <ele>363.414356</ele>
        <time>2022-05-14T14:37:59.000Z</time>
      </trkpt>
      <trkpt lat="42.670372" lon="-1.829349">
        <ele>362.656741</ele>
        <time>2022-05-14T14:38:01.000Z</time>
      </trkpt>
      <trkpt lat="42.670294" lon="-1.829189">
        <ele>361.853213</ele>
        <time>2022-05-14T14:38:03.000Z</time>
      </trkpt>
      <trkpt lat="42.670034" lon="-1.828781">
        <ele>359.479191</ele>
        <time>2022-05-14T14:38:07.000Z</time>
      </trkpt>
      <trkpt lat="42.669724" lon="-1.828485">
        <ele>357.238936</ele>
        <time>2022-05-14T14:38:11.000Z</time>
      </trkpt>
      <trkpt lat="42.669364" lon="-1.828252">
        <ele>354.802286</ele>
        <time>2022-05-14T14:38:15.000Z</time>
      </trkpt>
      <trkpt lat="42.668635" lon="-1.828038">
        <ele>350.311356</ele>
        <time>2022-05-14T14:38:23.000Z</time>
      </trkpt>
      <trkpt lat="42.668434" lon="-1.827703">
        <ele>348.391936</ele>
        <time>2022-05-14T14:38:27.000Z</time>
      </trkpt>
      <trkpt lat="42.668167" lon="-1.827536">
        <ele>347.160058</ele>
        <time>2022-05-14T14:38:30.000Z</time>
      </trkpt>
      <trkpt lat="42.66801" lon="-1.827465">
        <ele>346.543906</ele>
        <time>2022-05-14T14:38:32.000Z</time>
      </trkpt>
      <trkpt lat="42.667963" lon="-1.827439">
        <ele>346.370402</ele>
        <time>2022-05-14T14:38:33.000Z</time>
      </trkpt>
      <trkpt lat="42.667907" lon="-1.82732">
        <ele>345.902048</ele>
        <time>2022-05-14T14:38:34.000Z</time>
      </trkpt>
      <trkpt lat="42.667869" lon="-1.827217">
        <ele>345.61967</ele>
        <time>2022-05-14T14:38:35.000Z</time>
      </trkpt>
      <trkpt lat="42.667844" lon="-1.827236">
        <ele>345.485094</ele>
        <time>2022-05-14T14:38:35.000Z</time>
      </trkpt>
      <trkpt lat="42.667817" lon="-1.82723">
        <ele>345.351996</ele>
        <time>2022-05-14T14:38:35.000Z</time>
      </trkpt>
      <trkpt lat="42.667757" lon="-1.827211">
        <ele>345.125794</ele>
        <time>2022-05-14T14:38:36.000Z</time>
      </trkpt>
      <trkpt lat="42.667701" lon="-1.827194">
        <ele>344.897487</ele>
        <time>2022-05-14T14:38:37.000Z</time>
      </trkpt>
      <trkpt lat="42.66766" lon="-1.827142">
        <ele>344.670869</ele>
        <time>2022-05-14T14:38:38.000Z</time>
      </trkpt>
      <trkpt lat="42.66761" lon="-1.827069">
        <ele>344.438237</ele>
        <time>2022-05-14T14:38:39.000Z</time>
      </trkpt>
      <trkpt lat="42.667587" lon="-1.826998">
        <ele>344.208213</ele>
        <time>2022-05-14T14:38:40.000Z</time>
      </trkpt>
      <trkpt lat="42.667575" lon="-1.826923">
        <ele>343.985518</ele>
        <time>2022-05-14T14:38:41.000Z</time>
      </trkpt>
      <trkpt lat="42.66756" lon="-1.826847">
        <ele>343.763804</ele>
        <time>2022-05-14T14:38:42.000Z</time>
      </trkpt>
      <trkpt lat="42.667587" lon="-1.826775">
        <ele>343.543717</ele>
        <time>2022-05-14T14:38:43.000Z</time>
      </trkpt>
      <trkpt lat="42.667613" lon="-1.826689">
        <ele>343.280904</ele>
        <time>2022-05-14T14:38:44.000Z</time>
      </trkpt>
      <trkpt lat="42.667698" lon="-1.826577">
        <ele>342.76287</ele>
        <time>2022-05-14T14:38:45.000Z</time>
      </trkpt>
      <trkpt lat="42.667768" lon="-1.826545">
        <ele>342.501631</ele>
        <time>2022-05-14T14:38:46.000Z</time>
      </trkpt>
      <trkpt lat="42.667822" lon="-1.826502">
        <ele>342.270518</ele>
        <time>2022-05-14T14:38:47.000Z</time>
      </trkpt>
      <trkpt lat="42.667879" lon="-1.826365">
        <ele>341.802168</ele>
        <time>2022-05-14T14:38:48.000Z</time>
      </trkpt>
      <trkpt lat="42.667914" lon="-1.826259">
        <ele>341.46691</ele>
        <time>2022-05-14T14:38:49.000Z</time>
      </trkpt>
      <trkpt lat="42.667995" lon="-1.825582">
        <ele>341.047236</ele>
        <time>2022-05-14T14:38:55.000Z</time>
      </trkpt>
      <trkpt lat="42.667987" lon="-1.82556">
        <ele>341.040744</ele>
        <time>2022-05-14T14:38:55.000Z</time>
      </trkpt>
      <trkpt lat="42.668072" lon="-1.824791">
        <ele>340.85662</ele>
        <time>2022-05-14T14:39:01.000Z</time>
      </trkpt>
      <trkpt lat="42.668095" lon="-1.824487">
        <ele>340.782059</ele>
        <time>2022-05-14T14:39:03.000Z</time>
      </trkpt>
      <trkpt lat="42.668126" lon="-1.824302">
        <ele>340.739712</ele>
        <time>2022-05-14T14:39:05.000Z</time>
      </trkpt>
      <trkpt lat="42.668194" lon="-1.823894">
        <ele>340.639877</ele>
        <time>2022-05-14T14:39:08.000Z</time>
      </trkpt>
      <trkpt lat="42.668219" lon="-1.823743">
        <ele>340.602502</ele>
        <time>2022-05-14T14:39:09.000Z</time>
      </trkpt>
      <trkpt lat="42.668296" lon="-1.823426">
        <ele>340.676302</ele>
        <time>2022-05-14T14:39:12.000Z</time>
      </trkpt>
      <trkpt lat="42.668379" lon="-1.823095">
        <ele>340.760889</ele>
        <time>2022-05-14T14:39:15.000Z</time>
      </trkpt>
      <trkpt lat="42.668482" lon="-1.822765">
        <ele>340.838972</ele>
        <time>2022-05-14T14:39:18.000Z</time>
      </trkpt>
      <trkpt lat="42.668584" lon="-1.822505">
        <ele>340.910305</ele>
        <time>2022-05-14T14:39:20.000Z</time>
      </trkpt>
      <trkpt lat="42.668788" lon="-1.821857">
        <ele>341.072241</ele>
        <time>2022-05-14T14:39:26.000Z</time>
      </trkpt>
      <trkpt lat="42.66958" lon="-1.819572">
        <ele>341.460359</ele>
        <time>2022-05-14T14:39:47.000Z</time>
      </trkpt>
      <trkpt lat="42.669747" lon="-1.819112">
        <ele>341.542503</ele>
        <time>2022-05-14T14:39:51.000Z</time>
      </trkpt>
      <trkpt lat="42.669824" lon="-1.819135">
        <ele>341.565942</ele>
        <time>2022-05-14T14:39:52.000Z</time>
      </trkpt>
      <trkpt lat="42.669937" lon="-1.81917">
        <ele>341.596252</ele>
        <time>2022-05-14T14:39:53.000Z</time>
      </trkpt>
      <trkpt lat="42.670083" lon="-1.819215">
        <ele>341.634457</ele>
        <time>2022-05-14T14:39:55.000Z</time>
      </trkpt>
      <trkpt lat="42.670269" lon="-1.819256">
        <ele>341.685632</ele>
        <time>2022-05-14T14:39:57.000Z</time>
      </trkpt>
      <trkpt lat="42.670402" lon="-1.819277">
        <ele>341.723088</ele>
        <time>2022-05-14T14:39:58.000Z</time>
      </trkpt>
      <trkpt lat="42.67069" lon="-1.81938">
        <ele>341.804799</ele>
        <time>2022-05-14T14:40:01.000Z</time>
      </trkpt>
      <trkpt lat="42.67081" lon="-1.81947">
        <ele>341.841207</ele>
        <time>2022-05-14T14:40:03.000Z</time>
      </trkpt>
      <trkpt lat="42.671584" lon="-1.8199">
        <ele>341.966865</ele>
        <time>2022-05-14T14:40:12.000Z</time>
      </trkpt>
      <trkpt lat="42.673326" lon="-1.820954">
        <ele>341.664361</ele>
        <time>2022-05-14T14:40:33.000Z</time>
      </trkpt>
      <trkpt lat="42.673328" lon="-1.820969">
        <ele>341.65942</ele>
        <time>2022-05-14T14:40:33.000Z</time>
      </trkpt>
      <trkpt lat="42.673905" lon="-1.821412">
        <ele>341.405507</ele>
        <time>2022-05-14T14:40:40.000Z</time>
      </trkpt>
      <trkpt lat="42.675146" lon="-1.822763">
        <ele>340.889392</ele>
        <time>2022-05-14T14:40:58.000Z</time>
      </trkpt>
      <trkpt lat="42.676501" lon="-1.823869">
        <ele>340.725996</ele>
        <time>2022-05-14T14:41:16.000Z</time>
      </trkpt>
      <trkpt lat="42.680514" lon="-1.8291">
        <ele>343.247215</ele>
        <time>2022-05-14T14:42:18.000Z</time>
      </trkpt>
      <trkpt lat="42.680752" lon="-1.829479">
        <ele>344.002215</ele>
        <time>2022-05-14T14:42:22.000Z</time>
      </trkpt>
      <trkpt lat="42.680972" lon="-1.83">
        <ele>344.936344</ele>
        <time>2022-05-14T14:42:27.000Z</time>
      </trkpt>
      <trkpt lat="42.682092" lon="-1.833392">
        <ele>357.815141</ele>
        <time>2022-05-14T14:42:57.000Z</time>
      </trkpt>
      <trkpt lat="42.682141" lon="-1.833987">
        <ele>359.97916</ele>
        <time>2022-05-14T14:43:02.000Z</time>
      </trkpt>
      <trkpt lat="42.681996" lon="-1.835153">
        <ele>363.523357</ele>
        <time>2022-05-14T14:43:12.000Z</time>
      </trkpt>
      <trkpt lat="42.681896" lon="-1.835533">
        <ele>364.15266</ele>
        <time>2022-05-14T14:43:15.000Z</time>
      </trkpt>
      <trkpt lat="42.681711" lon="-1.835847">
        <ele>364.75206</ele>
        <time>2022-05-14T14:43:18.000Z</time>
      </trkpt>
      <trkpt lat="42.681677" lon="-1.835879">
        <ele>364.835849</ele>
        <time>2022-05-14T14:43:18.000Z</time>
      </trkpt>
      <trkpt lat="42.681587" lon="-1.836181">
        <ele>365.34723</ele>
        <time>2022-05-14T14:43:21.000Z</time>
      </trkpt>
      <trkpt lat="42.681593" lon="-1.836382">
        <ele>365.665087</ele>
        <time>2022-05-14T14:43:23.000Z</time>
      </trkpt>
      <trkpt lat="42.681744" lon="-1.836702">
        <ele>366.23235</ele>
        <time>2022-05-14T14:43:26.000Z</time>
      </trkpt>
      <trkpt lat="42.681996" lon="-1.836857">
        <ele>366.812427</ele>
        <time>2022-05-14T14:43:29.000Z</time>
      </trkpt>
      <trkpt lat="42.682442" lon="-1.836884">
        <ele>367.628699</ele>
        <time>2022-05-14T14:43:34.000Z</time>
      </trkpt>
      <trkpt lat="42.68257" lon="-1.836803">
        <ele>367.880272</ele>
        <time>2022-05-14T14:43:36.000Z</time>
      </trkpt>
      <trkpt lat="42.682834" lon="-1.836413">
        <ele>368.557856</ele>
        <time>2022-05-14T14:43:40.000Z</time>
      </trkpt>
      <trkpt lat="42.68301" lon="-1.835873">
        <ele>369.339383</ele>
        <time>2022-05-14T14:43:45.000Z</time>
      </trkpt>
      <trkpt lat="42.683206" lon="-1.834862">
        <ele>372.699345</ele>
        <time>2022-05-14T14:43:54.000Z</time>
      </trkpt>
      <trkpt lat="42.683426" lon="-1.834527">
        <ele>374.920534</ele>
        <time>2022-05-14T14:43:58.000Z</time>
      </trkpt>
      <trkpt lat="42.683625" lon="-1.834527">
        <ele>376.268679</ele>
        <time>2022-05-14T14:44:00.000Z</time>
      </trkpt>
      <trkpt lat="42.684346" lon="-1.835275">
        <ele>382.475258</ele>
        <time>2022-05-14T14:44:10.000Z</time>
      </trkpt>
      <trkpt lat="42.684755" lon="-1.835623">
        <ele>386.224565</ele>
        <time>2022-05-14T14:44:15.000Z</time>
      </trkpt>
      <trkpt lat="42.684952" lon="-1.835778">
        <ele>387.959089</ele>
        <time>2022-05-14T14:44:18.000Z</time>
      </trkpt>
      <trkpt lat="42.68595" lon="-1.836522">
        <ele>396.7719</ele>
        <time>2022-05-14T14:44:31.000Z</time>
      </trkpt>
      <trkpt lat="42.686599" lon="-1.837142">
        <ele>401.677147</ele>
        <time>2022-05-14T14:44:40.000Z</time>
      </trkpt>
      <trkpt lat="42.686834" lon="-1.83733">
        <ele>403.330861</ele>
        <time>2022-05-14T14:44:43.000Z</time>
      </trkpt>
      <trkpt lat="42.687227" lon="-1.837612">
        <ele>406.077121</ele>
        <time>2022-05-14T14:44:48.000Z</time>
      </trkpt>
      <trkpt lat="42.688284" lon="-1.838265">
        <ele>412.440053</ele>
        <time>2022-05-14T14:45:01.000Z</time>
      </trkpt>
      <trkpt lat="42.688579" lon="-1.838493">
        <ele>414.271094</ele>
        <time>2022-05-14T14:45:05.000Z</time>
      </trkpt>
      <trkpt lat="42.689452" lon="-1.839876">
        <ele>420.237222</ele>
        <time>2022-05-14T14:45:20.000Z</time>
      </trkpt>
      <trkpt lat="42.689653" lon="-1.840092">
        <ele>421.236958</ele>
        <time>2022-05-14T14:45:23.000Z</time>
      </trkpt>
      <trkpt lat="42.689817" lon="-1.84013">
        <ele>421.940836</ele>
        <time>2022-05-14T14:45:25.000Z</time>
      </trkpt>
      <trkpt lat="42.68991" lon="-1.84007">
        <ele>422.326731</ele>
        <time>2022-05-14T14:45:26.000Z</time>
      </trkpt>
      <trkpt lat="42.690353" lon="-1.839675">
        <ele>424.594596</ele>
        <time>2022-05-14T14:45:32.000Z</time>
      </trkpt>
      <trkpt lat="42.690386" lon="-1.839627">
        <ele>424.837757</ele>
        <time>2022-05-14T14:45:33.000Z</time>
      </trkpt>
      <trkpt lat="42.690575" lon="-1.83946">
        <ele>426.124484</ele>
        <time>2022-05-14T14:45:36.000Z</time>
      </trkpt>
      <trkpt lat="42.691204" lon="-1.838878">
        <ele>430.345719</ele>
        <time>2022-05-14T14:45:44.000Z</time>
      </trkpt>
      <trkpt lat="42.691766" lon="-1.838368">
        <ele>434.113323</ele>
        <time>2022-05-14T14:45:52.000Z</time>
      </trkpt>
      <trkpt lat="42.691811" lon="-1.838314">
        <ele>434.491413</ele>
        <time>2022-05-14T14:45:53.000Z</time>
      </trkpt>
      <trkpt lat="42.691885" lon="-1.838251">
        <ele>435.075309</ele>
        <time>2022-05-14T14:45:54.000Z</time>
      </trkpt>
      <trkpt lat="42.692079" lon="-1.838232">
        <ele>436.358713</ele>
        <time>2022-05-14T14:45:56.000Z</time>
      </trkpt>
      <trkpt lat="42.692093" lon="-1.838242">
        <ele>436.410289</ele>
        <time>2022-05-14T14:45:56.000Z</time>
      </trkpt>
      <trkpt lat="42.692122" lon="-1.838278">
        <ele>436.716502</ele>
        <time>2022-05-14T14:45:56.000Z</time>
      </trkpt>
      <trkpt lat="42.692203" lon="-1.838479">
        <ele>437.784908</ele>
        <time>2022-05-14T14:45:58.000Z</time>
      </trkpt>
      <trkpt lat="42.692265" lon="-1.838638">
        <ele>438.614788</ele>
        <time>2022-05-14T14:45:59.000Z</time>
      </trkpt>
      <trkpt lat="42.692302" lon="-1.838787">
        <ele>439.396925</ele>
        <time>2022-05-14T14:46:00.000Z</time>
      </trkpt>
      <trkpt lat="42.692347" lon="-1.838977">
        <ele>440.412659</ele>
        <time>2022-05-14T14:46:02.000Z</time>
      </trkpt>
      <trkpt lat="42.692534" lon="-1.840052">
        <ele>445.668014</ele>
        <time>2022-05-14T14:46:11.000Z</time>
      </trkpt>
      <trkpt lat="42.692601" lon="-1.84079">
        <ele>447.76084</ele>
        <time>2022-05-14T14:46:17.000Z</time>
      </trkpt>
      <trkpt lat="42.692747" lon="-1.841195">
        <ele>448.990564</ele>
        <time>2022-05-14T14:46:21.000Z</time>
      </trkpt>
      <trkpt lat="42.69295" lon="-1.841565">
        <ele>450.237955</ele>
        <time>2022-05-14T14:46:25.000Z</time>
      </trkpt>
      <trkpt lat="42.693031" lon="-1.841816">
        <ele>450.971169</ele>
        <time>2022-05-14T14:46:27.000Z</time>
      </trkpt>
      <trkpt lat="42.693097" lon="-1.842265">
        <ele>452.238434</ele>
        <time>2022-05-14T14:46:31.000Z</time>
      </trkpt>
      <trkpt lat="42.693413" lon="-1.842995">
        <ele>453.128092</ele>
        <time>2022-05-14T14:46:38.000Z</time>
      </trkpt>
      <trkpt lat="42.693438" lon="-1.84319">
        <ele>453.303637</ele>
        <time>2022-05-14T14:46:40.000Z</time>
      </trkpt>
      <trkpt lat="42.693242" lon="-1.844051">
        <ele>454.062467</ele>
        <time>2022-05-14T14:46:47.000Z</time>
      </trkpt>
      <trkpt lat="42.69326" lon="-1.844284">
        <ele>454.269111</ele>
        <time>2022-05-14T14:46:49.000Z</time>
      </trkpt>
      <trkpt lat="42.69342" lon="-1.844473">
        <ele>454.513122</ele>
        <time>2022-05-14T14:46:51.000Z</time>
      </trkpt>
      <trkpt lat="42.693907" lon="-1.844645">
        <ele>454.622566</ele>
        <time>2022-05-14T14:46:57.000Z</time>
      </trkpt>
      <trkpt lat="42.694155" lon="-1.844829">
        <ele>454.658123</ele>
        <time>2022-05-14T14:47:00.000Z</time>
      </trkpt>
      <trkpt lat="42.694321" lon="-1.84508">
        <ele>454.689801</ele>
        <time>2022-05-14T14:47:03.000Z</time>
      </trkpt>
      <trkpt lat="42.694368" lon="-1.84531">
        <ele>454.712322</ele>
        <time>2022-05-14T14:47:05.000Z</time>
      </trkpt>
      <trkpt lat="42.694346" lon="-1.845468">
        <ele>454.727667</ele>
        <time>2022-05-14T14:47:06.000Z</time>
      </trkpt>
      <trkpt lat="42.693806" lon="-1.846946">
        <ele>453.265261</ele>
        <time>2022-05-14T14:47:19.000Z</time>
      </trkpt>
      <trkpt lat="42.693773" lon="-1.847243">
        <ele>452.761708</ele>
        <time>2022-05-14T14:47:21.000Z</time>
      </trkpt>
      <trkpt lat="42.693811" lon="-1.847458">
        <ele>452.404928</ele>
        <time>2022-05-14T14:47:23.000Z</time>
      </trkpt>
      <trkpt lat="42.693995" lon="-1.84773">
        <ele>451.801944</ele>
        <time>2022-05-14T14:47:26.000Z</time>
      </trkpt>
      <trkpt lat="42.694249" lon="-1.847863">
        <ele>451.215431</ele>
        <time>2022-05-14T14:47:29.000Z</time>
      </trkpt>
      <trkpt lat="42.694374" lon="-1.847823">
        <ele>450.936012</ele>
        <time>2022-05-14T14:47:30.000Z</time>
      </trkpt>
      <trkpt lat="42.69499" lon="-1.847381">
        <ele>450.18444</ele>
        <time>2022-05-14T14:47:38.000Z</time>
      </trkpt>
      <trkpt lat="42.695326" lon="-1.847246">
        <ele>449.831794</ele>
        <time>2022-05-14T14:47:42.000Z</time>
      </trkpt>
      <trkpt lat="42.695603" lon="-1.847275">
        <ele>449.561806</ele>
        <time>2022-05-14T14:47:45.000Z</time>
      </trkpt>
      <trkpt lat="42.69575" lon="-1.847542">
        <ele>449.308841</ele>
        <time>2022-05-14T14:47:48.000Z</time>
      </trkpt>
      <trkpt lat="42.695819" lon="-1.847819">
        <ele>449.101298</ele>
        <time>2022-05-14T14:47:50.000Z</time>
      </trkpt>
      <trkpt lat="42.695943" lon="-1.848037">
        <ele>449.506499</ele>
        <time>2022-05-14T14:47:52.000Z</time>
      </trkpt>
      <trkpt lat="42.696469" lon="-1.848598">
        <ele>451.521564</ele>
        <time>2022-05-14T14:47:59.000Z</time>
      </trkpt>
      <trkpt lat="42.696704" lon="-1.849101">
        <ele>452.850673</ele>
        <time>2022-05-14T14:48:04.000Z</time>
      </trkpt>
      <trkpt lat="42.69717" lon="-1.849799">
        <ele>454.582775</ele>
        <time>2022-05-14T14:48:12.000Z</time>
      </trkpt>
      <trkpt lat="42.697349" lon="-1.850355">
        <ele>455.034374</ele>
        <time>2022-05-14T14:48:17.000Z</time>
      </trkpt>
      <trkpt lat="42.69742" lon="-1.8513">
        <ele>455.741237</ele>
        <time>2022-05-14T14:48:25.000Z</time>
      </trkpt>
      <trkpt lat="42.697669" lon="-1.851819">
        <ele>456.19563</ele>
        <time>2022-05-14T14:48:30.000Z</time>
      </trkpt>
      <trkpt lat="42.697911" lon="-1.851975">
        <ele>456.241508</ele>
        <time>2022-05-14T14:48:33.000Z</time>
      </trkpt>
      <trkpt lat="42.698493" lon="-1.851947">
        <ele>456.240477</ele>
        <time>2022-05-14T14:48:39.000Z</time>
      </trkpt>
      <trkpt lat="42.698835" lon="-1.852006">
        <ele>456.239871</ele>
        <time>2022-05-14T14:48:43.000Z</time>
      </trkpt>
      <trkpt lat="42.699856" lon="-1.852857">
        <ele>456.729951</ele>
        <time>2022-05-14T14:48:56.000Z</time>
      </trkpt>
      <trkpt lat="42.700124" lon="-1.853215">
        <ele>457.066242</ele>
        <time>2022-05-14T14:49:00.000Z</time>
      </trkpt>
      <trkpt lat="42.700653" lon="-1.854448">
        <ele>457.947587</ele>
        <time>2022-05-14T14:49:12.000Z</time>
      </trkpt>
      <trkpt lat="42.700858" lon="-1.854654">
        <ele>458.096589</ele>
        <time>2022-05-14T14:49:15.000Z</time>
      </trkpt>
      <trkpt lat="42.700936" lon="-1.854647">
        <ele>458.1424</ele>
        <time>2022-05-14T14:49:16.000Z</time>
      </trkpt>
      <trkpt lat="42.701047" lon="-1.854612">
        <ele>458.203483</ele>
        <time>2022-05-14T14:49:17.000Z</time>
      </trkpt>
      <trkpt lat="42.701225" lon="-1.854475">
        <ele>458.32753</ele>
        <time>2022-05-14T14:49:19.000Z</time>
      </trkpt>
      <trkpt lat="42.701304" lon="-1.854292">
        <ele>458.420331</ele>
        <time>2022-05-14T14:49:21.000Z</time>
      </trkpt>
      <trkpt lat="42.701334" lon="-1.854192">
        <ele>458.46671</ele>
        <time>2022-05-14T14:49:22.000Z</time>
      </trkpt>
      <trkpt lat="42.701328" lon="-1.854031">
        <ele>458.537467</ele>
        <time>2022-05-14T14:49:23.000Z</time>
      </trkpt>
      <trkpt lat="42.701233" lon="-1.852704">
        <ele>459.802315</ele>
        <time>2022-05-14T14:49:34.000Z</time>
      </trkpt>
      <trkpt lat="42.700966" lon="-1.851322">
        <ele>462.467059</ele>
        <time>2022-05-14T14:49:46.000Z</time>
      </trkpt>
      <trkpt lat="42.700796" lon="-1.850801">
        <ele>463.514585</ele>
        <time>2022-05-14T14:49:51.000Z</time>
      </trkpt>
      <trkpt lat="42.700438" lon="-1.850066">
        <ele>464.863688</ele>
        <time>2022-05-14T14:49:58.000Z</time>
      </trkpt>
      <trkpt lat="42.699759" lon="-1.847828">
        <ele>466.87558</ele>
        <time>2022-05-14T14:50:18.000Z</time>
      </trkpt>
      <trkpt lat="42.699771" lon="-1.847773">
        <ele>466.852836</ele>
        <time>2022-05-14T14:50:18.000Z</time>
      </trkpt>
      <trkpt lat="42.699641" lon="-1.847362">
        <ele>466.707332</ele>
        <time>2022-05-14T14:50:22.000Z</time>
      </trkpt>
      <trkpt lat="42.699548" lon="-1.846825">
        <ele>466.524782</ele>
        <time>2022-05-14T14:50:27.000Z</time>
      </trkpt>
      <trkpt lat="42.699548" lon="-1.846465">
        <ele>466.40864</ele>
        <time>2022-05-14T14:50:30.000Z</time>
      </trkpt>
      <trkpt lat="42.699601" lon="-1.846377">
        <ele>466.372954</ele>
        <time>2022-05-14T14:50:31.000Z</time>
      </trkpt>
      <trkpt lat="42.699629" lon="-1.846344">
        <ele>466.307353</ele>
        <time>2022-05-14T14:50:31.000Z</time>
      </trkpt>
      <trkpt lat="42.699661" lon="-1.846318">
        <ele>466.223357</ele>
        <time>2022-05-14T14:50:31.000Z</time>
      </trkpt>
      <trkpt lat="42.699821" lon="-1.846383">
        <ele>465.898091</ele>
        <time>2022-05-14T14:50:33.000Z</time>
      </trkpt>
      <trkpt lat="42.700131" lon="-1.846646">
        <ele>465.110634</ele>
        <time>2022-05-14T14:50:37.000Z</time>
      </trkpt>
      <trkpt lat="42.70058" lon="-1.846769">
        <ele>464.114383</ele>
        <time>2022-05-14T14:50:42.000Z</time>
      </trkpt>
      <trkpt lat="42.701072" lon="-1.846955">
        <ele>463.059246</ele>
        <time>2022-05-14T14:50:48.000Z</time>
      </trkpt>
      <trkpt lat="42.70143" lon="-1.84702">
        <ele>462.052965</ele>
        <time>2022-05-14T14:50:52.000Z</time>
      </trkpt>
      <trkpt lat="42.701962" lon="-1.847277">
        <ele>459.689853</ele>
        <time>2022-05-14T14:50:58.000Z</time>
      </trkpt>
      <trkpt lat="42.702458" lon="-1.847652">
        <ele>457.324754</ele>
        <time>2022-05-14T14:51:04.000Z</time>
      </trkpt>
      <trkpt lat="42.703176" lon="-1.847837">
        <ele>453.206371</ele>
        <time>2022-05-14T14:51:12.000Z</time>
      </trkpt>
      <trkpt lat="42.703366" lon="-1.847847">
        <ele>451.297913</ele>
        <time>2022-05-14T14:51:14.000Z</time>
      </trkpt>
      <trkpt lat="42.703672" lon="-1.847762">
        <ele>448.071032</ele>
        <time>2022-05-14T14:51:17.000Z</time>
      </trkpt>
      <trkpt lat="42.703791" lon="-1.847407">
        <ele>445.230479</ele>
        <time>2022-05-14T14:51:20.000Z</time>
      </trkpt>
      <trkpt lat="42.703763" lon="-1.846796">
        <ele>440.73341</ele>
        <time>2022-05-14T14:51:25.000Z</time>
      </trkpt>
      <trkpt lat="42.703425" lon="-1.845802">
        <ele>433.464588</ele>
        <time>2022-05-14T14:51:34.000Z</time>
      </trkpt>
      <trkpt lat="42.703383" lon="-1.845685">
        <ele>432.669282</ele>
        <time>2022-05-14T14:51:35.000Z</time>
      </trkpt>
      <trkpt lat="42.703281" lon="-1.845497">
        <ele>431.202414</ele>
        <time>2022-05-14T14:51:37.000Z</time>
      </trkpt>
      <trkpt lat="42.703252" lon="-1.84527">
        <ele>429.698589</ele>
        <time>2022-05-14T14:51:39.000Z</time>
      </trkpt>
      <trkpt lat="42.703365" lon="-1.845121">
        <ele>428.398909</ele>
        <time>2022-05-14T14:51:41.000Z</time>
      </trkpt>
      <trkpt lat="42.704488" lon="-1.844664">
        <ele>421.377609</ele>
        <time>2022-05-14T14:51:54.000Z</time>
      </trkpt>
      <trkpt lat="42.704649" lon="-1.84464">
        <ele>421.167618</ele>
        <time>2022-05-14T14:51:56.000Z</time>
      </trkpt>
      <trkpt lat="42.70609" lon="-1.844864">
        <ele>418.873534</ele>
        <time>2022-05-14T14:52:12.000Z</time>
      </trkpt>
      <trkpt lat="42.706353" lon="-1.845031">
        <ele>418.029647</ele>
        <time>2022-05-14T14:52:15.000Z</time>
      </trkpt>
      <trkpt lat="42.7068" lon="-1.845726">
        <ele>416.101762</ele>
        <time>2022-05-14T14:52:23.000Z</time>
      </trkpt>
      <trkpt lat="42.706973" lon="-1.845733">
        <ele>415.656932</ele>
        <time>2022-05-14T14:52:25.000Z</time>
      </trkpt>
      <trkpt lat="42.707063" lon="-1.84566">
        <ele>415.337878</ele>
        <time>2022-05-14T14:52:26.000Z</time>
      </trkpt>
      <trkpt lat="42.707228" lon="-1.844807">
        <ele>412.516533</ele>
        <time>2022-05-14T14:52:33.000Z</time>
      </trkpt>
      <trkpt lat="42.707239" lon="-1.843784">
        <ele>408.070599</ele>
        <time>2022-05-14T14:52:41.000Z</time>
      </trkpt>
      <trkpt lat="42.707305" lon="-1.843542">
        <ele>406.98011</ele>
        <time>2022-05-14T14:52:43.000Z</time>
      </trkpt>
      <trkpt lat="42.708668" lon="-1.841278">
        <ele>395.418054</ele>
        <time>2022-05-14T14:53:07.000Z</time>
      </trkpt>
      <trkpt lat="42.709137" lon="-1.839983">
        <ele>390.314599</ele>
        <time>2022-05-14T14:53:19.000Z</time>
      </trkpt>
      <trkpt lat="42.709428" lon="-1.839336">
        <ele>387.755952</ele>
        <time>2022-05-14T14:53:25.000Z</time>
      </trkpt>
      <trkpt lat="42.709421" lon="-1.83898">
        <ele>386.496999</ele>
        <time>2022-05-14T14:53:28.000Z</time>
      </trkpt>
      <trkpt lat="42.709225" lon="-1.83828">
        <ele>384.960079</ele>
        <time>2022-05-14T14:53:34.000Z</time>
      </trkpt>
      <trkpt lat="42.709147" lon="-1.838184">
        <ele>384.712764</ele>
        <time>2022-05-14T14:53:35.000Z</time>
      </trkpt>
      <trkpt lat="42.708798" lon="-1.838011">
        <ele>383.852861</ele>
        <time>2022-05-14T14:53:39.000Z</time>
      </trkpt>
      <trkpt lat="42.708739" lon="-1.837944">
        <ele>383.636322</ele>
        <time>2022-05-14T14:53:40.000Z</time>
      </trkpt>
      <trkpt lat="42.708753" lon="-1.837789">
        <ele>383.361669</ele>
        <time>2022-05-14T14:53:41.000Z</time>
      </trkpt>
      <trkpt lat="42.708827" lon="-1.837746">
        <ele>383.179837</ele>
        <time>2022-05-14T14:53:42.000Z</time>
      </trkpt>
      <trkpt lat="42.709039" lon="-1.837833">
        <ele>382.650878</ele>
        <time>2022-05-14T14:53:44.000Z</time>
      </trkpt>
      <trkpt lat="42.709428" lon="-1.838189">
        <ele>381.67401</ele>
        <time>2022-05-14T14:53:49.000Z</time>
      </trkpt>
      <trkpt lat="42.709539" lon="-1.838392">
        <ele>381.477358</ele>
        <time>2022-05-14T14:53:51.000Z</time>
      </trkpt>
      <trkpt lat="42.709887" lon="-1.839241">
        <ele>380.694905</ele>
        <time>2022-05-14T14:53:59.000Z</time>
      </trkpt>
      <trkpt lat="42.709896" lon="-1.839485">
        <ele>380.497328</ele>
        <time>2022-05-14T14:54:01.000Z</time>
      </trkpt>
      <trkpt lat="42.709859" lon="-1.839609">
        <ele>380.396294</ele>
        <time>2022-05-14T14:54:02.000Z</time>
      </trkpt>
      <trkpt lat="42.709569" lon="-1.84">
        <ele>379.945929</ele>
        <time>2022-05-14T14:54:07.000Z</time>
      </trkpt>
      <trkpt lat="42.709474" lon="-1.840181">
        <ele>379.613568</ele>
        <time>2022-05-14T14:54:09.000Z</time>
      </trkpt>
      <trkpt lat="42.709463" lon="-1.840392">
        <ele>379.066617</ele>
        <time>2022-05-14T14:54:11.000Z</time>
      </trkpt>
      <trkpt lat="42.709489" lon="-1.840635">
        <ele>378.33291</ele>
        <time>2022-05-14T14:54:13.000Z</time>
      </trkpt>
      <trkpt lat="42.709585" lon="-1.840787">
        <ele>377.837309</ele>
        <time>2022-05-14T14:54:15.000Z</time>
      </trkpt>
      <trkpt lat="42.709818" lon="-1.840939">
        <ele>376.82632</ele>
        <time>2022-05-14T14:54:18.000Z</time>
      </trkpt>
      <trkpt lat="42.710333" lon="-1.840736">
        <ele>374.783546</ele>
        <time>2022-05-14T14:54:24.000Z</time>
      </trkpt>
      <trkpt lat="42.710374" lon="-1.840726">
        <ele>374.638812</ele>
        <time>2022-05-14T14:54:24.000Z</time>
      </trkpt>
      <trkpt lat="42.710451" lon="-1.840712">
        <ele>374.345554</ele>
        <time>2022-05-14T14:54:25.000Z</time>
      </trkpt>
      <trkpt lat="42.710685" lon="-1.840805">
        <ele>373.413532</ele>
        <time>2022-05-14T14:54:28.000Z</time>
      </trkpt>
      <trkpt lat="42.711522" lon="-1.841783">
        <ele>370.865206</ele>
        <time>2022-05-14T14:54:40.000Z</time>
      </trkpt>
      <trkpt lat="42.711906" lon="-1.842063">
        <ele>369.922123</ele>
        <time>2022-05-14T14:54:45.000Z</time>
      </trkpt>
      <trkpt lat="42.712928" lon="-1.842594">
        <ele>368.583271</ele>
        <time>2022-05-14T14:54:57.000Z</time>
      </trkpt>
      <trkpt lat="42.713583" lon="-1.842761">
        <ele>368.113443</ele>
        <time>2022-05-14T14:55:04.000Z</time>
      </trkpt>
      <trkpt lat="42.714085" lon="-1.842817">
        <ele>367.652752</ele>
        <time>2022-05-14T14:55:10.000Z</time>
      </trkpt>
      <trkpt lat="42.714753" lon="-1.842715">
        <ele>366.574093</ele>
        <time>2022-05-14T14:55:17.000Z</time>
      </trkpt>
      <trkpt lat="42.715293" lon="-1.842763">
        <ele>365.696646</ele>
        <time>2022-05-14T14:55:23.000Z</time>
      </trkpt>
      <trkpt lat="42.715797" lon="-1.842592">
        <ele>364.884254</ele>
        <time>2022-05-14T14:55:29.000Z</time>
      </trkpt>
      <trkpt lat="42.716412" lon="-1.842051">
        <ele>364.194117</ele>
        <time>2022-05-14T14:55:37.000Z</time>
      </trkpt>
      <trkpt lat="42.718388" lon="-1.840317">
        <ele>363.706468</ele>
        <time>2022-05-14T14:56:03.000Z</time>
      </trkpt>
      <trkpt lat="42.718935" lon="-1.840081">
        <ele>364.267761</ele>
        <time>2022-05-14T14:56:09.000Z</time>
      </trkpt>
      <trkpt lat="42.719216" lon="-1.839987">
        <ele>365.452235</ele>
        <time>2022-05-14T14:56:12.000Z</time>
      </trkpt>
      <trkpt lat="42.719543" lon="-1.840012">
        <ele>366.712506</ele>
        <time>2022-05-14T14:56:16.000Z</time>
      </trkpt>
      <trkpt lat="42.719832" lon="-1.840232">
        <ele>368.108621</ele>
        <time>2022-05-14T14:56:20.000Z</time>
      </trkpt>
      <trkpt lat="42.720207" lon="-1.840706">
        <ele>370.191686</ele>
        <time>2022-05-14T14:56:26.000Z</time>
      </trkpt>
      <trkpt lat="42.720419" lon="-1.841099">
        <ele>371.553386</ele>
        <time>2022-05-14T14:56:30.000Z</time>
      </trkpt>
      <trkpt lat="42.720618" lon="-1.841407">
        <ele>372.662493</ele>
        <time>2022-05-14T14:56:33.000Z</time>
      </trkpt>
      <trkpt lat="42.721323" lon="-1.842424">
        <ele>376.216186</ele>
        <time>2022-05-14T14:56:44.000Z</time>
      </trkpt>
      <trkpt lat="42.72271" lon="-1.844208">
        <ele>378.117279</ele>
        <time>2022-05-14T14:57:05.000Z</time>
      </trkpt>
      <trkpt lat="42.724142" lon="-1.845387">
        <ele>375.276698</ele>
        <time>2022-05-14T14:57:24.000Z</time>
      </trkpt>
      <trkpt lat="42.724556" lon="-1.845855">
        <ele>373.863751</ele>
        <time>2022-05-14T14:57:30.000Z</time>
      </trkpt>
      <trkpt lat="42.725122" lon="-1.846591">
        <ele>371.000499</ele>
        <time>2022-05-14T14:57:39.000Z</time>
      </trkpt>
      <trkpt lat="42.72529" lon="-1.84661">
        <ele>370.3931</ele>
        <time>2022-05-14T14:57:41.000Z</time>
      </trkpt>
      <trkpt lat="42.725391" lon="-1.846621">
        <ele>370.002848</ele>
        <time>2022-05-14T14:57:42.000Z</time>
      </trkpt>
      <trkpt lat="42.726836" lon="-1.84642">
        <ele>366.054534</ele>
        <time>2022-05-14T14:57:58.000Z</time>
      </trkpt>
      <trkpt lat="42.72735" lon="-1.846234">
        <ele>364.949334</ele>
        <time>2022-05-14T14:58:04.000Z</time>
      </trkpt>
      <trkpt lat="42.72783" lon="-1.845926">
        <ele>364.16049</ele>
        <time>2022-05-14T14:58:10.000Z</time>
      </trkpt>
      <trkpt lat="42.728257" lon="-1.845523">
        <ele>364.29168</ele>
        <time>2022-05-14T14:58:16.000Z</time>
      </trkpt>
      <trkpt lat="42.728491" lon="-1.845258">
        <ele>364.365699</ele>
        <time>2022-05-14T14:58:19.000Z</time>
      </trkpt>
      <trkpt lat="42.728939" lon="-1.844582">
        <ele>364.53102</ele>
        <time>2022-05-14T14:58:26.000Z</time>
      </trkpt>
      <trkpt lat="42.729531" lon="-1.843588">
        <ele>365.481735</ele>
        <time>2022-05-14T14:58:36.000Z</time>
      </trkpt>
      <trkpt lat="42.729851" lon="-1.843321">
        <ele>365.908821</ele>
        <time>2022-05-14T14:58:40.000Z</time>
      </trkpt>
      <trkpt lat="42.730168" lon="-1.843115">
        <ele>366.332637</ele>
        <time>2022-05-14T14:58:44.000Z</time>
      </trkpt>
      <trkpt lat="42.730876" lon="-1.84304">
        <ele>367.118183</ele>
        <time>2022-05-14T14:58:52.000Z</time>
      </trkpt>
      <trkpt lat="42.731337" lon="-1.843188">
        <ele>367.635697</ele>
        <time>2022-05-14T14:58:57.000Z</time>
      </trkpt>
      <trkpt lat="42.733426" lon="-1.844525">
        <ele>369.163011</ele>
        <time>2022-05-14T14:59:23.000Z</time>
      </trkpt>
      <trkpt lat="42.73496" lon="-1.845253">
        <ele>368.324869</ele>
        <time>2022-05-14T14:59:41.000Z</time>
      </trkpt>
      <trkpt lat="42.736609" lon="-1.845327">
        <ele>366.803252</ele>
        <time>2022-05-14T14:59:59.000Z</time>
      </trkpt>
      <trkpt lat="42.737493" lon="-1.845039">
        <ele>366.09438</ele>
        <time>2022-05-14T15:00:09.000Z</time>
      </trkpt>
      <trkpt lat="42.738445" lon="-1.845044">
        <ele>366.040612</ele>
        <time>2022-05-14T15:00:20.000Z</time>
      </trkpt>
      <trkpt lat="42.738871" lon="-1.844914">
        <ele>366.015825</ele>
        <time>2022-05-14T15:00:25.000Z</time>
      </trkpt>
      <trkpt lat="42.73928" lon="-1.844716">
        <ele>366.053646</ele>
        <time>2022-05-14T15:00:30.000Z</time>
      </trkpt>
      <trkpt lat="42.739784" lon="-1.84429">
        <ele>366.201061</ele>
        <time>2022-05-14T15:00:37.000Z</time>
      </trkpt>
      <trkpt lat="42.740209" lon="-1.843802">
        <ele>366.343035</ele>
        <time>2022-05-14T15:00:43.000Z</time>
      </trkpt>
      <trkpt lat="42.740601" lon="-1.843208">
        <ele>366.487306</ele>
        <time>2022-05-14T15:00:50.000Z</time>
      </trkpt>
      <trkpt lat="42.740803" lon="-1.842763">
        <ele>366.574758</ele>
        <time>2022-05-14T15:00:54.000Z</time>
      </trkpt>
      <trkpt lat="42.740893" lon="-1.842582">
        <ele>366.612354</ele>
        <time>2022-05-14T15:00:56.000Z</time>
      </trkpt>
      <trkpt lat="42.741282" lon="-1.841388">
        <ele>366.827016</ele>
        <time>2022-05-14T15:01:07.000Z</time>
      </trkpt>
      <trkpt lat="42.741537" lon="-1.840312">
        <ele>367.213926</ele>
        <time>2022-05-14T15:01:16.000Z</time>
      </trkpt>
      <trkpt lat="42.74183" lon="-1.839604">
        <ele>367.532883</ele>
        <time>2022-05-14T15:01:23.000Z</time>
      </trkpt>
      <trkpt lat="42.742153" lon="-1.838968">
        <ele>367.843757</ele>
        <time>2022-05-14T15:01:29.000Z</time>
      </trkpt>
      <trkpt lat="42.742795" lon="-1.837918">
        <ele>369.1169</ele>
        <time>2022-05-14T15:01:40.000Z</time>
      </trkpt>
      <trkpt lat="42.743014" lon="-1.837732">
        <ele>369.454732</ele>
        <time>2022-05-14T15:01:43.000Z</time>
      </trkpt>
      <trkpt lat="42.743261" lon="-1.837742">
        <ele>369.765646</ele>
        <time>2022-05-14T15:01:46.000Z</time>
      </trkpt>
      <trkpt lat="42.743557" lon="-1.837933">
        <ele>370.106924</ele>
        <time>2022-05-14T15:01:50.000Z</time>
      </trkpt>
      <trkpt lat="42.743944" lon="-1.838553">
        <ele>370.341125</ele>
        <time>2022-05-14T15:01:57.000Z</time>
      </trkpt>
      <trkpt lat="42.744101" lon="-1.83872">
        <ele>370.420295</ele>
        <time>2022-05-14T15:01:59.000Z</time>
      </trkpt>
      <trkpt lat="42.744501" lon="-1.838822">
        <ele>370.583182</ele>
        <time>2022-05-14T15:02:04.000Z</time>
      </trkpt>
      <trkpt lat="42.745107" lon="-1.838811">
        <ele>370.697815</ele>
        <time>2022-05-14T15:02:11.000Z</time>
      </trkpt>
      <trkpt lat="42.74587" lon="-1.838367">
        <ele>369.864054</ele>
        <time>2022-05-14T15:02:20.000Z</time>
      </trkpt>
      <trkpt lat="42.746562" lon="-1.837674">
        <ele>369.008577</ele>
        <time>2022-05-14T15:02:30.000Z</time>
      </trkpt>
      <trkpt lat="42.748308" lon="-1.836306">
        <ele>369.282356</ele>
        <time>2022-05-14T15:02:52.000Z</time>
      </trkpt>
      <trkpt lat="42.74884" lon="-1.835781">
        <ele>370.670288</ele>
        <time>2022-05-14T15:02:59.000Z</time>
      </trkpt>
      <trkpt lat="42.74897" lon="-1.835688">
        <ele>371.005104</ele>
        <time>2022-05-14T15:03:01.000Z</time>
      </trkpt>
      <trkpt lat="42.749314" lon="-1.835579">
        <ele>371.733849</ele>
        <time>2022-05-14T15:03:05.000Z</time>
      </trkpt>
      <trkpt lat="42.74965" lon="-1.835711">
        <ele>372.469175</ele>
        <time>2022-05-14T15:03:09.000Z</time>
      </trkpt>
      <trkpt lat="42.750862" lon="-1.836926">
        <ele>377.182419</ele>
        <time>2022-05-14T15:03:26.000Z</time>
      </trkpt>
      <trkpt lat="42.751368" lon="-1.837192">
        <ele>378.757902</ele>
        <time>2022-05-14T15:03:32.000Z</time>
      </trkpt>
      <trkpt lat="42.752319" lon="-1.837518">
        <ele>380.552701</ele>
        <time>2022-05-14T15:03:43.000Z</time>
      </trkpt>
      <trkpt lat="42.752536" lon="-1.83775">
        <ele>381.06553</ele>
        <time>2022-05-14T15:03:46.000Z</time>
      </trkpt>
      <trkpt lat="42.752776" lon="-1.838169">
        <ele>381.742541</ele>
        <time>2022-05-14T15:03:50.000Z</time>
      </trkpt>
      <trkpt lat="42.752914" lon="-1.838303">
        <ele>381.214535</ele>
        <time>2022-05-14T15:03:52.000Z</time>
      </trkpt>
      <trkpt lat="42.753179" lon="-1.83841">
        <ele>380.319067</ele>
        <time>2022-05-14T15:03:55.000Z</time>
      </trkpt>
      <trkpt lat="42.753647" lon="-1.838359">
        <ele>378.899504</ele>
        <time>2022-05-14T15:04:00.000Z</time>
      </trkpt>
      <trkpt lat="42.75391" lon="-1.838428">
        <ele>378.02282</ele>
        <time>2022-05-14T15:04:03.000Z</time>
      </trkpt>
      <trkpt lat="42.754201" lon="-1.838589">
        <ele>377.063466</ele>
        <time>2022-05-14T15:04:06.000Z</time>
      </trkpt>
      <trkpt lat="42.754338" lon="-1.838605">
        <ele>376.628705</ele>
        <time>2022-05-14T15:04:08.000Z</time>
      </trkpt>
      <trkpt lat="42.754524" lon="-1.838559">
        <ele>376.050569</ele>
        <time>2022-05-14T15:04:10.000Z</time>
      </trkpt>
      <trkpt lat="42.755251" lon="-1.838313">
        <ele>373.196832</ele>
        <time>2022-05-14T15:04:18.000Z</time>
      </trkpt>
      <trkpt lat="42.755694" lon="-1.838039">
        <ele>371.390042</ele>
        <time>2022-05-14T15:04:23.000Z</time>
      </trkpt>
      <trkpt lat="42.755844" lon="-1.837926">
        <ele>370.736921</ele>
        <time>2022-05-14T15:04:25.000Z</time>
      </trkpt>
      <trkpt lat="42.756789" lon="-1.837345">
        <ele>369.240823</ele>
        <time>2022-05-14T15:04:37.000Z</time>
      </trkpt>
      <trkpt lat="42.758501" lon="-1.836283">
        <ele>369.677412</ele>
        <time>2022-05-14T15:04:58.000Z</time>
      </trkpt>
      <trkpt lat="42.758847" lon="-1.836067">
        <ele>370.01187</ele>
        <time>2022-05-14T15:05:02.000Z</time>
      </trkpt>
      <trkpt lat="42.759" lon="-1.835979">
        <ele>370.146516</ele>
        <time>2022-05-14T15:05:04.000Z</time>
      </trkpt>
      <trkpt lat="42.759732" lon="-1.835503">
        <ele>370.714763</ele>
        <time>2022-05-14T15:05:13.000Z</time>
      </trkpt>
      <trkpt lat="42.760002" lon="-1.835218">
        <ele>370.855594</ele>
        <time>2022-05-14T15:05:17.000Z</time>
      </trkpt>
      <trkpt lat="42.760096" lon="-1.835083">
        <ele>370.918105</ele>
        <time>2022-05-14T15:05:19.000Z</time>
      </trkpt>
      <trkpt lat="42.760133" lon="-1.83504">
        <ele>370.937917</ele>
        <time>2022-05-14T15:05:20.000Z</time>
      </trkpt>
      <trkpt lat="42.760438" lon="-1.834688">
        <ele>371.105714</ele>
        <time>2022-05-14T15:05:24.000Z</time>
      </trkpt>
      <trkpt lat="42.760591" lon="-1.834483">
        <ele>371.199157</ele>
        <time>2022-05-14T15:05:26.000Z</time>
      </trkpt>
      <trkpt lat="42.76184" lon="-1.832481">
        <ele>370.559275</ele>
        <time>2022-05-14T15:05:47.000Z</time>
      </trkpt>
      <trkpt lat="42.762129" lon="-1.832179">
        <ele>370.489936</ele>
        <time>2022-05-14T15:05:51.000Z</time>
      </trkpt>
      <trkpt lat="42.763623" lon="-1.831064">
        <ele>370.964588</ele>
        <time>2022-05-14T15:06:10.000Z</time>
      </trkpt>
      <trkpt lat="42.763785" lon="-1.830974">
        <ele>371.291778</ele>
        <time>2022-05-14T15:06:12.000Z</time>
      </trkpt>
      <trkpt lat="42.763922" lon="-1.830902">
        <ele>371.562586</ele>
        <time>2022-05-14T15:06:14.000Z</time>
      </trkpt>
      <trkpt lat="42.765037" lon="-1.830824">
        <ele>373.661656</ele>
        <time>2022-05-14T15:06:26.000Z</time>
      </trkpt>
      <trkpt lat="42.765775" lon="-1.831052">
        <ele>375.472057</ele>
        <time>2022-05-14T15:06:34.000Z</time>
      </trkpt>
      <trkpt lat="42.766692" lon="-1.831773">
        <ele>378.431746</ele>
        <time>2022-05-14T15:06:46.000Z</time>
      </trkpt>
      <trkpt lat="42.767564" lon="-1.832695">
        <ele>379.612767</ele>
        <time>2022-05-14T15:06:58.000Z</time>
      </trkpt>
      <trkpt lat="42.768019" lon="-1.832897">
        <ele>379.8427</ele>
        <time>2022-05-14T15:07:03.000Z</time>
      </trkpt>
      <trkpt lat="42.76854" lon="-1.833028">
        <ele>380.023876</ele>
        <time>2022-05-14T15:07:09.000Z</time>
      </trkpt>
      <trkpt lat="42.769994" lon="-1.833176">
        <ele>377.239049</ele>
        <time>2022-05-14T15:07:25.000Z</time>
      </trkpt>
      <trkpt lat="42.771232" lon="-1.833181">
        <ele>375.544515</ele>
        <time>2022-05-14T15:07:39.000Z</time>
      </trkpt>
      <trkpt lat="42.771442" lon="-1.833136">
        <ele>375.303076</ele>
        <time>2022-05-14T15:07:41.000Z</time>
      </trkpt>
      <trkpt lat="42.772273" lon="-1.832815">
        <ele>374.79513</ele>
        <time>2022-05-14T15:07:51.000Z</time>
      </trkpt>
      <trkpt lat="42.772453" lon="-1.832736">
        <ele>375.058174</ele>
        <time>2022-05-14T15:07:53.000Z</time>
      </trkpt>
      <trkpt lat="42.773158" lon="-1.832471">
        <ele>376.087664</ele>
        <time>2022-05-14T15:08:01.000Z</time>
      </trkpt>
      <trkpt lat="42.77366" lon="-1.83234">
        <ele>376.802012</ele>
        <time>2022-05-14T15:08:07.000Z</time>
      </trkpt>
      <trkpt lat="42.774117" lon="-1.832143">
        <ele>378.016199</ele>
        <time>2022-05-14T15:08:12.000Z</time>
      </trkpt>
      <trkpt lat="42.774616" lon="-1.832059">
        <ele>379.611363</ele>
        <time>2022-05-14T15:08:18.000Z</time>
      </trkpt>
      <trkpt lat="42.776178" lon="-1.831773">
        <ele>384.193649</ele>
        <time>2022-05-14T15:08:36.000Z</time>
      </trkpt>
      <trkpt lat="42.777201" lon="-1.831339">
        <ele>386.986046</ele>
        <time>2022-05-14T15:08:48.000Z</time>
      </trkpt>
      <trkpt lat="42.777479" lon="-1.831035">
        <ele>387.571795</ele>
        <time>2022-05-14T15:08:52.000Z</time>
      </trkpt>
      <trkpt lat="42.777768" lon="-1.830572">
        <ele>388.101711</ele>
        <time>2022-05-14T15:08:57.000Z</time>
      </trkpt>
      <trkpt lat="42.777944" lon="-1.830287">
        <ele>388.446556</ele>
        <time>2022-05-14T15:09:00.000Z</time>
      </trkpt>
      <trkpt lat="42.778015" lon="-1.830164">
        <ele>388.580098</ele>
        <time>2022-05-14T15:09:01.000Z</time>
      </trkpt>
      <trkpt lat="42.778916" lon="-1.828735">
        <ele>390.609108</ele>
        <time>2022-05-14T15:09:16.000Z</time>
      </trkpt>
      <trkpt lat="42.779789" lon="-1.827361">
        <ele>393.093654</ele>
        <time>2022-05-14T15:09:31.000Z</time>
      </trkpt>
      <trkpt lat="42.780064" lon="-1.826936">
        <ele>394.085029</ele>
        <time>2022-05-14T15:09:36.000Z</time>
      </trkpt>
      <trkpt lat="42.780074" lon="-1.826916">
        <ele>394.139643</ele>
        <time>2022-05-14T15:09:36.000Z</time>
      </trkpt>
      <trkpt lat="42.780164" lon="-1.826804">
        <ele>394.466628</ele>
        <time>2022-05-14T15:09:37.000Z</time>
      </trkpt>
      <trkpt lat="42.780453" lon="-1.82645">
        <ele>395.368232</ele>
        <time>2022-05-14T15:09:41.000Z</time>
      </trkpt>
      <trkpt lat="42.780471" lon="-1.826397">
        <ele>395.474302</ele>
        <time>2022-05-14T15:09:41.000Z</time>
      </trkpt>
      <trkpt lat="42.780529" lon="-1.826298">
        <ele>395.710614</ele>
        <time>2022-05-14T15:09:42.000Z</time>
      </trkpt>
      <trkpt lat="42.780571" lon="-1.826209">
        <ele>395.898617</ele>
        <time>2022-05-14T15:09:43.000Z</time>
      </trkpt>
      <trkpt lat="42.780591" lon="-1.826176">
        <ele>395.969019</ele>
        <time>2022-05-14T15:09:43.000Z</time>
      </trkpt>
      <trkpt lat="42.780672" lon="-1.825951">
        <ele>396.42321</ele>
        <time>2022-05-14T15:09:45.000Z</time>
      </trkpt>
      <trkpt lat="42.780761" lon="-1.825627">
        <ele>397.026934</ele>
        <time>2022-05-14T15:09:48.000Z</time>
      </trkpt>
      <trkpt lat="42.780781" lon="-1.825588">
        <ele>397.168012</ele>
        <time>2022-05-14T15:09:48.000Z</time>
      </trkpt>
      <trkpt lat="42.78081" lon="-1.825509">
        <ele>397.335042</ele>
        <time>2022-05-14T15:09:49.000Z</time>
      </trkpt>
      <trkpt lat="42.780867" lon="-1.825391">
        <ele>397.676349</ele>
        <time>2022-05-14T15:09:50.000Z</time>
      </trkpt>
      <trkpt lat="42.78105" lon="-1.825201">
        <ele>398.458201</ele>
        <time>2022-05-14T15:09:53.000Z</time>
      </trkpt>
      <trkpt lat="42.785357" lon="-1.824063">
        <ele>412.9496</ele>
        <time>2022-05-14T15:10:42.000Z</time>
      </trkpt>
      <trkpt lat="42.785919" lon="-1.824047">
        <ele>414.853669</ele>
        <time>2022-05-14T15:10:48.000Z</time>
      </trkpt>
      <trkpt lat="42.786067" lon="-1.824043">
        <ele>415.498389</ele>
        <time>2022-05-14T15:10:50.000Z</time>
      </trkpt>
      <trkpt lat="42.78622" lon="-1.824059">
        <ele>416.194003</ele>
        <time>2022-05-14T15:10:52.000Z</time>
      </trkpt>
      <trkpt lat="42.78626" lon="-1.824065">
        <ele>416.322775</ele>
        <time>2022-05-14T15:10:52.000Z</time>
      </trkpt>
      <trkpt lat="42.786436" lon="-1.824068">
        <ele>417.099963</ele>
        <time>2022-05-14T15:10:54.000Z</time>
      </trkpt>
      <trkpt lat="42.787584" lon="-1.824189">
        <ele>422.035367</ele>
        <time>2022-05-14T15:11:07.000Z</time>
      </trkpt>
      <trkpt lat="42.788023" lon="-1.82419">
        <ele>424.095648</ele>
        <time>2022-05-14T15:11:12.000Z</time>
      </trkpt>
      <trkpt lat="42.788347" lon="-1.824207">
        <ele>425.642908</ele>
        <time>2022-05-14T15:11:16.000Z</time>
      </trkpt>
      <trkpt lat="42.78845" lon="-1.824214">
        <ele>426.172106</ele>
        <time>2022-05-14T15:11:17.000Z</time>
      </trkpt>
      <trkpt lat="42.788722" lon="-1.824248">
        <ele>427.519654</ele>
        <time>2022-05-14T15:11:20.000Z</time>
      </trkpt>
      <trkpt lat="42.789549" lon="-1.824226">
        <ele>431.434232</ele>
        <time>2022-05-14T15:11:29.000Z</time>
      </trkpt>
      <trkpt lat="42.789778" lon="-1.824042">
        <ele>432.083764</ele>
        <time>2022-05-14T15:11:32.000Z</time>
      </trkpt>
      <trkpt lat="42.790647" lon="-1.822608">
        <ele>435.273135</ele>
        <time>2022-05-14T15:11:47.000Z</time>
      </trkpt>
      <trkpt lat="42.79083" lon="-1.822452">
        <ele>435.274288</ele>
        <time>2022-05-14T15:11:49.000Z</time>
      </trkpt>
      <trkpt lat="42.791032" lon="-1.822381">
        <ele>434.338047</ele>
        <time>2022-05-14T15:11:51.000Z</time>
      </trkpt>
      <trkpt lat="42.791226" lon="-1.822393">
        <ele>433.406377</ele>
        <time>2022-05-14T15:11:53.000Z</time>
      </trkpt>
      <trkpt lat="42.791548" lon="-1.822415">
        <ele>431.980147</ele>
        <time>2022-05-14T15:11:57.000Z</time>
      </trkpt>
      <trkpt lat="42.791812" lon="-1.822367">
        <ele>430.760713</ele>
        <time>2022-05-14T15:12:00.000Z</time>
      </trkpt>
      <trkpt lat="42.792166" lon="-1.822032">
        <ele>428.857352</ele>
        <time>2022-05-14T15:12:05.000Z</time>
      </trkpt>
      <trkpt lat="42.792426" lon="-1.821649">
        <ele>426.548785</ele>
        <time>2022-05-14T15:12:09.000Z</time>
      </trkpt>
      <trkpt lat="42.792464" lon="-1.821537">
        <ele>425.606135</ele>
        <time>2022-05-14T15:12:10.000Z</time>
      </trkpt>
      <trkpt lat="42.792408" lon="-1.821091">
        <ele>421.840756</ele>
        <time>2022-05-14T15:12:14.000Z</time>
      </trkpt>
      <trkpt lat="42.792283" lon="-1.820542">
        <ele>417.188011</ele>
        <time>2022-05-14T15:12:19.000Z</time>
      </trkpt>
      <trkpt lat="42.792028" lon="-1.819827">
        <ele>410.767837</ele>
        <time>2022-05-14T15:12:26.000Z</time>
      </trkpt>
      <trkpt lat="42.791904" lon="-1.819381">
        <ele>407.068382</ele>
        <time>2022-05-14T15:12:30.000Z</time>
      </trkpt>
      <trkpt lat="42.791822" lon="-1.818906">
        <ele>404.017274</ele>
        <time>2022-05-14T15:12:34.000Z</time>
      </trkpt>
      <trkpt lat="42.791671" lon="-1.817054">
        <ele>391.948655</ele>
        <time>2022-05-14T15:12:49.000Z</time>
      </trkpt>
      <trkpt lat="42.791704" lon="-1.816062">
        <ele>388.929147</ele>
        <time>2022-05-14T15:12:57.000Z</time>
      </trkpt>
      <trkpt lat="42.791639" lon="-1.814381">
        <ele>384.166163</ele>
        <time>2022-05-14T15:13:11.000Z</time>
      </trkpt>
      <trkpt lat="42.792177" lon="-1.811856">
        <ele>381.508453</ele>
        <time>2022-05-14T15:13:32.000Z</time>
      </trkpt>
      <trkpt lat="42.792595" lon="-1.809815">
        <ele>381.971724</ele>
        <time>2022-05-14T15:13:49.000Z</time>
      </trkpt>
      <trkpt lat="42.792824" lon="-1.808755">
        <ele>382.951893</ele>
        <time>2022-05-14T15:13:58.000Z</time>
      </trkpt>
      <trkpt lat="42.792867" lon="-1.808562">
        <ele>383.13595</ele>
        <time>2022-05-14T15:14:00.000Z</time>
      </trkpt>
      <trkpt lat="42.793045" lon="-1.807631">
        <ele>384.004522</ele>
        <time>2022-05-14T15:14:08.000Z</time>
      </trkpt>
      <trkpt lat="42.793077" lon="-1.807392">
        <ele>384.22445</ele>
        <time>2022-05-14T15:14:10.000Z</time>
      </trkpt>
      <trkpt lat="42.793168" lon="-1.806695">
        <ele>384.899384</ele>
        <time>2022-05-14T15:14:16.000Z</time>
      </trkpt>
      <trkpt lat="42.79348" lon="-1.804367">
        <ele>387.270524</ele>
        <time>2022-05-14T15:14:35.000Z</time>
      </trkpt>
      <trkpt lat="42.793547" lon="-1.80368">
        <ele>388.069041</ele>
        <time>2022-05-14T15:14:41.000Z</time>
      </trkpt>
      <trkpt lat="42.793381" lon="-1.800819">
        <ele>392.00225</ele>
        <time>2022-05-14T15:15:04.000Z</time>
      </trkpt>
      <trkpt lat="42.793304" lon="-1.799434">
        <ele>394.552018</ele>
        <time>2022-05-14T15:15:15.000Z</time>
      </trkpt>
      <trkpt lat="42.793349" lon="-1.79889">
        <ele>395.754666</ele>
        <time>2022-05-14T15:15:19.000Z</time>
      </trkpt>
      <trkpt lat="42.79344" lon="-1.798336">
        <ele>396.969013</ele>
        <time>2022-05-14T15:15:24.000Z</time>
      </trkpt>
      <trkpt lat="42.794068" lon="-1.795839">
        <ele>403.296633</ele>
        <time>2022-05-14T15:15:46.000Z</time>
      </trkpt>
      <trkpt lat="42.794079" lon="-1.795785">
        <ele>403.420906</ele>
        <time>2022-05-14T15:15:46.000Z</time>
      </trkpt>
      <trkpt lat="42.794103" lon="-1.795772">
        <ele>403.517247</ele>
        <time>2022-05-14T15:15:46.000Z</time>
      </trkpt>
      <trkpt lat="42.794108" lon="-1.795338">
        <ele>404.581139</ele>
        <time>2022-05-14T15:15:50.000Z</time>
      </trkpt>
      <trkpt lat="42.794114" lon="-1.794934">
        <ele>405.532961</ele>
        <time>2022-05-14T15:15:53.000Z</time>
      </trkpt>
      <trkpt lat="42.794128" lon="-1.794495">
        <ele>406.558842</ele>
        <time>2022-05-14T15:15:57.000Z</time>
      </trkpt>
      <trkpt lat="42.794135" lon="-1.794392">
        <ele>406.840168</ele>
        <time>2022-05-14T15:15:58.000Z</time>
      </trkpt>
      <trkpt lat="42.79416" lon="-1.793539">
        <ele>408.851674</ele>
        <time>2022-05-14T15:16:05.000Z</time>
      </trkpt>
      <trkpt lat="42.794165" lon="-1.793355">
        <ele>409.26204</ele>
        <time>2022-05-14T15:16:07.000Z</time>
      </trkpt>
      <trkpt lat="42.794191" lon="-1.7931">
        <ele>409.892581</ele>
        <time>2022-05-14T15:16:09.000Z</time>
      </trkpt>
      <trkpt lat="42.7942" lon="-1.792947">
        <ele>410.118951</ele>
        <time>2022-05-14T15:16:10.000Z</time>
      </trkpt>
      <trkpt lat="42.794257" lon="-1.792406">
        <ele>410.802238</ele>
        <time>2022-05-14T15:16:14.000Z</time>
      </trkpt>
      <trkpt lat="42.79431" lon="-1.79178">
        <ele>411.594282</ele>
        <time>2022-05-14T15:16:19.000Z</time>
      </trkpt>
      <trkpt lat="42.79434" lon="-1.791441">
        <ele>412.004111</ele>
        <time>2022-05-14T15:16:22.000Z</time>
      </trkpt>
      <trkpt lat="42.794348" lon="-1.791406">
        <ele>412.068106</ele>
        <time>2022-05-14T15:16:22.000Z</time>
      </trkpt>
      <trkpt lat="42.794343" lon="-1.791338">
        <ele>412.154986</ele>
        <time>2022-05-14T15:16:23.000Z</time>
      </trkpt>
      <trkpt lat="42.794383" lon="-1.790852">
        <ele>412.753891</ele>
        <time>2022-05-14T15:16:27.000Z</time>
      </trkpt>
      <trkpt lat="42.794409" lon="-1.790762">
        <ele>412.870259</ele>
        <time>2022-05-14T15:16:28.000Z</time>
      </trkpt>
      <trkpt lat="42.794443" lon="-1.790618">
        <ele>413.046604</ele>
        <time>2022-05-14T15:16:29.000Z</time>
      </trkpt>
      <trkpt lat="42.794586" lon="-1.790234">
        <ele>413.245653</ele>
        <time>2022-05-14T15:16:33.000Z</time>
      </trkpt>
      <trkpt lat="42.79465" lon="-1.790056">
        <ele>413.336019</ele>
        <time>2022-05-14T15:16:35.000Z</time>
      </trkpt>
      <trkpt lat="42.794772" lon="-1.789711">
        <ele>413.499444</ele>
        <time>2022-05-14T15:16:38.000Z</time>
      </trkpt>
      <trkpt lat="42.794915" lon="-1.789369">
        <ele>413.674072</ele>
        <time>2022-05-14T15:16:41.000Z</time>
      </trkpt>
      <trkpt lat="42.795233" lon="-1.788532">
        <ele>414.095826</ele>
        <time>2022-05-14T15:16:49.000Z</time>
      </trkpt>
      <trkpt lat="42.795265" lon="-1.788459">
        <ele>414.13328</ele>
        <time>2022-05-14T15:16:50.000Z</time>
      </trkpt>
      <trkpt lat="42.7953" lon="-1.788344">
        <ele>414.129305</ele>
        <time>2022-05-14T15:16:51.000Z</time>
      </trkpt>
      <trkpt lat="42.795605" lon="-1.787518">
        <ele>414.087162</ele>
        <time>2022-05-14T15:16:59.000Z</time>
      </trkpt>
      <trkpt lat="42.795646" lon="-1.78742">
        <ele>414.08286</ele>
        <time>2022-05-14T15:17:00.000Z</time>
      </trkpt>
      <trkpt lat="42.795907" lon="-1.786749">
        <ele>414.048641</ele>
        <time>2022-05-14T15:17:06.000Z</time>
      </trkpt>
      <trkpt lat="42.796159" lon="-1.78608">
        <ele>414.342494</ele>
        <time>2022-05-14T15:17:12.000Z</time>
      </trkpt>
      <trkpt lat="42.796255" lon="-1.78582">
        <ele>414.796564</ele>
        <time>2022-05-14T15:17:14.000Z</time>
      </trkpt>
      <trkpt lat="42.796419" lon="-1.785375">
        <ele>415.571071</ele>
        <time>2022-05-14T15:17:18.000Z</time>
      </trkpt>
      <trkpt lat="42.797927" lon="-1.78142">
        <ele>421.613771</ele>
        <time>2022-05-14T15:17:54.000Z</time>
      </trkpt>
      <trkpt lat="42.798214" lon="-1.780837">
        <ele>419.926311</ele>
        <time>2022-05-14T15:18:00.000Z</time>
      </trkpt>
      <trkpt lat="42.79831" lon="-1.78072">
        <ele>419.541812</ele>
        <time>2022-05-14T15:18:01.000Z</time>
      </trkpt>
      <trkpt lat="42.798455" lon="-1.780592">
        <ele>418.974551</ele>
        <time>2022-05-14T15:18:03.000Z</time>
      </trkpt>
      <trkpt lat="42.798552" lon="-1.780535">
        <ele>418.62783</ele>
        <time>2022-05-14T15:18:04.000Z</time>
      </trkpt>
      <trkpt lat="42.798768" lon="-1.780436">
        <ele>417.884919</ele>
        <time>2022-05-14T15:18:07.000Z</time>
      </trkpt>
      <trkpt lat="42.79892" lon="-1.780359">
        <ele>417.389636</ele>
        <time>2022-05-14T15:18:09.000Z</time>
      </trkpt>
      <trkpt lat="42.800872" lon="-1.779499">
        <ele>401.476388</ele>
        <time>2022-05-14T15:18:32.000Z</time>
      </trkpt>
      <trkpt lat="42.801747" lon="-1.778927">
        <ele>396.556434</ele>
        <time>2022-05-14T15:18:43.000Z</time>
      </trkpt>
      <trkpt lat="42.801987" lon="-1.778848">
        <ele>395.280206</ele>
        <time>2022-05-14T15:18:46.000Z</time>
      </trkpt>
      <trkpt lat="42.802576" lon="-1.778929">
        <ele>393.017892</ele>
        <time>2022-05-14T15:18:53.000Z</time>
      </trkpt>
      <trkpt lat="42.80277" lon="-1.77896">
        <ele>392.803061</ele>
        <time>2022-05-14T15:18:55.000Z</time>
      </trkpt>
      <trkpt lat="42.803755" lon="-1.779345">
        <ele>391.67873</ele>
        <time>2022-05-14T15:19:06.000Z</time>
      </trkpt>
      <trkpt lat="42.804752" lon="-1.779627">
        <ele>390.496054</ele>
        <time>2022-05-14T15:19:17.000Z</time>
      </trkpt>
      <trkpt lat="42.805546" lon="-1.779517">
        <ele>389.571735</ele>
        <time>2022-05-14T15:19:26.000Z</time>
      </trkpt>
      <trkpt lat="42.805648" lon="-1.77947">
        <ele>389.4456</ele>
        <time>2022-05-14T15:19:27.000Z</time>
      </trkpt>
      <trkpt lat="42.80574" lon="-1.779294">
        <ele>389.259143</ele>
        <time>2022-05-14T15:19:29.000Z</time>
      </trkpt>
      <trkpt lat="42.805799" lon="-1.779132">
        <ele>389.122026</ele>
        <time>2022-05-14T15:19:30.000Z</time>
      </trkpt>
      <trkpt lat="42.80601" lon="-1.777786">
        <ele>388.887793</ele>
        <time>2022-05-14T15:19:41.000Z</time>
      </trkpt>
      <trkpt lat="42.805994" lon="-1.777409">
        <ele>388.823399</ele>
        <time>2022-05-14T15:19:44.000Z</time>
      </trkpt>
      <trkpt lat="42.805937" lon="-1.77727">
        <ele>388.796098</ele>
        <time>2022-05-14T15:19:45.000Z</time>
      </trkpt>
      <trkpt lat="42.805889" lon="-1.777198">
        <ele>388.778931</ele>
        <time>2022-05-14T15:19:46.000Z</time>
      </trkpt>
      <trkpt lat="42.805733" lon="-1.77707">
        <ele>388.733378</ele>
        <time>2022-05-14T15:19:48.000Z</time>
      </trkpt>
      <trkpt lat="42.805545" lon="-1.777019">
        <ele>388.883197</ele>
        <time>2022-05-14T15:19:50.000Z</time>
      </trkpt>
      <trkpt lat="42.804628" lon="-1.776702">
        <ele>391.067197</ele>
        <time>2022-05-14T15:20:01.000Z</time>
      </trkpt>
      <trkpt lat="42.804548" lon="-1.776688">
        <ele>391.255524</ele>
        <time>2022-05-14T15:20:02.000Z</time>
      </trkpt>
      <trkpt lat="42.804349" lon="-1.776593">
        <ele>391.716663</ele>
        <time>2022-05-14T15:20:04.000Z</time>
      </trkpt>
      <trkpt lat="42.804308" lon="-1.776584">
        <ele>391.832196</ele>
        <time>2022-05-14T15:20:04.000Z</time>
      </trkpt>
      <trkpt lat="42.804217" lon="-1.776538">
        <ele>392.043048</ele>
        <time>2022-05-14T15:20:05.000Z</time>
      </trkpt>
      <trkpt lat="42.804023" lon="-1.776387">
        <ele>392.577749</ele>
        <time>2022-05-14T15:20:07.000Z</time>
      </trkpt>
      <trkpt lat="42.803966" lon="-1.776289">
        <ele>392.7917</ele>
        <time>2022-05-14T15:20:08.000Z</time>
      </trkpt>
      <trkpt lat="42.803944" lon="-1.776257">
        <ele>392.846438</ele>
        <time>2022-05-14T15:20:08.000Z</time>
      </trkpt>
      <trkpt lat="42.80392" lon="-1.776135">
        <ele>393.031152</ele>
        <time>2022-05-14T15:20:09.000Z</time>
      </trkpt>
      <trkpt lat="42.803894" lon="-1.776023">
        <ele>393.205863</ele>
        <time>2022-05-14T15:20:10.000Z</time>
      </trkpt>
      <trkpt lat="42.803881" lon="-1.775952">
        <ele>393.305249</ele>
        <time>2022-05-14T15:20:11.000Z</time>
      </trkpt>
      <trkpt lat="42.803876" lon="-1.775719">
        <ele>393.608209</ele>
        <time>2022-05-14T15:20:13.000Z</time>
      </trkpt>
      <trkpt lat="42.803873" lon="-1.775696">
        <ele>393.663549</ele>
        <time>2022-05-14T15:20:13.000Z</time>
      </trkpt>
      <trkpt lat="42.803881" lon="-1.775565">
        <ele>393.842954</ele>
        <time>2022-05-14T15:20:14.000Z</time>
      </trkpt>
      <trkpt lat="42.803903" lon="-1.775441">
        <ele>394.016805</ele>
        <time>2022-05-14T15:20:15.000Z</time>
      </trkpt>
      <trkpt lat="42.803931" lon="-1.775351">
        <ele>394.146694</ele>
        <time>2022-05-14T15:20:16.000Z</time>
      </trkpt>
      <trkpt lat="42.803978" lon="-1.775248">
        <ele>394.301505</ele>
        <time>2022-05-14T15:20:17.000Z</time>
      </trkpt>
      <trkpt lat="42.804086" lon="-1.77509">
        <ele>394.599979</ele>
        <time>2022-05-14T15:20:19.000Z</time>
      </trkpt>
      <trkpt lat="42.804446" lon="-1.774679">
        <ele>395.494897</ele>
        <time>2022-05-14T15:20:24.000Z</time>
      </trkpt>
      <trkpt lat="42.804516" lon="-1.774606">
        <ele>395.649701</ele>
        <time>2022-05-14T15:20:25.000Z</time>
      </trkpt>
      <trkpt lat="42.804539" lon="-1.774578">
        <ele>395.709876</ele>
        <time>2022-05-14T15:20:25.000Z</time>
      </trkpt>
      <trkpt lat="42.80484" lon="-1.774241">
        <ele>396.205888</ele>
        <time>2022-05-14T15:20:29.000Z</time>
      </trkpt>
      <trkpt lat="42.805594" lon="-1.773418">
        <ele>396.06029</ele>
        <time>2022-05-14T15:20:40.000Z</time>
      </trkpt>
      <trkpt lat="42.806001" lon="-1.772931">
        <ele>395.978293</ele>
        <time>2022-05-14T15:20:46.000Z</time>
      </trkpt>
      <trkpt lat="42.807964" lon="-1.76935">
        <ele>389.693786</ele>
        <time>2022-05-14T15:21:22.000Z</time>
      </trkpt>
      <trkpt lat="42.808227" lon="-1.768831">
        <ele>388.677118</ele>
        <time>2022-05-14T15:21:27.000Z</time>
      </trkpt>
      <trkpt lat="42.808607" lon="-1.767857">
        <ele>386.852292</ele>
        <time>2022-05-14T15:21:36.000Z</time>
      </trkpt>
      <trkpt lat="42.809263" lon="-1.766849">
        <ele>384.580023</ele>
        <time>2022-05-14T15:21:47.000Z</time>
      </trkpt>
      <trkpt lat="42.809834" lon="-1.765946">
        <ele>383.606865</ele>
        <time>2022-05-14T15:21:57.000Z</time>
      </trkpt>
      <trkpt lat="42.810502" lon="-1.764934">
        <ele>382.619242</ele>
        <time>2022-05-14T15:22:08.000Z</time>
      </trkpt>
      <trkpt lat="42.810962" lon="-1.764192">
        <ele>382.822844</ele>
        <time>2022-05-14T15:22:16.000Z</time>
      </trkpt>
      <trkpt lat="42.812234" lon="-1.761096">
        <ele>383.821142</ele>
        <time>2022-05-14T15:22:45.000Z</time>
      </trkpt>
      <trkpt lat="42.812685" lon="-1.758981">
        <ele>384.301588</ele>
        <time>2022-05-14T15:23:03.000Z</time>
      </trkpt>
      <trkpt lat="42.813905" lon="-1.753206">
        <ele>385.508299</ele>
        <time>2022-05-14T15:23:52.000Z</time>
      </trkpt>
      <trkpt lat="42.814113" lon="-1.752429">
        <ele>385.67896</ele>
        <time>2022-05-14T15:23:59.000Z</time>
      </trkpt>
      <trkpt lat="42.814331" lon="-1.751697">
        <ele>385.839864</ele>
        <time>2022-05-14T15:24:05.000Z</time>
      </trkpt>
      <trkpt lat="42.81461" lon="-1.750657">
        <ele>386.087313</ele>
        <time>2022-05-14T15:24:14.000Z</time>
      </trkpt>
      <trkpt lat="42.81517" lon="-1.748967">
        <ele>386.600969</ele>
        <time>2022-05-14T15:24:29.000Z</time>
      </trkpt>
      <trkpt lat="42.815241" lon="-1.748791">
        <ele>386.737599</ele>
        <time>2022-05-14T15:24:31.000Z</time>
      </trkpt>
      <trkpt lat="42.8152" lon="-1.748749">
        <ele>386.789022</ele>
        <time>2022-05-14T15:24:32.000Z</time>
      </trkpt>
      <trkpt lat="42.815131" lon="-1.748708">
        <ele>386.856854</ele>
        <time>2022-05-14T15:24:33.000Z</time>
      </trkpt>
      <trkpt lat="42.81482" lon="-1.748609">
        <ele>387.137423</ele>
        <time>2022-05-14T15:24:37.000Z</time>
      </trkpt>
      <trkpt lat="42.81459" lon="-1.748489">
        <ele>387.356458</ele>
        <time>2022-05-14T15:24:40.000Z</time>
      </trkpt>
      <trkpt lat="42.814389" lon="-1.748373">
        <ele>387.563744</ele>
        <time>2022-05-14T15:24:42.000Z</time>
      </trkpt>
      <trkpt lat="42.814093" lon="-1.748159">
        <ele>387.858998</ele>
        <time>2022-05-14T15:24:46.000Z</time>
      </trkpt>
      <trkpt lat="42.814046" lon="-1.748099">
        <ele>387.925576</ele>
        <time>2022-05-14T15:24:47.000Z</time>
      </trkpt>
      <trkpt lat="42.813956" lon="-1.747996">
        <ele>388.023518</ele>
        <time>2022-05-14T15:24:48.000Z</time>
      </trkpt>
      <trkpt lat="42.810822" lon="-1.741587">
        <ele>396.684495</ele>
        <time>2022-05-14T15:25:51.000Z</time>
      </trkpt>
      <trkpt lat="42.810459" lon="-1.740821">
        <ele>398.355955</ele>
        <time>2022-05-14T15:25:58.000Z</time>
      </trkpt>
      <trkpt lat="42.81011" lon="-1.740457">
        <ele>399.422245</ele>
        <time>2022-05-14T15:26:03.000Z</time>
      </trkpt>
      <trkpt lat="42.808979" lon="-1.739797">
        <ele>401.836524</ele>
        <time>2022-05-14T15:26:17.000Z</time>
      </trkpt>
      <trkpt lat="42.807674" lon="-1.739071">
        <ele>404.206748</ele>
        <time>2022-05-14T15:26:33.000Z</time>
      </trkpt>
      <trkpt lat="42.807087" lon="-1.738835">
        <ele>405.368553</ele>
        <time>2022-05-14T15:26:40.000Z</time>
      </trkpt>
      <trkpt lat="42.806779" lon="-1.738807">
        <ele>405.972711</ele>
        <time>2022-05-14T15:26:43.000Z</time>
      </trkpt>
      <trkpt lat="42.806979" lon="-1.735422">
        <ele>412.082276</ele>
        <time>2022-05-14T15:27:11.000Z</time>
      </trkpt>
      <trkpt lat="42.807137" lon="-1.733232">
        <ele>413.793554</ele>
        <time>2022-05-14T15:27:29.000Z</time>
      </trkpt>
      <trkpt lat="42.80876" lon="-1.728185">
        <ele>403.098529</ele>
        <time>2022-05-14T15:28:14.000Z</time>
      </trkpt>
      <trkpt lat="42.808827" lon="-1.727655">
        <ele>401.779242</ele>
        <time>2022-05-14T15:28:18.000Z</time>
      </trkpt>
      <trkpt lat="42.808796" lon="-1.727265">
        <ele>400.792471</ele>
        <time>2022-05-14T15:28:21.000Z</time>
      </trkpt>
      <trkpt lat="42.808717" lon="-1.726906">
        <ele>399.899676</ele>
        <time>2022-05-14T15:28:24.000Z</time>
      </trkpt>
      <trkpt lat="42.808999" lon="-1.726937">
        <ele>398.932992</ele>
        <time>2022-05-14T15:28:27.000Z</time>
      </trkpt>
      <trkpt lat="42.811946" lon="-1.727381">
        <ele>392.89439</ele>
        <time>2022-05-14T15:29:00.000Z</time>
      </trkpt>
      <trkpt lat="42.812307" lon="-1.727393">
        <ele>392.406839</ele>
        <time>2022-05-14T15:29:04.000Z</time>
      </trkpt>
      <trkpt lat="42.812846" lon="-1.727187">
        <ele>391.898283</ele>
        <time>2022-05-14T15:29:10.000Z</time>
      </trkpt>
      <trkpt lat="42.812977" lon="-1.727102">
        <ele>391.982729</ele>
        <time>2022-05-14T15:29:12.000Z</time>
      </trkpt>
      <trkpt lat="42.813189" lon="-1.726928">
        <ele>392.126923</ele>
        <time>2022-05-14T15:29:15.000Z</time>
      </trkpt>
      <trkpt lat="42.813594" lon="-1.726465">
        <ele>392.433463</ele>
        <time>2022-05-14T15:29:21.000Z</time>
      </trkpt>
      <trkpt lat="42.813879" lon="-1.7261">
        <ele>392.667427</ele>
        <time>2022-05-14T15:29:25.000Z</time>
      </trkpt>
      <trkpt lat="42.813966" lon="-1.726004">
        <ele>392.733553</ele>
        <time>2022-05-14T15:29:26.000Z</time>
      </trkpt>
      <trkpt lat="42.814162" lon="-1.726132">
        <ele>392.854747</ele>
        <time>2022-05-14T15:29:28.000Z</time>
      </trkpt>
      <trkpt lat="42.814184" lon="-1.726156">
        <ele>392.885246</ele>
        <time>2022-05-14T15:29:28.000Z</time>
      </trkpt>
      <trkpt lat="42.814816" lon="-1.726582">
        <ele>394.231003</ele>
        <time>2022-05-14T15:29:36.000Z</time>
      </trkpt>
      <trkpt lat="42.814887" lon="-1.7266">
        <ele>394.344633</ele>
        <time>2022-05-14T15:29:37.000Z</time>
      </trkpt>
      <trkpt lat="42.814925" lon="-1.726569">
        <ele>394.430792</ele>
        <time>2022-05-14T15:29:37.000Z</time>
      </trkpt>
      <trkpt lat="42.815359" lon="-1.725821">
        <ele>395.758796</ele>
        <time>2022-05-14T15:29:45.000Z</time>
      </trkpt>
      <trkpt lat="42.815635" lon="-1.725542">
        <ele>396.3931</ele>
        <time>2022-05-14T15:29:49.000Z</time>
      </trkpt>
      <trkpt lat="42.815684" lon="-1.725392">
        <ele>396.560496</ele>
        <time>2022-05-14T15:29:50.000Z</time>
      </trkpt>
      <trkpt lat="42.815659" lon="-1.72484">
        <ele>397.16242</ele>
        <time>2022-05-14T15:29:55.000Z</time>
      </trkpt>
      <trkpt lat="42.815654" lon="-1.724681">
        <ele>397.343151</ele>
        <time>2022-05-14T15:29:56.000Z</time>
      </trkpt>
      <trkpt lat="42.815646" lon="-1.724508">
        <ele>397.517031</ele>
        <time>2022-05-14T15:29:57.000Z</time>
      </trkpt>
      <trkpt lat="42.815664" lon="-1.724061">
        <ele>398.008565</ele>
        <time>2022-05-14T15:30:01.000Z</time>
      </trkpt>
      <trkpt lat="42.815671" lon="-1.723939">
        <ele>398.14445</ele>
        <time>2022-05-14T15:30:02.000Z</time>
      </trkpt>
      <trkpt lat="42.815648" lon="-1.72295">
        <ele>399.451966</ele>
        <time>2022-05-14T15:30:10.000Z</time>
      </trkpt>
      <trkpt lat="42.815655" lon="-1.722572">
        <ele>400.229877</ele>
        <time>2022-05-14T15:30:13.000Z</time>
      </trkpt>
      <trkpt lat="42.815609" lon="-1.722348">
        <ele>400.694848</ele>
        <time>2022-05-14T15:30:15.000Z</time>
      </trkpt>
      <trkpt lat="42.815555" lon="-1.721792">
        <ele>401.872022</ele>
        <time>2022-05-14T15:30:20.000Z</time>
      </trkpt>
      <trkpt lat="42.815501" lon="-1.721515">
        <ele>402.424064</ele>
        <time>2022-05-14T15:30:22.000Z</time>
      </trkpt>
      <trkpt lat="42.81546" lon="-1.721276">
        <ele>402.956309</ele>
        <time>2022-05-14T15:30:24.000Z</time>
      </trkpt>
      <trkpt lat="42.815445" lon="-1.721188">
        <ele>403.140586</ele>
        <time>2022-05-14T15:30:25.000Z</time>
      </trkpt>
      <trkpt lat="42.815408" lon="-1.720918">
        <ele>403.701748</ele>
        <time>2022-05-14T15:30:27.000Z</time>
      </trkpt>
      <trkpt lat="42.815368" lon="-1.720352">
        <ele>405.402343</ele>
        <time>2022-05-14T15:30:32.000Z</time>
      </trkpt>
      <trkpt lat="42.815365" lon="-1.720281">
        <ele>405.632647</ele>
        <time>2022-05-14T15:30:33.000Z</time>
      </trkpt>
      <trkpt lat="42.815362" lon="-1.720133">
        <ele>406.109731</ele>
        <time>2022-05-14T15:30:34.000Z</time>
      </trkpt>
      <trkpt lat="42.815361" lon="-1.719921">
        <ele>406.768369</ele>
        <time>2022-05-14T15:30:36.000Z</time>
      </trkpt>
      <trkpt lat="42.815366" lon="-1.719863">
        <ele>406.96037</ele>
        <time>2022-05-14T15:30:36.000Z</time>
      </trkpt>
      <trkpt lat="42.815363" lon="-1.719822">
        <ele>407.118865</ele>
        <time>2022-05-14T15:30:36.000Z</time>
      </trkpt>
      <trkpt lat="42.815391" lon="-1.719725">
        <ele>407.396886</ele>
        <time>2022-05-14T15:30:37.000Z</time>
      </trkpt>
      <trkpt lat="42.815366" lon="-1.719536">
        <ele>408.049352</ele>
        <time>2022-05-14T15:30:39.000Z</time>
      </trkpt>
      <trkpt lat="42.815357" lon="-1.719301">
        <ele>408.809041</ele>
        <time>2022-05-14T15:30:41.000Z</time>
      </trkpt>
      <trkpt lat="42.815252" lon="-1.719116">
        <ele>409.574986</ele>
        <time>2022-05-14T15:30:43.000Z</time>
      </trkpt>
      <trkpt lat="42.815184" lon="-1.718872">
        <ele>410.415856</ele>
        <time>2022-05-14T15:30:45.000Z</time>
      </trkpt>
      <trkpt lat="42.815024" lon="-1.718311">
        <ele>412.071534</ele>
        <time>2022-05-14T15:30:50.000Z</time>
      </trkpt>
      <trkpt lat="42.814988" lon="-1.718189">
        <ele>412.220542</ele>
        <time>2022-05-14T15:30:51.000Z</time>
      </trkpt>
      <trkpt lat="42.814905" lon="-1.717775">
        <ele>412.755635</ele>
        <time>2022-05-14T15:30:55.000Z</time>
      </trkpt>
      <trkpt lat="42.814664" lon="-1.717274">
        <ele>413.486582</ele>
        <time>2022-05-14T15:31:00.000Z</time>
      </trkpt>
      <trkpt lat="42.814613" lon="-1.717177">
        <ele>413.65342</ele>
        <time>2022-05-14T15:31:01.000Z</time>
      </trkpt>
      <trkpt lat="42.814533" lon="-1.717092">
        <ele>413.813898</ele>
        <time>2022-05-14T15:31:02.000Z</time>
      </trkpt>
      <trkpt lat="42.814227" lon="-1.716657">
        <ele>414.556282</ele>
        <time>2022-05-14T15:31:07.000Z</time>
      </trkpt>
      <trkpt lat="42.813896" lon="-1.715936">
        <ele>415.216359</ele>
        <time>2022-05-14T15:31:14.000Z</time>
      </trkpt>
      <trkpt lat="42.813302" lon="-1.715272">
        <ele>415.801374</ele>
        <time>2022-05-14T15:31:23.000Z</time>
      </trkpt>
      <trkpt lat="42.813183" lon="-1.714957">
        <ele>416.003574</ele>
        <time>2022-05-14T15:31:26.000Z</time>
      </trkpt>
      <trkpt lat="42.813159" lon="-1.714773">
        <ele>416.097536</ele>
        <time>2022-05-14T15:31:28.000Z</time>
      </trkpt>
      <trkpt lat="42.813154" lon="-1.714651">
        <ele>416.170943</ele>
        <time>2022-05-14T15:31:29.000Z</time>
      </trkpt>
      <trkpt lat="42.813148" lon="-1.714087">
        <ele>416.430631</ele>
        <time>2022-05-14T15:31:34.000Z</time>
      </trkpt>
      <trkpt lat="42.813136" lon="-1.714037">
        <ele>416.451958</ele>
        <time>2022-05-14T15:31:34.000Z</time>
      </trkpt>
      <trkpt lat="42.813143" lon="-1.71385">
        <ele>416.535541</ele>
        <time>2022-05-14T15:31:36.000Z</time>
      </trkpt>
      <trkpt lat="42.813137" lon="-1.71376">
        <ele>416.57908</ele>
        <time>2022-05-14T15:31:37.000Z</time>
      </trkpt>
      <trkpt lat="42.813141" lon="-1.713502">
        <ele>416.690162</ele>
        <time>2022-05-14T15:31:39.000Z</time>
      </trkpt>
      <trkpt lat="42.813117" lon="-1.713235">
        <ele>416.808867</ele>
        <time>2022-05-14T15:31:41.000Z</time>
      </trkpt>
      <trkpt lat="42.813078" lon="-1.713207">
        <ele>416.836593</ele>
        <time>2022-05-14T15:31:41.000Z</time>
      </trkpt>
      <trkpt lat="42.812983" lon="-1.713083">
        <ele>416.918067</ele>
        <time>2022-05-14T15:31:42.000Z</time>
      </trkpt>
      <trkpt lat="42.812983" lon="-1.712955">
        <ele>416.973603</ele>
        <time>2022-05-14T15:31:43.000Z</time>
      </trkpt>
      <trkpt lat="42.813013" lon="-1.712891">
        <ele>417.001674</ele>
        <time>2022-05-14T15:31:44.000Z</time>
      </trkpt>
      <trkpt lat="42.81134" lon="-1.710997">
        <ele>416.618472</ele>
        <time>2022-05-14T15:32:08.000Z</time>
      </trkpt>
      <trkpt lat="42.81114" lon="-1.710739">
        <ele>416.332361</ele>
        <time>2022-05-14T15:32:11.000Z</time>
      </trkpt>
      <trkpt lat="42.811014" lon="-1.710571">
        <ele>415.968035</ele>
        <time>2022-05-14T15:32:13.000Z</time>
      </trkpt>
      <trkpt lat="42.810977" lon="-1.710594">
        <ele>415.887001</ele>
        <time>2022-05-14T15:32:13.000Z</time>
      </trkpt>
      <trkpt lat="42.810894" lon="-1.710586">
        <ele>415.72059</ele>
        <time>2022-05-14T15:32:14.000Z</time>
      </trkpt>
      <trkpt lat="42.81085" lon="-1.71057">
        <ele>415.638713</ele>
        <time>2022-05-14T15:32:15.000Z</time>
      </trkpt>
      <trkpt lat="42.810831" lon="-1.710529">
        <ele>415.555035</ele>
        <time>2022-05-14T15:32:15.000Z</time>
      </trkpt>
      <trkpt lat="42.810626" lon="-1.71046">
        <ele>415.112611</ele>
        <time>2022-05-14T15:32:17.000Z</time>
      </trkpt>
      <trkpt lat="42.810553" lon="-1.710569">
        <ele>414.901563</ele>
        <time>2022-05-14T15:32:18.000Z</time>
      </trkpt>
      <trkpt lat="42.809727" lon="-1.711423">
        <ele>412.729219</ele>
        <time>2022-05-14T15:32:30.000Z</time>
      </trkpt>
      <trkpt lat="42.809461" lon="-1.711634">
        <ele>411.731948</ele>
        <time>2022-05-14T15:32:33.000Z</time>
      </trkpt>
      <trkpt lat="42.809172" lon="-1.711757">
        <ele>410.732453</ele>
        <time>2022-05-14T15:32:36.000Z</time>
      </trkpt>
      <trkpt lat="42.80888" lon="-1.711732">
        <ele>409.810023</ele>
        <time>2022-05-14T15:32:39.000Z</time>
      </trkpt>
      <trkpt lat="42.808557" lon="-1.711524">
        <ele>408.570557</ele>
        <time>2022-05-14T15:32:43.000Z</time>
      </trkpt>
      <trkpt lat="42.807276" lon="-1.710009">
        <ele>403.67137</ele>
        <time>2022-05-14T15:33:02.000Z</time>
      </trkpt>
      <trkpt lat="42.807231" lon="-1.710041">
        <ele>403.558584</ele>
        <time>2022-05-14T15:33:03.000Z</time>
      </trkpt>
      <trkpt lat="42.807085" lon="-1.71004">
        <ele>403.139524</ele>
        <time>2022-05-14T15:33:05.000Z</time>
      </trkpt>
      <trkpt lat="42.807049" lon="-1.709995">
        <ele>403.026588</ele>
        <time>2022-05-14T15:33:06.000Z</time>
      </trkpt>
      <trkpt lat="42.807038" lon="-1.709958">
        <ele>402.914726</ele>
        <time>2022-05-14T15:33:06.000Z</time>
      </trkpt>
      <trkpt lat="42.80706" lon="-1.709795">
        <ele>402.591206</ele>
        <time>2022-05-14T15:33:07.000Z</time>
      </trkpt>
      <trkpt lat="42.807078" lon="-1.709751">
        <ele>402.48017</ele>
        <time>2022-05-14T15:33:07.000Z</time>
      </trkpt>
      <trkpt lat="42.806933" lon="-1.709536">
        <ele>401.990261</ele>
        <time>2022-05-14T15:33:09.000Z</time>
      </trkpt>
      <trkpt lat="42.806256" lon="-1.708729">
        <ele>401.413737</ele>
        <time>2022-05-14T15:33:19.000Z</time>
      </trkpt>
      <trkpt lat="42.805997" lon="-1.708428">
        <ele>401.199645</ele>
        <time>2022-05-14T15:33:23.000Z</time>
      </trkpt>
      <trkpt lat="42.805752" lon="-1.708139">
        <ele>400.989506</ele>
        <time>2022-05-14T15:33:27.000Z</time>
      </trkpt>
      <trkpt lat="42.805328" lon="-1.707629">
        <ele>400.854939</ele>
        <time>2022-05-14T15:33:33.000Z</time>
      </trkpt>
      <trkpt lat="42.805107" lon="-1.707351">
        <ele>400.844078</ele>
        <time>2022-05-14T15:33:36.000Z</time>
      </trkpt>
      <trkpt lat="42.804868" lon="-1.707065">
        <ele>400.833564</ele>
        <time>2022-05-14T15:33:40.000Z</time>
      </trkpt>
      <trkpt lat="42.804684" lon="-1.706835">
        <ele>400.825285</ele>
        <time>2022-05-14T15:33:43.000Z</time>
      </trkpt>
      <trkpt lat="42.80465" lon="-1.706791">
        <ele>400.82333</ele>
        <time>2022-05-14T15:33:44.000Z</time>
      </trkpt>
      <trkpt lat="42.803776" lon="-1.705726">
        <ele>400.949404</ele>
        <time>2022-05-14T15:33:57.000Z</time>
      </trkpt>
      <trkpt lat="42.803646" lon="-1.705488">
        <ele>400.998683</ele>
        <time>2022-05-14T15:33:59.000Z</time>
      </trkpt>
      <trkpt lat="42.803498" lon="-1.705084">
        <ele>401.067888</ele>
        <time>2022-05-14T15:34:03.000Z</time>
      </trkpt>
      <trkpt lat="42.803448" lon="-1.704387">
        <ele>401.177837</ele>
        <time>2022-05-14T15:34:09.000Z</time>
      </trkpt>
      <trkpt lat="42.803434" lon="-1.703496">
        <ele>401.233534</ele>
        <time>2022-05-14T15:34:16.000Z</time>
      </trkpt>
      <trkpt lat="42.803257" lon="-1.702953">
        <ele>401.265123</ele>
        <time>2022-05-14T15:34:21.000Z</time>
      </trkpt>
      <trkpt lat="42.80309" lon="-1.702619">
        <ele>401.286127</ele>
        <time>2022-05-14T15:34:24.000Z</time>
      </trkpt>
      <trkpt lat="42.802975" lon="-1.702413">
        <ele>401.300088</ele>
        <time>2022-05-14T15:34:26.000Z</time>
      </trkpt>
      <trkpt lat="42.802927" lon="-1.702279">
        <ele>401.307419</ele>
        <time>2022-05-14T15:34:27.000Z</time>
      </trkpt>
      <trkpt lat="42.802896" lon="-1.70218">
        <ele>401.31329</ele>
        <time>2022-05-14T15:34:28.000Z</time>
      </trkpt>
      <trkpt lat="42.803072" lon="-1.701951">
        <ele>401.508861</ele>
        <time>2022-05-14T15:34:31.000Z</time>
      </trkpt>
      <trkpt lat="42.803233" lon="-1.701693">
        <ele>401.806234</ele>
        <time>2022-05-14T15:34:34.000Z</time>
      </trkpt>
      <trkpt lat="42.803397" lon="-1.701143">
        <ele>402.354587</ele>
        <time>2022-05-14T15:34:39.000Z</time>
      </trkpt>
      <trkpt lat="42.803495" lon="-1.700725">
        <ele>402.76483</ele>
        <time>2022-05-14T15:34:43.000Z</time>
      </trkpt>
      <trkpt lat="42.803567" lon="-1.70047">
        <ele>403.021334</ele>
        <time>2022-05-14T15:34:45.000Z</time>
      </trkpt>
      <trkpt lat="42.803722" lon="-1.699938">
        <ele>403.551892</ele>
        <time>2022-05-14T15:34:50.000Z</time>
      </trkpt>
      <trkpt lat="42.803944" lon="-1.699466">
        <ele>403.831227</ele>
        <time>2022-05-14T15:34:55.000Z</time>
      </trkpt>
      <trkpt lat="42.804359" lon="-1.698863">
        <ele>404.217744</ele>
        <time>2022-05-14T15:35:02.000Z</time>
      </trkpt>
      <trkpt lat="42.805248" lon="-1.697655">
        <ele>404.308937</ele>
        <time>2022-05-14T15:35:16.000Z</time>
      </trkpt>
      <trkpt lat="42.805486" lon="-1.697393">
        <ele>404.00426</ele>
        <time>2022-05-14T15:35:19.000Z</time>
      </trkpt>
      <trkpt lat="42.806652" lon="-1.696565">
        <ele>402.943064</ele>
        <time>2022-05-14T15:35:34.000Z</time>
      </trkpt>
      <trkpt lat="42.807226" lon="-1.695835">
        <ele>402.720955</ele>
        <time>2022-05-14T15:35:43.000Z</time>
      </trkpt>
      <trkpt lat="42.807614" lon="-1.695215">
        <ele>402.555769</ele>
        <time>2022-05-14T15:35:50.000Z</time>
      </trkpt>
      <trkpt lat="42.808008" lon="-1.694412">
        <ele>402.794825</ele>
        <time>2022-05-14T15:35:58.000Z</time>
      </trkpt>
      <trkpt lat="42.808011" lon="-1.694405">
        <ele>402.797945</ele>
        <time>2022-05-14T15:35:58.000Z</time>
      </trkpt>
      <trkpt lat="42.808269" lon="-1.69362">
        <ele>403.115238</ele>
        <time>2022-05-14T15:36:05.000Z</time>
      </trkpt>
      <trkpt lat="42.809332" lon="-1.690913">
        <ele>404.34039</ele>
        <time>2022-05-14T15:36:30.000Z</time>
      </trkpt>
      <trkpt lat="42.809637" lon="-1.690436">
        <ele>404.601947</ele>
        <time>2022-05-14T15:36:35.000Z</time>
      </trkpt>
      <trkpt lat="42.809957" lon="-1.690154">
        <ele>404.82039</ele>
        <time>2022-05-14T15:36:39.000Z</time>
      </trkpt>
      <trkpt lat="42.81016" lon="-1.690078">
        <ele>404.939819</ele>
        <time>2022-05-14T15:36:41.000Z</time>
      </trkpt>
      <trkpt lat="42.81034" lon="-1.689987">
        <ele>405.052088</ele>
        <time>2022-05-14T15:36:43.000Z</time>
      </trkpt>
      <trkpt lat="42.810532" lon="-1.689963">
        <ele>405.156554</ele>
        <time>2022-05-14T15:36:45.000Z</time>
      </trkpt>
      <trkpt lat="42.811066" lon="-1.690072">
        <ele>405.457989</ele>
        <time>2022-05-14T15:36:51.000Z</time>
      </trkpt>
      <trkpt lat="42.812883" lon="-1.690737">
        <ele>406.241082</ele>
        <time>2022-05-14T15:37:12.000Z</time>
      </trkpt>
      <trkpt lat="42.813047" lon="-1.690814">
        <ele>406.347795</ele>
        <time>2022-05-14T15:37:14.000Z</time>
      </trkpt>
      <trkpt lat="42.813079" lon="-1.690786">
        <ele>406.374001</ele>
        <time>2022-05-14T15:37:14.000Z</time>
      </trkpt>
      <trkpt lat="42.813129" lon="-1.690766">
        <ele>406.399908</ele>
        <time>2022-05-14T15:37:15.000Z</time>
      </trkpt>
      <trkpt lat="42.81324" lon="-1.690564">
        <ele>406.51417</ele>
        <time>2022-05-14T15:37:17.000Z</time>
      </trkpt>
      <trkpt lat="42.813482" lon="-1.689646">
        <ele>406.961235</ele>
        <time>2022-05-14T15:37:25.000Z</time>
      </trkpt>
      <trkpt lat="42.81363" lon="-1.689099">
        <ele>407.22011</ele>
        <time>2022-05-14T15:37:30.000Z</time>
      </trkpt>
      <trkpt lat="42.81361" lon="-1.689063">
        <ele>407.240875</ele>
        <time>2022-05-14T15:37:30.000Z</time>
      </trkpt>
      <trkpt lat="42.81358" lon="-1.689027">
        <ele>407.261582</ele>
        <time>2022-05-14T15:37:30.000Z</time>
      </trkpt>
      <trkpt lat="42.813589" lon="-1.68894">
        <ele>407.300314</ele>
        <time>2022-05-14T15:37:31.000Z</time>
      </trkpt>
      <trkpt lat="42.813609" lon="-1.688904">
        <ele>407.31948</ele>
        <time>2022-05-14T15:37:31.000Z</time>
      </trkpt>
      <trkpt lat="42.813634" lon="-1.688885">
        <ele>407.337704</ele>
        <time>2022-05-14T15:37:31.000Z</time>
      </trkpt>
      <trkpt lat="42.813708" lon="-1.688808">
        <ele>407.389527</ele>
        <time>2022-05-14T15:37:32.000Z</time>
      </trkpt>
      <trkpt lat="42.813746" lon="-1.688683">
        <ele>407.445102</ele>
        <time>2022-05-14T15:37:33.000Z</time>
      </trkpt>
      <trkpt lat="42.814183" lon="-1.68743">
        <ele>408.031188</ele>
        <time>2022-05-14T15:37:44.000Z</time>
      </trkpt>
      <trkpt lat="42.814424" lon="-1.686695">
        <ele>408.335758</ele>
        <time>2022-05-14T15:37:51.000Z</time>
      </trkpt>
      <trkpt lat="42.814941" lon="-1.685081">
        <ele>408.567299</ele>
        <time>2022-05-14T15:38:05.000Z</time>
      </trkpt>
      <trkpt lat="42.814993" lon="-1.684815">
        <ele>408.602329</ele>
        <time>2022-05-14T15:38:07.000Z</time>
      </trkpt>
      <trkpt lat="42.814975" lon="-1.68453">
        <ele>408.638874</ele>
        <time>2022-05-14T15:38:09.000Z</time>
      </trkpt>
      <trkpt lat="42.814916" lon="-1.684473">
        <ele>408.641367</ele>
        <time>2022-05-14T15:38:10.000Z</time>
      </trkpt>
      <trkpt lat="42.81486" lon="-1.684267">
        <ele>408.646462</ele>
        <time>2022-05-14T15:38:12.000Z</time>
      </trkpt>
      <trkpt lat="42.814866" lon="-1.684153">
        <ele>408.649067</ele>
        <time>2022-05-14T15:38:13.000Z</time>
      </trkpt>
      <trkpt lat="42.814945" lon="-1.684002">
        <ele>408.65322</ele>
        <time>2022-05-14T15:38:15.000Z</time>
      </trkpt>
      <trkpt lat="42.814992" lon="-1.683945">
        <ele>408.655271</ele>
        <time>2022-05-14T15:38:16.000Z</time>
      </trkpt>
      <trkpt lat="42.815106" lon="-1.683898">
        <ele>408.65876</ele>
        <time>2022-05-14T15:38:17.000Z</time>
      </trkpt>
      <trkpt lat="42.815155" lon="-1.683929">
        <ele>408.660756</ele>
        <time>2022-05-14T15:38:18.000Z</time>
      </trkpt>
      <trkpt lat="42.815246" lon="-1.683866">
        <ele>408.663592</ele>
        <time>2022-05-14T15:38:19.000Z</time>
      </trkpt>
      <trkpt lat="42.815804" lon="-1.683691">
        <ele>408.681751</ele>
        <time>2022-05-14T15:38:25.000Z</time>
      </trkpt>
      <trkpt lat="42.816849" lon="-1.68321">
        <ele>408.257945</ele>
        <time>2022-05-14T15:38:37.000Z</time>
      </trkpt>
      <trkpt lat="42.817319" lon="-1.682917">
        <ele>407.916821</ele>
        <time>2022-05-14T15:38:43.000Z</time>
      </trkpt>
      <trkpt lat="42.817607" lon="-1.682724">
        <ele>407.711143</ele>
        <time>2022-05-14T15:38:47.000Z</time>
      </trkpt>
      <trkpt lat="42.818033" lon="-1.682333">
        <ele>407.279343</ele>
        <time>2022-05-14T15:38:53.000Z</time>
      </trkpt>
      <trkpt lat="42.818052" lon="-1.68229">
        <ele>407.229387</ele>
        <time>2022-05-14T15:38:53.000Z</time>
      </trkpt>
      <trkpt lat="42.818154" lon="-1.682142">
        <ele>407.076704</ele>
        <time>2022-05-14T15:38:55.000Z</time>
      </trkpt>
      <trkpt lat="42.818455" lon="-1.681482">
        <ele>406.460232</ele>
        <time>2022-05-14T15:39:01.000Z</time>
      </trkpt>
      <trkpt lat="42.81872" lon="-1.680548">
        <ele>405.659082</ele>
        <time>2022-05-14T15:39:09.000Z</time>
      </trkpt>
      <trkpt lat="42.818605" lon="-1.680502">
        <ele>405.565434</ele>
        <time>2022-05-14T15:39:10.000Z</time>
      </trkpt>
      <trkpt lat="42.818577" lon="-1.680492">
        <ele>405.565496</ele>
        <time>2022-05-14T15:39:10.000Z</time>
      </trkpt>
      <trkpt lat="42.818503" lon="-1.680454">
        <ele>405.565734</ele>
        <time>2022-05-14T15:39:11.000Z</time>
      </trkpt>
      <trkpt lat="42.818047" lon="-1.680206">
        <ele>405.567224</ele>
        <time>2022-05-14T15:39:16.000Z</time>
      </trkpt>
      <trkpt lat="42.818008" lon="-1.680174">
        <ele>405.567316</ele>
        <time>2022-05-14T15:39:17.000Z</time>
      </trkpt>
      <trkpt lat="42.817936" lon="-1.679962">
        <ele>405.567857</ele>
        <time>2022-05-14T15:39:19.000Z</time>
      </trkpt>
      <trkpt lat="42.817955" lon="-1.679509">
        <ele>405.568846</ele>
        <time>2022-05-14T15:39:23.000Z</time>
      </trkpt>
      <trkpt lat="42.817992" lon="-1.678436">
        <ele>405.632788</ele>
        <time>2022-05-14T15:39:32.000Z</time>
      </trkpt>
      <trkpt lat="42.817985" lon="-1.678379">
        <ele>405.646991</ele>
        <time>2022-05-14T15:39:32.000Z</time>
      </trkpt>
      <trkpt lat="42.818229" lon="-1.67668">
        <ele>406.130704</ele>
        <time>2022-05-14T15:39:46.000Z</time>
      </trkpt>
      <trkpt lat="42.818294" lon="-1.676311">
        <ele>406.236186</ele>
        <time>2022-05-14T15:39:49.000Z</time>
      </trkpt>
      <trkpt lat="42.818427" lon="-1.675709">
        <ele>406.274128</ele>
        <time>2022-05-14T15:39:54.000Z</time>
      </trkpt>
      <trkpt lat="42.818487" lon="-1.674967">
        <ele>406.302319</ele>
        <time>2022-05-14T15:40:00.000Z</time>
      </trkpt>
      <trkpt lat="42.818488" lon="-1.674292">
        <ele>406.32753</ele>
        <time>2022-05-14T15:40:06.000Z</time>
      </trkpt>
      <trkpt lat="42.818413" lon="-1.674178">
        <ele>406.333983</ele>
        <time>2022-05-14T15:40:07.000Z</time>
      </trkpt>
      <trkpt lat="42.81836" lon="-1.67387">
        <ele>406.351387</ele>
        <time>2022-05-14T15:40:10.000Z</time>
      </trkpt>
      <trkpt lat="42.818262" lon="-1.673389">
        <ele>406.88516</ele>
        <time>2022-05-14T15:40:14.000Z</time>
      </trkpt>
      <trkpt lat="42.817831" lon="-1.671338">
        <ele>409.326711</ele>
        <time>2022-05-14T15:40:31.000Z</time>
      </trkpt>
      <trkpt lat="42.817634" lon="-1.670319">
        <ele>411.362897</ele>
        <time>2022-05-14T15:40:40.000Z</time>
      </trkpt>
      <trkpt lat="42.817673" lon="-1.669739">
        <ele>412.458104</ele>
        <time>2022-05-14T15:40:45.000Z</time>
      </trkpt>
      <trkpt lat="42.817678" lon="-1.669526">
        <ele>412.879122</ele>
        <time>2022-05-14T15:40:47.000Z</time>
      </trkpt>
      <trkpt lat="42.817675" lon="-1.669532">
        <ele>412.879122</ele>
        <time>2022-05-14T15:40:47.000Z</time>
      </trkpt>
      <trkpt lat="42.817675" lon="-1.669531">
        <ele>412.879115</ele>
        <time>2022-05-14T15:40:47.000Z</time>
      </trkpt>
      <trkpt lat="42.817691" lon="-1.668665">
        <ele>414.58276</ele>
        <time>2022-05-14T15:40:54.000Z</time>
      </trkpt>
      <trkpt lat="42.817684" lon="-1.668665">
        <ele>414.582755</ele>
        <time>2022-05-14T15:40:54.000Z</time>
      </trkpt>
      <trkpt lat="42.817678" lon="-1.668654">
        <ele>414.582759</ele>
        <time>2022-05-14T15:40:54.000Z</time>
      </trkpt>
      <trkpt lat="42.817667" lon="-1.668152">
        <ele>415.624543</ele>
        <time>2022-05-14T15:40:58.000Z</time>
      </trkpt>
      <trkpt lat="42.817675" lon="-1.668138">
        <ele>415.624546</ele>
        <time>2022-05-14T15:40:58.000Z</time>
      </trkpt>
      <trkpt lat="42.817679" lon="-1.668139">
        <ele>415.624543</ele>
        <time>2022-05-14T15:40:58.000Z</time>
      </trkpt>
      <trkpt lat="42.817684" lon="-1.667471">
        <ele>416.99814</ele>
        <time>2022-05-14T15:41:03.000Z</time>
      </trkpt>
      <trkpt lat="42.817684" lon="-1.66746">
        <ele>416.998131</ele>
        <time>2022-05-14T15:41:03.000Z</time>
      </trkpt>
      <trkpt lat="42.817798" lon="-1.666355">
        <ele>419.152218</ele>
        <time>2022-05-14T15:41:12.000Z</time>
      </trkpt>
      <trkpt lat="42.8178" lon="-1.666344">
        <ele>419.152227</ele>
        <time>2022-05-14T15:41:12.000Z</time>
      </trkpt>
      <trkpt lat="42.817815" lon="-1.666086">
        <ele>419.608061</ele>
        <time>2022-05-14T15:41:14.000Z</time>
      </trkpt>
      <trkpt lat="42.81782" lon="-1.666081">
        <ele>419.608053</ele>
        <time>2022-05-14T15:41:14.000Z</time>
      </trkpt>
      <trkpt lat="42.817836" lon="-1.665256">
        <ele>421.013105</ele>
        <time>2022-05-14T15:41:21.000Z</time>
      </trkpt>
      <trkpt lat="42.817837" lon="-1.664428">
        <ele>422.418106</ele>
        <time>2022-05-14T15:41:28.000Z</time>
      </trkpt>
      <trkpt lat="42.817845" lon="-1.664432">
        <ele>422.418103</ele>
        <time>2022-05-14T15:41:28.000Z</time>
      </trkpt>
      <trkpt lat="42.817853" lon="-1.664434">
        <ele>422.418115</ele>
        <time>2022-05-14T15:41:28.000Z</time>
      </trkpt>
      <trkpt lat="42.817865" lon="-1.66404">
        <ele>422.904123</ele>
        <time>2022-05-14T15:41:31.000Z</time>
      </trkpt>
      <trkpt lat="42.81788" lon="-1.664045">
        <ele>422.904129</ele>
        <time>2022-05-14T15:41:31.000Z</time>
      </trkpt>
      <trkpt lat="42.818182" lon="-1.662906">
        <ele>423.884717</ele>
        <time>2022-05-14T15:41:41.000Z</time>
      </trkpt>
      <trkpt lat="42.818175" lon="-1.662914">
        <ele>423.884707</ele>
        <time>2022-05-14T15:41:41.000Z</time>
      </trkpt>
      <trkpt lat="42.818176" lon="-1.662902">
        <ele>423.884707</ele>
        <time>2022-05-14T15:41:41.000Z</time>
      </trkpt>
      <trkpt lat="42.818274" lon="-1.662551">
        <ele>424.193641</ele>
        <time>2022-05-14T15:41:44.000Z</time>
      </trkpt>
      <trkpt lat="42.81828" lon="-1.662559">
        <ele>424.19365</ele>
        <time>2022-05-14T15:41:44.000Z</time>
      </trkpt>
      <trkpt lat="42.818275" lon="-1.66256">
        <ele>424.193655</ele>
        <time>2022-05-14T15:41:44.000Z</time>
      </trkpt>
      <trkpt lat="42.818293" lon="-1.662333">
        <ele>424.376175</ele>
        <time>2022-05-14T15:41:46.000Z</time>
      </trkpt>
      <trkpt lat="42.818297" lon="-1.662324">
        <ele>424.376174</ele>
        <time>2022-05-14T15:41:46.000Z</time>
      </trkpt>
      <trkpt lat="42.818285" lon="-1.662338">
        <ele>424.37618</ele>
        <time>2022-05-14T15:41:46.000Z</time>
      </trkpt>
      <trkpt lat="42.818339" lon="-1.662172">
        <ele>424.519344</ele>
        <time>2022-05-14T15:41:47.000Z</time>
      </trkpt>
      <trkpt lat="42.81834" lon="-1.662166">
        <ele>424.519348</ele>
        <time>2022-05-14T15:41:47.000Z</time>
      </trkpt>
      <trkpt lat="42.818338" lon="-1.662176">
        <ele>424.519347</ele>
        <time>2022-05-14T15:41:47.000Z</time>
      </trkpt>
      <trkpt lat="42.81847" lon="-1.661996">
        <ele>424.713984</ele>
        <time>2022-05-14T15:41:49.000Z</time>
      </trkpt>
      <trkpt lat="42.81846" lon="-1.662003">
        <ele>424.713984</ele>
        <time>2022-05-14T15:41:49.000Z</time>
      </trkpt>
      <trkpt lat="42.818468" lon="-1.662003">
        <ele>424.713997</ele>
        <time>2022-05-14T15:41:49.000Z</time>
      </trkpt>
      <trkpt lat="42.818563" lon="-1.661866">
        <ele>424.729935</ele>
        <time>2022-05-14T15:41:51.000Z</time>
      </trkpt>
      <trkpt lat="42.818641" lon="-1.661732">
        <ele>424.719263</ele>
        <time>2022-05-14T15:41:52.000Z</time>
      </trkpt>
      <trkpt lat="42.81887" lon="-1.661283">
        <ele>424.684698</ele>
        <time>2022-05-14T15:41:56.000Z</time>
      </trkpt>
      <trkpt lat="42.818876" lon="-1.661257">
        <ele>424.682691</ele>
        <time>2022-05-14T15:41:56.000Z</time>
      </trkpt>
      <trkpt lat="42.819202" lon="-1.660647">
        <ele>424.635315</ele>
        <time>2022-05-14T15:42:02.000Z</time>
      </trkpt>
      <trkpt lat="42.819412" lon="-1.66028">
        <ele>424.607177</ele>
        <time>2022-05-14T15:42:06.000Z</time>
      </trkpt>
      <trkpt lat="42.819949" lon="-1.659253">
        <ele>422.92429</ele>
        <time>2022-05-14T15:42:16.000Z</time>
      </trkpt>
      <trkpt lat="42.820084" lon="-1.658908">
        <ele>422.237987</ele>
        <time>2022-05-14T15:42:19.000Z</time>
      </trkpt>
      <trkpt lat="42.820089" lon="-1.658758">
        <ele>421.972601</ele>
        <time>2022-05-14T15:42:20.000Z</time>
      </trkpt>
      <trkpt lat="42.820116" lon="-1.658658">
        <ele>421.789588</ele>
        <time>2022-05-14T15:42:21.000Z</time>
      </trkpt>
      <trkpt lat="42.820118" lon="-1.658587">
        <ele>421.660437</ele>
        <time>2022-05-14T15:42:22.000Z</time>
      </trkpt>
      <trkpt lat="42.820131" lon="-1.65852">
        <ele>421.530334</ele>
        <time>2022-05-14T15:42:23.000Z</time>
      </trkpt>
      <trkpt lat="42.820152" lon="-1.658463">
        <ele>421.402782</ele>
        <time>2022-05-14T15:42:24.000Z</time>
      </trkpt>
      <trkpt lat="42.820185" lon="-1.658404">
        <ele>421.272454</ele>
        <time>2022-05-14T15:42:25.000Z</time>
      </trkpt>
      <trkpt lat="42.820229" lon="-1.658379">
        <ele>421.143131</ele>
        <time>2022-05-14T15:42:26.000Z</time>
      </trkpt>
      <trkpt lat="42.820286" lon="-1.658362">
        <ele>421.012622</ele>
        <time>2022-05-14T15:42:27.000Z</time>
      </trkpt>
      <trkpt lat="42.820337" lon="-1.65838">
        <ele>420.884508</ele>
        <time>2022-05-14T15:42:28.000Z</time>
      </trkpt>
      <trkpt lat="42.820386" lon="-1.658316">
        <ele>420.713382</ele>
        <time>2022-05-14T15:42:29.000Z</time>
      </trkpt>
      <trkpt lat="42.820443" lon="-1.658193">
        <ele>420.468469</ele>
        <time>2022-05-14T15:42:30.000Z</time>
      </trkpt>
      <trkpt lat="42.820956" lon="-1.657261">
        <ele>419.317052</ele>
        <time>2022-05-14T15:42:40.000Z</time>
      </trkpt>
      <trkpt lat="42.821149" lon="-1.656923">
        <ele>418.946494</ele>
        <time>2022-05-14T15:42:43.000Z</time>
      </trkpt>
      <trkpt lat="42.821312" lon="-1.65661">
        <ele>418.602672</ele>
        <time>2022-05-14T15:42:46.000Z</time>
      </trkpt>
      <trkpt lat="42.821387" lon="-1.656389">
        <ele>418.398803</ele>
        <time>2022-05-14T15:42:48.000Z</time>
      </trkpt>
      <trkpt lat="42.821372" lon="-1.656325">
        <ele>418.32698</ele>
        <time>2022-05-14T15:42:49.000Z</time>
      </trkpt>
      <trkpt lat="42.821356" lon="-1.656235">
        <ele>418.255959</ele>
        <time>2022-05-14T15:42:50.000Z</time>
      </trkpt>
      <trkpt lat="42.821305" lon="-1.656142">
        <ele>418.144428</ele>
        <time>2022-05-14T15:42:51.000Z</time>
      </trkpt>
      <trkpt lat="42.821245" lon="-1.656067">
        <ele>418.18856</ele>
        <time>2022-05-14T15:42:52.000Z</time>
      </trkpt>
      <trkpt lat="42.820786" lon="-1.655613">
        <ele>421.892466</ele>
        <time>2022-05-14T15:42:58.000Z</time>
      </trkpt>
      <trkpt lat="42.820438" lon="-1.655289">
        <ele>424.632217</ele>
        <time>2022-05-14T15:43:03.000Z</time>
      </trkpt>
      <trkpt lat="42.820252" lon="-1.655084">
        <ele>426.180765</ele>
        <time>2022-05-14T15:43:06.000Z</time>
      </trkpt>
      <trkpt lat="42.820116" lon="-1.654957">
        <ele>427.254561</ele>
        <time>2022-05-14T15:43:08.000Z</time>
      </trkpt>
      <trkpt lat="42.820031" lon="-1.654879">
        <ele>427.892889</ele>
        <time>2022-05-14T15:43:09.000Z</time>
      </trkpt>
      <trkpt lat="42.819882" lon="-1.654443">
        <ele>430.17112</ele>
        <time>2022-05-14T15:43:13.000Z</time>
      </trkpt>
      <trkpt lat="42.81981" lon="-1.653948">
        <ele>432.700688</ele>
        <time>2022-05-14T15:43:17.000Z</time>
      </trkpt>
      <trkpt lat="42.819785" lon="-1.653712">
        <ele>433.912139</ele>
        <time>2022-05-14T15:43:19.000Z</time>
      </trkpt>
      <trkpt lat="42.819748" lon="-1.653593">
        <ele>434.541078</ele>
        <time>2022-05-14T15:43:20.000Z</time>
      </trkpt>
      <trkpt lat="42.819681" lon="-1.653497">
        <ele>435.173271</ele>
        <time>2022-05-14T15:43:21.000Z</time>
      </trkpt>
      <trkpt lat="42.819641" lon="-1.653418">
        <ele>435.684808</ele>
        <time>2022-05-14T15:43:22.000Z</time>
      </trkpt>
      <trkpt lat="42.819609" lon="-1.653418">
        <ele>435.883528</ele>
        <time>2022-05-14T15:43:22.000Z</time>
      </trkpt>
      <trkpt lat="42.819556" lon="-1.653396">
        <ele>436.19239</ele>
        <time>2022-05-14T15:43:23.000Z</time>
      </trkpt>
      <trkpt lat="42.81946" lon="-1.653259">
        <ele>437.109705</ele>
        <time>2022-05-14T15:43:25.000Z</time>
      </trkpt>
      <trkpt lat="42.81945" lon="-1.653207">
        <ele>437.416525</ele>
        <time>2022-05-14T15:43:25.000Z</time>
      </trkpt>
      <trkpt lat="42.819446" lon="-1.653154">
        <ele>437.729327</ele>
        <time>2022-05-14T15:43:25.000Z</time>
      </trkpt>
      <trkpt lat="42.819435" lon="-1.653078">
        <ele>438.038778</ele>
        <time>2022-05-14T15:43:26.000Z</time>
      </trkpt>
      <trkpt lat="42.819442" lon="-1.652753">
        <ele>439.655818</ele>
        <time>2022-05-14T15:43:29.000Z</time>
      </trkpt>
      <trkpt lat="42.819352" lon="-1.65245">
        <ele>441.320107</ele>
        <time>2022-05-14T15:43:32.000Z</time>
      </trkpt>
      <trkpt lat="42.819362" lon="-1.652303">
        <ele>441.989149</ele>
        <time>2022-05-14T15:43:33.000Z</time>
      </trkpt>
      <trkpt lat="42.819277" lon="-1.652015">
        <ele>442.702315</ele>
        <time>2022-05-14T15:43:36.000Z</time>
      </trkpt>
      <trkpt lat="42.819181" lon="-1.651651">
        <ele>443.553433</ele>
        <time>2022-05-14T15:43:39.000Z</time>
      </trkpt>
      <trkpt lat="42.819016" lon="-1.651307">
        <ele>444.445931</ele>
        <time>2022-05-14T15:43:42.000Z</time>
      </trkpt>
      <trkpt lat="42.819022" lon="-1.651304">
        <ele>444.474378</ele>
        <time>2022-05-14T15:43:42.000Z</time>
      </trkpt>
      <trkpt lat="42.818882" lon="-1.651071">
        <ele>445.122688</ele>
        <time>2022-05-14T15:43:44.000Z</time>
      </trkpt>
      <trkpt lat="42.818806" lon="-1.650989">
        <ele>445.407208</ele>
        <time>2022-05-14T15:43:45.000Z</time>
      </trkpt>
      <trkpt lat="42.818696" lon="-1.650909">
        <ele>445.764184</ele>
        <time>2022-05-14T15:43:46.000Z</time>
      </trkpt>
      <trkpt lat="42.818663" lon="-1.650877">
        <ele>445.918734</ele>
        <time>2022-05-14T15:43:46.000Z</time>
      </trkpt>
      <trkpt lat="42.818613" lon="-1.650841">
        <ele>446.073288</ele>
        <time>2022-05-14T15:43:47.000Z</time>
      </trkpt>
      <trkpt lat="42.818564" lon="-1.650812">
        <ele>446.224191</ele>
        <time>2022-05-14T15:43:48.000Z</time>
      </trkpt>
      <trkpt lat="42.817966" lon="-1.650609">
        <ele>447.788176</ele>
        <time>2022-05-14T15:43:55.000Z</time>
      </trkpt>
      <trkpt lat="42.817925" lon="-1.650592">
        <ele>447.877298</ele>
        <time>2022-05-14T15:43:55.000Z</time>
      </trkpt>
      <trkpt lat="42.817249" lon="-1.649995">
        <ele>449.299755</ele>
        <time>2022-05-14T15:44:04.000Z</time>
      </trkpt>
      <trkpt lat="42.816867" lon="-1.649579">
        <ele>450.155136</ele>
        <time>2022-05-14T15:44:09.000Z</time>
      </trkpt>
      <trkpt lat="42.816804" lon="-1.649504">
        <ele>450.294268</ele>
        <time>2022-05-14T15:44:10.000Z</time>
      </trkpt>
      <trkpt lat="42.816756" lon="-1.649586">
        <ele>450.428293</ele>
        <time>2022-05-14T15:44:11.000Z</time>
      </trkpt>
      <trkpt lat="42.816017" lon="-1.650587">
        <ele>450.681310897</ele>
        <time>2022-05-14T15:44:23.000Z</time>
      </trkpt>
      <trkpt lat="42.815736" lon="-1.650987">
        <ele>450.779983225</ele>
        <time>2022-05-14T15:44:28.000Z</time>
      </trkpt>
      <trkpt lat="42.815711" lon="-1.651024">
        <ele>450.788945392</ele>
        <time>2022-05-14T15:44:28.000Z</time>
      </trkpt>
      <trkpt lat="42.815662" lon="-1.651083">
        <ele>450.804823663</ele>
        <time>2022-05-14T15:44:29.000Z</time>
      </trkpt>
      <trkpt lat="42.81564" lon="-1.651166">
        <ele>450.820546636</ele>
        <time>2022-05-14T15:44:30.000Z</time>
      </trkpt>
      <trkpt lat="42.815576" lon="-1.652105">
        <ele>450.988558823</ele>
        <time>2022-05-14T15:44:38.000Z</time>
      </trkpt>
    </trkseg>
  </trk>
</gpx>

<!--
Performance optimized by W3 Total Cache. Learn more: https://www.boldgrid.com/w3-total-cache/?utm_source=w3tc&utm_medium=footer_comment&utm_campaign=free_plugin

Page Caching using Disk: Enhanced{w3tc_pagecache_reject_reason} 

Served from: www.aquabike.world @ 2026-05-07 22:43:57 by W3 Total Cache
-->